<?xml version="1.0" encoding="UTF-8" standalone="no" ?>
<gpx xmlns="http://www.topografix.com/GPX/1/1" xmlns:xsi="http://www.w3.org/2001/XMLSchema-instance" xsi:schemaLocation="http://www.topografix.com/GPX/1/1 http://www.topografix.com/GPX/1/1/gpx.xsd" version="1.1" creator="VisuGPX - https://www.visugpx.com">
  <metadata>
    <name>Val Joly 010617</name>
    <desc><![CDATA[Amis de Wargnies le Petit organisée par Philippe. Même par soleil, se méfier de la boue (sources)]]></desc>
  </metadata>
  <trk>
    <name><![CDATA[VALJOLY-17 06:47:51]]></name>
    <trkseg>
      <trkpt lat="50.11986" lon="4.17907">
        <ele>184.23</ele>
        <time>2017-06-01T06:52:31Z</time>
      </trkpt>
      <trkpt lat="50.11986" lon="4.17908">
        <ele>185.19</ele>
        <time>2017-06-01T06:52:50Z</time>
      </trkpt>
      <trkpt lat="50.11986" lon="4.17908">
        <ele>186.15</ele>
        <time>2017-06-01T06:53:04Z</time>
      </trkpt>
      <trkpt lat="50.11985" lon="4.17908">
        <ele>186.63</ele>
        <time>2017-06-01T06:53:16Z</time>
      </trkpt>
      <trkpt lat="50.11985" lon="4.17907">
        <ele>187.11</ele>
        <time>2017-06-01T06:53:31Z</time>
      </trkpt>
      <trkpt lat="50.11984" lon="4.17906">
        <ele>186.63</ele>
        <time>2017-06-01T06:53:48Z</time>
      </trkpt>
      <trkpt lat="50.11981" lon="4.17894">
        <ele>186.15</ele>
        <time>2017-06-01T06:54:04Z</time>
      </trkpt>
      <trkpt lat="50.11981" lon="4.17893">
        <ele>185.67</ele>
        <time>2017-06-01T06:54:29Z</time>
      </trkpt>
      <trkpt lat="50.11981" lon="4.17893">
        <ele>185.67</ele>
        <time>2017-06-01T06:54:49Z</time>
      </trkpt>
      <trkpt lat="50.11982" lon="4.17892">
        <ele>186.15</ele>
        <time>2017-06-01T06:55:17Z</time>
      </trkpt>
      <trkpt lat="50.11981" lon="4.17893">
        <ele>186.15</ele>
        <time>2017-06-01T06:55:40Z</time>
      </trkpt>
      <trkpt lat="50.11982" lon="4.17893">
        <ele>186.63</ele>
        <time>2017-06-01T06:56:02Z</time>
      </trkpt>
      <trkpt lat="50.11982" lon="4.17894">
        <ele>186.15</ele>
        <time>2017-06-01T06:56:22Z</time>
      </trkpt>
      <trkpt lat="50.11982" lon="4.17894">
        <ele>186.15</ele>
        <time>2017-06-01T06:56:41Z</time>
      </trkpt>
      <trkpt lat="50.11982" lon="4.17894">
        <ele>186.15</ele>
        <time>2017-06-01T06:57:00Z</time>
      </trkpt>
      <trkpt lat="50.11983" lon="4.17894">
        <ele>186.15</ele>
        <time>2017-06-01T06:57:28Z</time>
      </trkpt>
      <trkpt lat="50.11983" lon="4.17895">
        <ele>186.63</ele>
        <time>2017-06-01T06:57:55Z</time>
      </trkpt>
      <trkpt lat="50.11983" lon="4.17896">
        <ele>186.15</ele>
        <time>2017-06-01T06:58:19Z</time>
      </trkpt>
      <trkpt lat="50.11983" lon="4.17896">
        <ele>186.63</ele>
        <time>2017-06-01T06:58:41Z</time>
      </trkpt>
      <trkpt lat="50.11983" lon="4.17896">
        <ele>186.63</ele>
        <time>2017-06-01T06:58:57Z</time>
      </trkpt>
      <trkpt lat="50.11983" lon="4.17896">
        <ele>186.15</ele>
        <time>2017-06-01T06:59:12Z</time>
      </trkpt>
      <trkpt lat="50.11986" lon="4.17903">
        <ele>186.15</ele>
        <time>2017-06-01T06:59:27Z</time>
      </trkpt>
      <trkpt lat="50.11987" lon="4.17905">
        <ele>186.15</ele>
        <time>2017-06-01T06:59:42Z</time>
      </trkpt>
      <trkpt lat="50.11987" lon="4.17905">
        <ele>186.15</ele>
        <time>2017-06-01T06:59:59Z</time>
      </trkpt>
      <trkpt lat="50.11987" lon="4.17905">
        <ele>186.15</ele>
        <time>2017-06-01T07:00:20Z</time>
      </trkpt>
      <trkpt lat="50.11987" lon="4.17904">
        <ele>185.67</ele>
        <time>2017-06-01T07:00:51Z</time>
      </trkpt>
      <trkpt lat="50.11987" lon="4.17903">
        <ele>186.15</ele>
        <time>2017-06-01T07:01:17Z</time>
      </trkpt>
      <trkpt lat="50.11987" lon="4.17903">
        <ele>186.15</ele>
        <time>2017-06-01T07:01:37Z</time>
      </trkpt>
      <trkpt lat="50.11987" lon="4.17903">
        <ele>186.15</ele>
        <time>2017-06-01T07:01:57Z</time>
      </trkpt>
      <trkpt lat="50.11987" lon="4.17903">
        <ele>185.67</ele>
        <time>2017-06-01T07:02:15Z</time>
      </trkpt>
      <trkpt lat="50.11988" lon="4.17903">
        <ele>185.67</ele>
        <time>2017-06-01T07:02:37Z</time>
      </trkpt>
      <trkpt lat="50.11988" lon="4.17903">
        <ele>185.19</ele>
        <time>2017-06-01T07:03:02Z</time>
      </trkpt>
      <trkpt lat="50.11988" lon="4.17903">
        <ele>185.19</ele>
        <time>2017-06-01T07:03:30Z</time>
      </trkpt>
      <trkpt lat="50.11988" lon="4.17903">
        <ele>185.67</ele>
        <time>2017-06-01T07:03:57Z</time>
      </trkpt>
      <trkpt lat="50.11989" lon="4.17904">
        <ele>186.15</ele>
        <time>2017-06-01T07:04:24Z</time>
      </trkpt>
      <trkpt lat="50.11992" lon="4.17902">
        <ele>185.67</ele>
        <time>2017-06-01T07:04:42Z</time>
      </trkpt>
      <trkpt lat="50.11998" lon="4.17899">
        <ele>186.15</ele>
        <time>2017-06-01T07:04:48Z</time>
      </trkpt>
      <trkpt lat="50.12006" lon="4.17895">
        <ele>186.15</ele>
        <time>2017-06-01T07:04:59Z</time>
      </trkpt>
      <trkpt lat="50.12006" lon="4.17885">
        <ele>186.63</ele>
        <time>2017-06-01T07:05:06Z</time>
      </trkpt>
      <trkpt lat="50.12006" lon="4.17883">
        <ele>186.63</ele>
        <time>2017-06-01T07:05:07Z</time>
      </trkpt>
      <trkpt lat="50.12009" lon="4.17865">
        <ele>185.67</ele>
        <time>2017-06-01T07:05:19Z</time>
      </trkpt>
      <trkpt lat="50.12023" lon="4.17864">
        <ele>185.19</ele>
        <time>2017-06-01T07:05:34Z</time>
      </trkpt>
      <trkpt lat="50.12026" lon="4.17873">
        <ele>184.23</ele>
        <time>2017-06-01T07:05:52Z</time>
      </trkpt>
      <trkpt lat="50.12031" lon="4.17872">
        <ele>185.19</ele>
        <time>2017-06-01T07:05:57Z</time>
      </trkpt>
      <trkpt lat="50.12043" lon="4.17871">
        <ele>181.83</ele>
        <time>2017-06-01T07:06:12Z</time>
      </trkpt>
      <trkpt lat="50.12059" lon="4.17868">
        <ele>179.42</ele>
        <time>2017-06-01T07:06:31Z</time>
      </trkpt>
      <trkpt lat="50.12073" lon="4.17873">
        <ele>178.46</ele>
        <time>2017-06-01T07:06:51Z</time>
      </trkpt>
      <trkpt lat="50.12092" lon="4.1788">
        <ele>185.67</ele>
        <time>2017-06-01T07:07:14Z</time>
      </trkpt>
      <trkpt lat="50.12107" lon="4.17879">
        <ele>189.04</ele>
        <time>2017-06-01T07:07:29Z</time>
      </trkpt>
      <trkpt lat="50.12115" lon="4.17883">
        <ele>190.48</ele>
        <time>2017-06-01T07:07:38Z</time>
      </trkpt>
      <trkpt lat="50.12126" lon="4.1788">
        <ele>195.28</ele>
        <time>2017-06-01T07:07:49Z</time>
      </trkpt>
      <trkpt lat="50.12137" lon="4.17882">
        <ele>198.65</ele>
        <time>2017-06-01T07:08:01Z</time>
      </trkpt>
      <trkpt lat="50.12142" lon="4.1788">
        <ele>199.13</ele>
        <time>2017-06-01T07:08:05Z</time>
      </trkpt>
      <trkpt lat="50.12157" lon="4.17873">
        <ele>200.57</ele>
        <time>2017-06-01T07:08:23Z</time>
      </trkpt>
      <trkpt lat="50.12168" lon="4.17868">
        <ele>201.53</ele>
        <time>2017-06-01T07:08:36Z</time>
      </trkpt>
      <trkpt lat="50.12182" lon="4.17865">
        <ele>203.46</ele>
        <time>2017-06-01T07:08:50Z</time>
      </trkpt>
      <trkpt lat="50.12198" lon="4.17864">
        <ele>205.86</ele>
        <time>2017-06-01T07:09:05Z</time>
      </trkpt>
      <trkpt lat="50.12217" lon="4.17866">
        <ele>207.78</ele>
        <time>2017-06-01T07:09:23Z</time>
      </trkpt>
      <trkpt lat="50.12232" lon="4.17865">
        <ele>211.63</ele>
        <time>2017-06-01T07:09:40Z</time>
      </trkpt>
      <trkpt lat="50.12246" lon="4.17865">
        <ele>214.03</ele>
        <time>2017-06-01T07:09:55Z</time>
      </trkpt>
      <trkpt lat="50.12259" lon="4.17868">
        <ele>214.03</ele>
        <time>2017-06-01T07:10:09Z</time>
      </trkpt>
      <trkpt lat="50.12265" lon="4.17869">
        <ele>214.03</ele>
        <time>2017-06-01T07:10:16Z</time>
      </trkpt>
      <trkpt lat="50.12276" lon="4.17871">
        <ele>213.07</ele>
        <time>2017-06-01T07:10:30Z</time>
      </trkpt>
      <trkpt lat="50.12277" lon="4.17871">
        <ele>213.07</ele>
        <time>2017-06-01T07:10:32Z</time>
      </trkpt>
      <trkpt lat="50.12282" lon="4.1787">
        <ele>213.07</ele>
        <time>2017-06-01T07:10:36Z</time>
      </trkpt>
      <trkpt lat="50.12301" lon="4.17869">
        <ele>215.95</ele>
        <time>2017-06-01T07:10:52Z</time>
      </trkpt>
      <trkpt lat="50.12321" lon="4.1787">
        <ele>220.28</ele>
        <time>2017-06-01T07:11:10Z</time>
      </trkpt>
      <trkpt lat="50.12336" lon="4.17867">
        <ele>223.16</ele>
        <time>2017-06-01T07:11:25Z</time>
      </trkpt>
      <trkpt lat="50.12355" lon="4.17866">
        <ele>225.57</ele>
        <time>2017-06-01T07:11:41Z</time>
      </trkpt>
      <trkpt lat="50.12377" lon="4.17865">
        <ele>223.64</ele>
        <time>2017-06-01T07:12:00Z</time>
      </trkpt>
      <trkpt lat="50.12397" lon="4.17858">
        <ele>222.2</ele>
        <time>2017-06-01T07:12:21Z</time>
      </trkpt>
      <trkpt lat="50.12405" lon="4.17852">
        <ele>222.2</ele>
        <time>2017-06-01T07:12:31Z</time>
      </trkpt>
      <trkpt lat="50.12407" lon="4.17841">
        <ele>222.2</ele>
        <time>2017-06-01T07:12:38Z</time>
      </trkpt>
      <trkpt lat="50.12407" lon="4.17836">
        <ele>220.28</ele>
        <time>2017-06-01T07:12:54Z</time>
      </trkpt>
      <trkpt lat="50.12409" lon="4.17846">
        <ele>218.84</ele>
        <time>2017-06-01T07:13:10Z</time>
      </trkpt>
      <trkpt lat="50.12406" lon="4.17856">
        <ele>220.28</ele>
        <time>2017-06-01T07:13:26Z</time>
      </trkpt>
      <trkpt lat="50.12406" lon="4.17859">
        <ele>220.76</ele>
        <time>2017-06-01T07:13:46Z</time>
      </trkpt>
      <trkpt lat="50.12411" lon="4.17851">
        <ele>222.2</ele>
        <time>2017-06-01T07:14:04Z</time>
      </trkpt>
      <trkpt lat="50.12412" lon="4.17853">
        <ele>219.8</ele>
        <time>2017-06-01T07:14:23Z</time>
      </trkpt>
      <trkpt lat="50.12411" lon="4.17853">
        <ele>220.28</ele>
        <time>2017-06-01T07:14:47Z</time>
      </trkpt>
      <trkpt lat="50.12411" lon="4.17852">
        <ele>220.76</ele>
        <time>2017-06-01T07:15:09Z</time>
      </trkpt>
      <trkpt lat="50.1241" lon="4.17854">
        <ele>221.72</ele>
        <time>2017-06-01T07:15:34Z</time>
      </trkpt>
      <trkpt lat="50.12409" lon="4.17853">
        <ele>222.68</ele>
        <time>2017-06-01T07:16:01Z</time>
      </trkpt>
      <trkpt lat="50.12409" lon="4.17857">
        <ele>224.12</ele>
        <time>2017-06-01T07:16:30Z</time>
      </trkpt>
      <trkpt lat="50.12409" lon="4.17854">
        <ele>224.12</ele>
        <time>2017-06-01T07:16:50Z</time>
      </trkpt>
      <trkpt lat="50.12409" lon="4.17827">
        <ele>225.57</ele>
        <time>2017-06-01T07:17:06Z</time>
      </trkpt>
      <trkpt lat="50.12408" lon="4.17813">
        <ele>225.09</ele>
        <time>2017-06-01T07:17:15Z</time>
      </trkpt>
      <trkpt lat="50.12408" lon="4.17811">
        <ele>225.09</ele>
        <time>2017-06-01T07:17:16Z</time>
      </trkpt>
      <trkpt lat="50.12405" lon="4.17782">
        <ele>225.09</ele>
        <time>2017-06-01T07:17:33Z</time>
      </trkpt>
      <trkpt lat="50.12401" lon="4.1775">
        <ele>227.01</ele>
        <time>2017-06-01T07:17:50Z</time>
      </trkpt>
      <trkpt lat="50.12403" lon="4.17721">
        <ele>227.49</ele>
        <time>2017-06-01T07:18:06Z</time>
      </trkpt>
      <trkpt lat="50.12404" lon="4.17697">
        <ele>226.53</ele>
        <time>2017-06-01T07:18:20Z</time>
      </trkpt>
      <trkpt lat="50.12408" lon="4.17659">
        <ele>225.57</ele>
        <time>2017-06-01T07:18:41Z</time>
      </trkpt>
      <trkpt lat="50.12411" lon="4.17625">
        <ele>224.12</ele>
        <time>2017-06-01T07:18:59Z</time>
      </trkpt>
      <trkpt lat="50.12413" lon="4.17591">
        <ele>222.68</ele>
        <time>2017-06-01T07:19:18Z</time>
      </trkpt>
      <trkpt lat="50.12417" lon="4.17559">
        <ele>220.76</ele>
        <time>2017-06-01T07:19:38Z</time>
      </trkpt>
      <trkpt lat="50.1242" lon="4.17527">
        <ele>220.28</ele>
        <time>2017-06-01T07:19:54Z</time>
      </trkpt>
      <trkpt lat="50.12422" lon="4.17495">
        <ele>219.32</ele>
        <time>2017-06-01T07:20:11Z</time>
      </trkpt>
      <trkpt lat="50.12425" lon="4.17471">
        <ele>216.91</ele>
        <time>2017-06-01T07:20:28Z</time>
      </trkpt>
      <trkpt lat="50.12429" lon="4.1743">
        <ele>213.07</ele>
        <time>2017-06-01T07:20:49Z</time>
      </trkpt>
      <trkpt lat="50.1243" lon="4.17398">
        <ele>209.7</ele>
        <time>2017-06-01T07:21:08Z</time>
      </trkpt>
      <trkpt lat="50.12431" lon="4.17357">
        <ele>210.19</ele>
        <time>2017-06-01T07:21:28Z</time>
      </trkpt>
      <trkpt lat="50.12435" lon="4.17325">
        <ele>207.78</ele>
        <time>2017-06-01T07:21:48Z</time>
      </trkpt>
      <trkpt lat="50.12437" lon="4.17287">
        <ele>206.82</ele>
        <time>2017-06-01T07:22:06Z</time>
      </trkpt>
      <trkpt lat="50.12439" lon="4.17262">
        <ele>204.42</ele>
        <time>2017-06-01T07:22:23Z</time>
      </trkpt>
      <trkpt lat="50.12441" lon="4.17225">
        <ele>198.65</ele>
        <time>2017-06-01T07:22:43Z</time>
      </trkpt>
      <trkpt lat="50.12438" lon="4.17189">
        <ele>198.65</ele>
        <time>2017-06-01T07:23:02Z</time>
      </trkpt>
      <trkpt lat="50.12434" lon="4.17149">
        <ele>198.17</ele>
        <time>2017-06-01T07:23:22Z</time>
      </trkpt>
      <trkpt lat="50.12436" lon="4.17126">
        <ele>190.96</ele>
        <time>2017-06-01T07:23:41Z</time>
      </trkpt>
      <trkpt lat="50.12435" lon="4.17087">
        <ele>190.48</ele>
        <time>2017-06-01T07:24:01Z</time>
      </trkpt>
      <trkpt lat="50.12423" lon="4.17061">
        <ele>198.17</ele>
        <time>2017-06-01T07:24:17Z</time>
      </trkpt>
      <trkpt lat="50.12416" lon="4.17034">
        <ele>202.49</ele>
        <time>2017-06-01T07:24:33Z</time>
      </trkpt>
      <trkpt lat="50.12403" lon="4.17003">
        <ele>204.9</ele>
        <time>2017-06-01T07:24:53Z</time>
      </trkpt>
      <trkpt lat="50.12398" lon="4.16994">
        <ele>205.38</ele>
        <time>2017-06-01T07:24:59Z</time>
      </trkpt>
      <trkpt lat="50.12397" lon="4.16992">
        <ele>205.38</ele>
        <time>2017-06-01T07:25:00Z</time>
      </trkpt>
      <trkpt lat="50.12377" lon="4.16971">
        <ele>206.34</ele>
        <time>2017-06-01T07:25:20Z</time>
      </trkpt>
      <trkpt lat="50.12364" lon="4.16956">
        <ele>206.82</ele>
        <time>2017-06-01T07:25:35Z</time>
      </trkpt>
      <trkpt lat="50.12345" lon="4.16935">
        <ele>204.9</ele>
        <time>2017-06-01T07:25:55Z</time>
      </trkpt>
      <trkpt lat="50.12336" lon="4.16908">
        <ele>198.65</ele>
        <time>2017-06-01T07:26:14Z</time>
      </trkpt>
      <trkpt lat="50.12336" lon="4.16889">
        <ele>195.28</ele>
        <time>2017-06-01T07:26:25Z</time>
      </trkpt>
      <trkpt lat="50.12337" lon="4.16886">
        <ele>195.28</ele>
        <time>2017-06-01T07:26:26Z</time>
      </trkpt>
      <trkpt lat="50.12341" lon="4.16852">
        <ele>191.44</ele>
        <time>2017-06-01T07:26:43Z</time>
      </trkpt>
      <trkpt lat="50.12347" lon="4.16838">
        <ele>190</ele>
        <time>2017-06-01T07:26:51Z</time>
      </trkpt>
      <trkpt lat="50.12362" lon="4.1682">
        <ele>186.63</ele>
        <time>2017-06-01T07:27:08Z</time>
      </trkpt>
      <trkpt lat="50.12381" lon="4.16808">
        <ele>185.67</ele>
        <time>2017-06-01T07:27:24Z</time>
      </trkpt>
      <trkpt lat="50.12389" lon="4.16778">
        <ele>185.19</ele>
        <time>2017-06-01T07:27:42Z</time>
      </trkpt>
      <trkpt lat="50.12389" lon="4.16775">
        <ele>184.71</ele>
        <time>2017-06-01T07:27:44Z</time>
      </trkpt>
      <trkpt lat="50.12388" lon="4.16746">
        <ele>183.27</ele>
        <time>2017-06-01T07:28:02Z</time>
      </trkpt>
      <trkpt lat="50.12389" lon="4.16715">
        <ele>182.79</ele>
        <time>2017-06-01T07:28:19Z</time>
      </trkpt>
      <trkpt lat="50.12385" lon="4.16683">
        <ele>184.23</ele>
        <time>2017-06-01T07:28:35Z</time>
      </trkpt>
      <trkpt lat="50.12381" lon="4.16651">
        <ele>186.63</ele>
        <time>2017-06-01T07:28:52Z</time>
      </trkpt>
      <trkpt lat="50.12385" lon="4.16628">
        <ele>187.59</ele>
        <time>2017-06-01T07:29:07Z</time>
      </trkpt>
      <trkpt lat="50.12386" lon="4.16627">
        <ele>188.08</ele>
        <time>2017-06-01T07:29:08Z</time>
      </trkpt>
      <trkpt lat="50.12402" lon="4.16618">
        <ele>190.96</ele>
        <time>2017-06-01T07:29:24Z</time>
      </trkpt>
      <trkpt lat="50.12416" lon="4.16613">
        <ele>191.92</ele>
        <time>2017-06-01T07:29:38Z</time>
      </trkpt>
      <trkpt lat="50.12432" lon="4.16606">
        <ele>191.92</ele>
        <time>2017-06-01T07:29:53Z</time>
      </trkpt>
      <trkpt lat="50.12442" lon="4.16599">
        <ele>192.4</ele>
        <time>2017-06-01T07:30:03Z</time>
      </trkpt>
      <trkpt lat="50.12461" lon="4.16589">
        <ele>193.36</ele>
        <time>2017-06-01T07:30:21Z</time>
      </trkpt>
      <trkpt lat="50.12468" lon="4.16583">
        <ele>193.84</ele>
        <time>2017-06-01T07:30:29Z</time>
      </trkpt>
      <trkpt lat="50.12483" lon="4.16571">
        <ele>193.84</ele>
        <time>2017-06-01T07:30:47Z</time>
      </trkpt>
      <trkpt lat="50.12499" lon="4.16556">
        <ele>196.73</ele>
        <time>2017-06-01T07:31:01Z</time>
      </trkpt>
      <trkpt lat="50.125" lon="4.16555">
        <ele>197.21</ele>
        <time>2017-06-01T07:31:02Z</time>
      </trkpt>
      <trkpt lat="50.12515" lon="4.16536">
        <ele>198.65</ele>
        <time>2017-06-01T07:31:20Z</time>
      </trkpt>
      <trkpt lat="50.12516" lon="4.16533">
        <ele>199.13</ele>
        <time>2017-06-01T07:31:22Z</time>
      </trkpt>
      <trkpt lat="50.12525" lon="4.16508">
        <ele>200.09</ele>
        <time>2017-06-01T07:31:40Z</time>
      </trkpt>
      <trkpt lat="50.12531" lon="4.16485">
        <ele>201.05</ele>
        <time>2017-06-01T07:31:55Z</time>
      </trkpt>
      <trkpt lat="50.12534" lon="4.16469">
        <ele>201.53</ele>
        <time>2017-06-01T07:32:05Z</time>
      </trkpt>
      <trkpt lat="50.12537" lon="4.1645">
        <ele>202.01</ele>
        <time>2017-06-01T07:32:17Z</time>
      </trkpt>
      <trkpt lat="50.12541" lon="4.16427">
        <ele>202.01</ele>
        <time>2017-06-01T07:32:32Z</time>
      </trkpt>
      <trkpt lat="50.12546" lon="4.16399">
        <ele>203.94</ele>
        <time>2017-06-01T07:32:47Z</time>
      </trkpt>
      <trkpt lat="50.1255" lon="4.16371">
        <ele>207.3</ele>
        <time>2017-06-01T07:33:03Z</time>
      </trkpt>
      <trkpt lat="50.12557" lon="4.1634">
        <ele>211.15</ele>
        <time>2017-06-01T07:33:21Z</time>
      </trkpt>
      <trkpt lat="50.12563" lon="4.16329">
        <ele>211.63</ele>
        <time>2017-06-01T07:33:36Z</time>
      </trkpt>
      <trkpt lat="50.12562" lon="4.16325">
        <ele>212.59</ele>
        <time>2017-06-01T07:33:50Z</time>
      </trkpt>
      <trkpt lat="50.12566" lon="4.16322">
        <ele>213.07</ele>
        <time>2017-06-01T07:34:06Z</time>
      </trkpt>
      <trkpt lat="50.12578" lon="4.16296">
        <ele>212.11</ele>
        <time>2017-06-01T07:34:21Z</time>
      </trkpt>
      <trkpt lat="50.12589" lon="4.16273">
        <ele>212.59</ele>
        <time>2017-06-01T07:34:41Z</time>
      </trkpt>
      <trkpt lat="50.12597" lon="4.16254">
        <ele>215.47</ele>
        <time>2017-06-01T07:34:54Z</time>
      </trkpt>
      <trkpt lat="50.12606" lon="4.16236">
        <ele>217.4</ele>
        <time>2017-06-01T07:35:12Z</time>
      </trkpt>
      <trkpt lat="50.12617" lon="4.16212">
        <ele>216.91</ele>
        <time>2017-06-01T07:35:31Z</time>
      </trkpt>
      <trkpt lat="50.12625" lon="4.16183">
        <ele>216.91</ele>
        <time>2017-06-01T07:35:52Z</time>
      </trkpt>
      <trkpt lat="50.1264" lon="4.16156">
        <ele>217.88</ele>
        <time>2017-06-01T07:36:12Z</time>
      </trkpt>
      <trkpt lat="50.12649" lon="4.16129">
        <ele>218.36</ele>
        <time>2017-06-01T07:36:31Z</time>
      </trkpt>
      <trkpt lat="50.12647" lon="4.16107">
        <ele>220.28</ele>
        <time>2017-06-01T07:36:45Z</time>
      </trkpt>
      <trkpt lat="50.1265" lon="4.16086">
        <ele>222.2</ele>
        <time>2017-06-01T07:37:03Z</time>
      </trkpt>
      <trkpt lat="50.12644" lon="4.16088">
        <ele>222.2</ele>
        <time>2017-06-01T07:37:21Z</time>
      </trkpt>
      <trkpt lat="50.12641" lon="4.16086">
        <ele>222.2</ele>
        <time>2017-06-01T07:37:25Z</time>
      </trkpt>
      <trkpt lat="50.12631" lon="4.16059">
        <ele>222.68</ele>
        <time>2017-06-01T07:37:44Z</time>
      </trkpt>
      <trkpt lat="50.12622" lon="4.1603">
        <ele>223.16</ele>
        <time>2017-06-01T07:38:02Z</time>
      </trkpt>
      <trkpt lat="50.12606" lon="4.16006">
        <ele>223.64</ele>
        <time>2017-06-01T07:38:21Z</time>
      </trkpt>
      <trkpt lat="50.12585" lon="4.15981">
        <ele>223.16</ele>
        <time>2017-06-01T07:38:43Z</time>
      </trkpt>
      <trkpt lat="50.12567" lon="4.15961">
        <ele>223.64</ele>
        <time>2017-06-01T07:39:02Z</time>
      </trkpt>
      <trkpt lat="50.12547" lon="4.15944">
        <ele>223.64</ele>
        <time>2017-06-01T07:39:22Z</time>
      </trkpt>
      <trkpt lat="50.12545" lon="4.15943">
        <ele>223.64</ele>
        <time>2017-06-01T07:39:24Z</time>
      </trkpt>
      <trkpt lat="50.12543" lon="4.15943">
        <ele>223.64</ele>
        <time>2017-06-01T07:39:25Z</time>
      </trkpt>
      <trkpt lat="50.12542" lon="4.15942">
        <ele>223.16</ele>
        <time>2017-06-01T07:39:26Z</time>
      </trkpt>
      <trkpt lat="50.12524" lon="4.15932">
        <ele>223.64</ele>
        <time>2017-06-01T07:39:45Z</time>
      </trkpt>
      <trkpt lat="50.12501" lon="4.15923">
        <ele>223.64</ele>
        <time>2017-06-01T07:40:04Z</time>
      </trkpt>
      <trkpt lat="50.12478" lon="4.15917">
        <ele>223.16</ele>
        <time>2017-06-01T07:40:23Z</time>
      </trkpt>
      <trkpt lat="50.12456" lon="4.15917">
        <ele>224.12</ele>
        <time>2017-06-01T07:40:41Z</time>
      </trkpt>
      <trkpt lat="50.12454" lon="4.15918">
        <ele>224.12</ele>
        <time>2017-06-01T07:40:42Z</time>
      </trkpt>
      <trkpt lat="50.12431" lon="4.15919">
        <ele>226.05</ele>
        <time>2017-06-01T07:41:02Z</time>
      </trkpt>
      <trkpt lat="50.12412" lon="4.15915">
        <ele>226.05</ele>
        <time>2017-06-01T07:41:20Z</time>
      </trkpt>
      <trkpt lat="50.12385" lon="4.15911">
        <ele>219.8</ele>
        <time>2017-06-01T07:41:39Z</time>
      </trkpt>
      <trkpt lat="50.12364" lon="4.15905">
        <ele>215.47</ele>
        <time>2017-06-01T07:41:55Z</time>
      </trkpt>
      <trkpt lat="50.1235" lon="4.15902">
        <ele>216.91</ele>
        <time>2017-06-01T07:42:08Z</time>
      </trkpt>
      <trkpt lat="50.12347" lon="4.15872">
        <ele>217.88</ele>
        <time>2017-06-01T07:42:27Z</time>
      </trkpt>
      <trkpt lat="50.12344" lon="4.15849">
        <ele>217.88</ele>
        <time>2017-06-01T07:42:44Z</time>
      </trkpt>
      <trkpt lat="50.12327" lon="4.1581">
        <ele>219.8</ele>
        <time>2017-06-01T07:43:07Z</time>
      </trkpt>
      <trkpt lat="50.12316" lon="4.15777">
        <ele>214.99</ele>
        <time>2017-06-01T07:43:26Z</time>
      </trkpt>
      <trkpt lat="50.12308" lon="4.15748">
        <ele>211.63</ele>
        <time>2017-06-01T07:43:45Z</time>
      </trkpt>
      <trkpt lat="50.12302" lon="4.15713">
        <ele>206.34</ele>
        <time>2017-06-01T07:44:06Z</time>
      </trkpt>
      <trkpt lat="50.12297" lon="4.1568">
        <ele>202.98</ele>
        <time>2017-06-01T07:44:24Z</time>
      </trkpt>
      <trkpt lat="50.12298" lon="4.15674">
        <ele>202.49</ele>
        <time>2017-06-01T07:44:28Z</time>
      </trkpt>
      <trkpt lat="50.12297" lon="4.15653">
        <ele>202.49</ele>
        <time>2017-06-01T07:44:42Z</time>
      </trkpt>
      <trkpt lat="50.12298" lon="4.15627">
        <ele>201.53</ele>
        <time>2017-06-01T07:44:59Z</time>
      </trkpt>
      <trkpt lat="50.12298" lon="4.156">
        <ele>198.65</ele>
        <time>2017-06-01T07:45:17Z</time>
      </trkpt>
      <trkpt lat="50.123" lon="4.15569">
        <ele>192.88</ele>
        <time>2017-06-01T07:45:36Z</time>
      </trkpt>
      <trkpt lat="50.12299" lon="4.1554">
        <ele>188.56</ele>
        <time>2017-06-01T07:45:57Z</time>
      </trkpt>
      <trkpt lat="50.12289" lon="4.15509">
        <ele>183.75</ele>
        <time>2017-06-01T07:46:20Z</time>
      </trkpt>
      <trkpt lat="50.12279" lon="4.15489">
        <ele>181.35</ele>
        <time>2017-06-01T07:46:32Z</time>
      </trkpt>
      <trkpt lat="50.12278" lon="4.15487">
        <ele>180.87</ele>
        <time>2017-06-01T07:46:33Z</time>
      </trkpt>
      <trkpt lat="50.12274" lon="4.15464">
        <ele>179.42</ele>
        <time>2017-06-01T07:46:46Z</time>
      </trkpt>
      <trkpt lat="50.12274" lon="4.1546">
        <ele>179.9</ele>
        <time>2017-06-01T07:46:48Z</time>
      </trkpt>
      <trkpt lat="50.12277" lon="4.15428">
        <ele>179.9</ele>
        <time>2017-06-01T07:47:08Z</time>
      </trkpt>
      <trkpt lat="50.12276" lon="4.15428">
        <ele>179.42</ele>
        <time>2017-06-01T07:47:26Z</time>
      </trkpt>
      <trkpt lat="50.12276" lon="4.15428">
        <ele>180.38</ele>
        <time>2017-06-01T07:47:49Z</time>
      </trkpt>
      <trkpt lat="50.1227" lon="4.15408">
        <ele>179.42</ele>
        <time>2017-06-01T07:48:05Z</time>
      </trkpt>
      <trkpt lat="50.12264" lon="4.15383">
        <ele>177.98</ele>
        <time>2017-06-01T07:48:23Z</time>
      </trkpt>
      <trkpt lat="50.12254" lon="4.15347">
        <ele>177.98</ele>
        <time>2017-06-01T07:48:43Z</time>
      </trkpt>
      <trkpt lat="50.12251" lon="4.15318">
        <ele>177.02</ele>
        <time>2017-06-01T07:48:58Z</time>
      </trkpt>
      <trkpt lat="50.12251" lon="4.15315">
        <ele>177.02</ele>
        <time>2017-06-01T07:48:59Z</time>
      </trkpt>
      <trkpt lat="50.12251" lon="4.15313">
        <ele>176.54</ele>
        <time>2017-06-01T07:49:00Z</time>
      </trkpt>
      <trkpt lat="50.12269" lon="4.15281">
        <ele>175.58</ele>
        <time>2017-06-01T07:49:20Z</time>
      </trkpt>
      <trkpt lat="50.12282" lon="4.15259">
        <ele>176.06</ele>
        <time>2017-06-01T07:49:39Z</time>
      </trkpt>
      <trkpt lat="50.12285" lon="4.15236">
        <ele>175.58</ele>
        <time>2017-06-01T07:49:57Z</time>
      </trkpt>
      <trkpt lat="50.12283" lon="4.15235">
        <ele>175.1</ele>
        <time>2017-06-01T07:49:59Z</time>
      </trkpt>
      <trkpt lat="50.12279" lon="4.15228">
        <ele>175.58</ele>
        <time>2017-06-01T07:50:06Z</time>
      </trkpt>
      <trkpt lat="50.12278" lon="4.15226">
        <ele>175.58</ele>
        <time>2017-06-01T07:50:07Z</time>
      </trkpt>
      <trkpt lat="50.12275" lon="4.15197">
        <ele>176.06</ele>
        <time>2017-06-01T07:50:23Z</time>
      </trkpt>
      <trkpt lat="50.12268" lon="4.15161">
        <ele>177.98</ele>
        <time>2017-06-01T07:50:42Z</time>
      </trkpt>
      <trkpt lat="50.12262" lon="4.15121">
        <ele>176.54</ele>
        <time>2017-06-01T07:51:04Z</time>
      </trkpt>
      <trkpt lat="50.12255" lon="4.15085">
        <ele>178.94</ele>
        <time>2017-06-01T07:51:25Z</time>
      </trkpt>
      <trkpt lat="50.12247" lon="4.15053">
        <ele>179.9</ele>
        <time>2017-06-01T07:51:43Z</time>
      </trkpt>
      <trkpt lat="50.12242" lon="4.15022">
        <ele>181.35</ele>
        <time>2017-06-01T07:52:02Z</time>
      </trkpt>
      <trkpt lat="50.12236" lon="4.14988">
        <ele>181.35</ele>
        <time>2017-06-01T07:52:22Z</time>
      </trkpt>
      <trkpt lat="50.12223" lon="4.1495">
        <ele>181.35</ele>
        <time>2017-06-01T07:52:45Z</time>
      </trkpt>
      <trkpt lat="50.12212" lon="4.14918">
        <ele>179.9</ele>
        <time>2017-06-01T07:53:04Z</time>
      </trkpt>
      <trkpt lat="50.12198" lon="4.14888">
        <ele>178.46</ele>
        <time>2017-06-01T07:53:23Z</time>
      </trkpt>
      <trkpt lat="50.12182" lon="4.14866">
        <ele>180.87</ele>
        <time>2017-06-01T07:53:40Z</time>
      </trkpt>
      <trkpt lat="50.12163" lon="4.14852">
        <ele>183.75</ele>
        <time>2017-06-01T07:53:57Z</time>
      </trkpt>
      <trkpt lat="50.12152" lon="4.14841">
        <ele>186.15</ele>
        <time>2017-06-01T07:54:13Z</time>
      </trkpt>
      <trkpt lat="50.12134" lon="4.14834">
        <ele>190.48</ele>
        <time>2017-06-01T07:54:29Z</time>
      </trkpt>
      <trkpt lat="50.12115" lon="4.14831">
        <ele>191.92</ele>
        <time>2017-06-01T07:54:46Z</time>
      </trkpt>
      <trkpt lat="50.12103" lon="4.14829">
        <ele>193.84</ele>
        <time>2017-06-01T07:55:06Z</time>
      </trkpt>
      <trkpt lat="50.12105" lon="4.14829">
        <ele>193.84</ele>
        <time>2017-06-01T07:55:24Z</time>
      </trkpt>
      <trkpt lat="50.12106" lon="4.14827">
        <ele>193.84</ele>
        <time>2017-06-01T07:55:47Z</time>
      </trkpt>
      <trkpt lat="50.12104" lon="4.14835">
        <ele>193.84</ele>
        <time>2017-06-01T07:56:06Z</time>
      </trkpt>
      <trkpt lat="50.12108" lon="4.14835">
        <ele>193.84</ele>
        <time>2017-06-01T07:56:28Z</time>
      </trkpt>
      <trkpt lat="50.12107" lon="4.14828">
        <ele>193.84</ele>
        <time>2017-06-01T07:56:50Z</time>
      </trkpt>
      <trkpt lat="50.12111" lon="4.14822">
        <ele>193.84</ele>
        <time>2017-06-01T07:57:08Z</time>
      </trkpt>
      <trkpt lat="50.12102" lon="4.14832">
        <ele>192.4</ele>
        <time>2017-06-01T07:57:28Z</time>
      </trkpt>
      <trkpt lat="50.12105" lon="4.14825">
        <ele>191.44</ele>
        <time>2017-06-01T07:57:49Z</time>
      </trkpt>
      <trkpt lat="50.1209" lon="4.14823">
        <ele>183.75</ele>
        <time>2017-06-01T07:58:11Z</time>
      </trkpt>
      <trkpt lat="50.12063" lon="4.14817">
        <ele>177.5</ele>
        <time>2017-06-01T07:58:30Z</time>
      </trkpt>
      <trkpt lat="50.12039" lon="4.14814">
        <ele>174.62</ele>
        <time>2017-06-01T07:58:49Z</time>
      </trkpt>
      <trkpt lat="50.12021" lon="4.14809">
        <ele>173.66</ele>
        <time>2017-06-01T07:59:05Z</time>
      </trkpt>
      <trkpt lat="50.11997" lon="4.14801">
        <ele>177.98</ele>
        <time>2017-06-01T07:59:24Z</time>
      </trkpt>
      <trkpt lat="50.11993" lon="4.14789">
        <ele>177.98</ele>
        <time>2017-06-01T07:59:33Z</time>
      </trkpt>
      <trkpt lat="50.11996" lon="4.14757">
        <ele>180.87</ele>
        <time>2017-06-01T07:59:53Z</time>
      </trkpt>
      <trkpt lat="50.11991" lon="4.14726">
        <ele>179.9</ele>
        <time>2017-06-01T08:00:12Z</time>
      </trkpt>
      <trkpt lat="50.11979" lon="4.14697">
        <ele>179.9</ele>
        <time>2017-06-01T08:00:30Z</time>
      </trkpt>
      <trkpt lat="50.11978" lon="4.14697">
        <ele>179.9</ele>
        <time>2017-06-01T08:00:31Z</time>
      </trkpt>
      <trkpt lat="50.11968" lon="4.14713">
        <ele>178.46</ele>
        <time>2017-06-01T08:00:47Z</time>
      </trkpt>
      <trkpt lat="50.11966" lon="4.14726">
        <ele>177.5</ele>
        <time>2017-06-01T08:00:54Z</time>
      </trkpt>
      <trkpt lat="50.11952" lon="4.14763">
        <ele>177.5</ele>
        <time>2017-06-01T08:01:17Z</time>
      </trkpt>
      <trkpt lat="50.11934" lon="4.14771">
        <ele>179.42</ele>
        <time>2017-06-01T08:01:35Z</time>
      </trkpt>
      <trkpt lat="50.11921" lon="4.14771">
        <ele>179.42</ele>
        <time>2017-06-01T08:01:46Z</time>
      </trkpt>
      <trkpt lat="50.11906" lon="4.14779">
        <ele>182.79</ele>
        <time>2017-06-01T08:02:02Z</time>
      </trkpt>
      <trkpt lat="50.1188" lon="4.14788">
        <ele>182.79</ele>
        <time>2017-06-01T08:02:23Z</time>
      </trkpt>
      <trkpt lat="50.11857" lon="4.1479">
        <ele>180.87</ele>
        <time>2017-06-01T08:02:43Z</time>
      </trkpt>
      <trkpt lat="50.11836" lon="4.14797">
        <ele>178.94</ele>
        <time>2017-06-01T08:03:00Z</time>
      </trkpt>
      <trkpt lat="50.11811" lon="4.148">
        <ele>177.98</ele>
        <time>2017-06-01T08:03:19Z</time>
      </trkpt>
      <trkpt lat="50.1178" lon="4.14807">
        <ele>177.98</ele>
        <time>2017-06-01T08:03:44Z</time>
      </trkpt>
      <trkpt lat="50.11757" lon="4.14805">
        <ele>175.1</ele>
        <time>2017-06-01T08:04:03Z</time>
      </trkpt>
      <trkpt lat="50.11738" lon="4.148">
        <ele>175.1</ele>
        <time>2017-06-01T08:04:20Z</time>
      </trkpt>
      <trkpt lat="50.11725" lon="4.1479">
        <ele>176.54</ele>
        <time>2017-06-01T08:04:30Z</time>
      </trkpt>
      <trkpt lat="50.11724" lon="4.14789">
        <ele>177.02</ele>
        <time>2017-06-01T08:04:31Z</time>
      </trkpt>
      <trkpt lat="50.11723" lon="4.14788">
        <ele>177.02</ele>
        <time>2017-06-01T08:04:32Z</time>
      </trkpt>
      <trkpt lat="50.11722" lon="4.14787">
        <ele>177.5</ele>
        <time>2017-06-01T08:04:33Z</time>
      </trkpt>
      <trkpt lat="50.11722" lon="4.14785">
        <ele>177.5</ele>
        <time>2017-06-01T08:04:34Z</time>
      </trkpt>
      <trkpt lat="50.11719" lon="4.14781">
        <ele>177.98</ele>
        <time>2017-06-01T08:04:37Z</time>
      </trkpt>
      <trkpt lat="50.11718" lon="4.1478">
        <ele>177.98</ele>
        <time>2017-06-01T08:04:38Z</time>
      </trkpt>
      <trkpt lat="50.11705" lon="4.14755">
        <ele>178.46</ele>
        <time>2017-06-01T08:04:55Z</time>
      </trkpt>
      <trkpt lat="50.11686" lon="4.14717">
        <ele>178.46</ele>
        <time>2017-06-01T08:05:20Z</time>
      </trkpt>
      <trkpt lat="50.11675" lon="4.14679">
        <ele>178.46</ele>
        <time>2017-06-01T08:05:41Z</time>
      </trkpt>
      <trkpt lat="50.11669" lon="4.14641">
        <ele>177.5</ele>
        <time>2017-06-01T08:06:01Z</time>
      </trkpt>
      <trkpt lat="50.11665" lon="4.14601">
        <ele>177.02</ele>
        <time>2017-06-01T08:06:22Z</time>
      </trkpt>
      <trkpt lat="50.11662" lon="4.14563">
        <ele>176.54</ele>
        <time>2017-06-01T08:06:42Z</time>
      </trkpt>
      <trkpt lat="50.1166" lon="4.14526">
        <ele>175.58</ele>
        <time>2017-06-01T08:07:02Z</time>
      </trkpt>
      <trkpt lat="50.1166" lon="4.14503">
        <ele>175.58</ele>
        <time>2017-06-01T08:07:14Z</time>
      </trkpt>
      <trkpt lat="50.11661" lon="4.14494">
        <ele>175.58</ele>
        <time>2017-06-01T08:07:28Z</time>
      </trkpt>
      <trkpt lat="50.11662" lon="4.14457">
        <ele>175.58</ele>
        <time>2017-06-01T08:07:47Z</time>
      </trkpt>
      <trkpt lat="50.1166" lon="4.14416">
        <ele>177.5</ele>
        <time>2017-06-01T08:08:09Z</time>
      </trkpt>
      <trkpt lat="50.11657" lon="4.14376">
        <ele>179.9</ele>
        <time>2017-06-01T08:08:30Z</time>
      </trkpt>
      <trkpt lat="50.11661" lon="4.14357">
        <ele>179.42</ele>
        <time>2017-06-01T08:08:41Z</time>
      </trkpt>
      <trkpt lat="50.1167" lon="4.14319">
        <ele>177.5</ele>
        <time>2017-06-01T08:09:02Z</time>
      </trkpt>
      <trkpt lat="50.11672" lon="4.14286">
        <ele>175.58</ele>
        <time>2017-06-01T08:09:23Z</time>
      </trkpt>
      <trkpt lat="50.11672" lon="4.14282">
        <ele>175.58</ele>
        <time>2017-06-01T08:09:25Z</time>
      </trkpt>
      <trkpt lat="50.11675" lon="4.14252">
        <ele>177.02</ele>
        <time>2017-06-01T08:09:41Z</time>
      </trkpt>
      <trkpt lat="50.1168" lon="4.14212">
        <ele>178.94</ele>
        <time>2017-06-01T08:10:01Z</time>
      </trkpt>
      <trkpt lat="50.1169" lon="4.14181">
        <ele>178.94</ele>
        <time>2017-06-01T08:10:20Z</time>
      </trkpt>
      <trkpt lat="50.117" lon="4.14143">
        <ele>179.9</ele>
        <time>2017-06-01T08:10:41Z</time>
      </trkpt>
      <trkpt lat="50.11696" lon="4.14122">
        <ele>178.94</ele>
        <time>2017-06-01T08:10:56Z</time>
      </trkpt>
      <trkpt lat="50.11689" lon="4.14084">
        <ele>176.54</ele>
        <time>2017-06-01T08:11:18Z</time>
      </trkpt>
      <trkpt lat="50.11697" lon="4.14052">
        <ele>177.5</ele>
        <time>2017-06-01T08:11:37Z</time>
      </trkpt>
      <trkpt lat="50.11699" lon="4.1401">
        <ele>177.5</ele>
        <time>2017-06-01T08:11:58Z</time>
      </trkpt>
      <trkpt lat="50.117" lon="4.13967">
        <ele>177.5</ele>
        <time>2017-06-01T08:12:19Z</time>
      </trkpt>
      <trkpt lat="50.11702" lon="4.13923">
        <ele>176.54</ele>
        <time>2017-06-01T08:12:43Z</time>
      </trkpt>
      <trkpt lat="50.117" lon="4.13902">
        <ele>176.54</ele>
        <time>2017-06-01T08:12:58Z</time>
      </trkpt>
      <trkpt lat="50.11697" lon="4.13864">
        <ele>176.54</ele>
        <time>2017-06-01T08:13:21Z</time>
      </trkpt>
      <trkpt lat="50.11696" lon="4.13831">
        <ele>176.54</ele>
        <time>2017-06-01T08:13:41Z</time>
      </trkpt>
      <trkpt lat="50.11695" lon="4.13793">
        <ele>177.5</ele>
        <time>2017-06-01T08:14:01Z</time>
      </trkpt>
      <trkpt lat="50.1169" lon="4.13749">
        <ele>177.02</ele>
        <time>2017-06-01T08:14:24Z</time>
      </trkpt>
      <trkpt lat="50.11686" lon="4.13703">
        <ele>176.54</ele>
        <time>2017-06-01T08:14:48Z</time>
      </trkpt>
      <trkpt lat="50.11684" lon="4.1367">
        <ele>177.5</ele>
        <time>2017-06-01T08:15:06Z</time>
      </trkpt>
      <trkpt lat="50.11689" lon="4.13635">
        <ele>176.06</ele>
        <time>2017-06-01T08:15:25Z</time>
      </trkpt>
      <trkpt lat="50.117" lon="4.136">
        <ele>177.02</ele>
        <time>2017-06-01T08:15:45Z</time>
      </trkpt>
      <trkpt lat="50.11702" lon="4.13569">
        <ele>178.94</ele>
        <time>2017-06-01T08:16:01Z</time>
      </trkpt>
      <trkpt lat="50.11711" lon="4.13541">
        <ele>178.46</ele>
        <time>2017-06-01T08:16:19Z</time>
      </trkpt>
      <trkpt lat="50.11723" lon="4.13505">
        <ele>177.5</ele>
        <time>2017-06-01T08:16:39Z</time>
      </trkpt>
      <trkpt lat="50.11727" lon="4.13478">
        <ele>175.58</ele>
        <time>2017-06-01T08:16:56Z</time>
      </trkpt>
      <trkpt lat="50.11725" lon="4.13443">
        <ele>175.1</ele>
        <time>2017-06-01T08:17:14Z</time>
      </trkpt>
      <trkpt lat="50.11725" lon="4.13407">
        <ele>174.62</ele>
        <time>2017-06-01T08:17:33Z</time>
      </trkpt>
      <trkpt lat="50.11729" lon="4.13385">
        <ele>174.14</ele>
        <time>2017-06-01T08:17:46Z</time>
      </trkpt>
      <trkpt lat="50.11738" lon="4.13357">
        <ele>173.17</ele>
        <time>2017-06-01T08:18:05Z</time>
      </trkpt>
      <trkpt lat="50.11739" lon="4.1335">
        <ele>173.66</ele>
        <time>2017-06-01T08:18:18Z</time>
      </trkpt>
      <trkpt lat="50.11744" lon="4.13333">
        <ele>173.17</ele>
        <time>2017-06-01T08:18:35Z</time>
      </trkpt>
      <trkpt lat="50.11757" lon="4.13309">
        <ele>171.73</ele>
        <time>2017-06-01T08:18:53Z</time>
      </trkpt>
      <trkpt lat="50.11771" lon="4.13286">
        <ele>169.33</ele>
        <time>2017-06-01T08:19:11Z</time>
      </trkpt>
      <trkpt lat="50.11789" lon="4.13257">
        <ele>168.85</ele>
        <time>2017-06-01T08:19:33Z</time>
      </trkpt>
      <trkpt lat="50.11806" lon="4.13232">
        <ele>170.29</ele>
        <time>2017-06-01T08:19:52Z</time>
      </trkpt>
      <trkpt lat="50.11825" lon="4.13215">
        <ele>171.73</ele>
        <time>2017-06-01T08:20:12Z</time>
      </trkpt>
      <trkpt lat="50.11842" lon="4.13194">
        <ele>171.25</ele>
        <time>2017-06-01T08:20:33Z</time>
      </trkpt>
      <trkpt lat="50.11859" lon="4.13173">
        <ele>171.25</ele>
        <time>2017-06-01T08:20:52Z</time>
      </trkpt>
      <trkpt lat="50.11878" lon="4.13147">
        <ele>172.69</ele>
        <time>2017-06-01T08:21:12Z</time>
      </trkpt>
      <trkpt lat="50.119" lon="4.13148">
        <ele>172.69</ele>
        <time>2017-06-01T08:21:31Z</time>
      </trkpt>
      <trkpt lat="50.11903" lon="4.13155">
        <ele>172.21</ele>
        <time>2017-06-01T08:21:36Z</time>
      </trkpt>
      <trkpt lat="50.1191" lon="4.13174">
        <ele>171.25</ele>
        <time>2017-06-01T08:21:47Z</time>
      </trkpt>
      <trkpt lat="50.1191" lon="4.13176">
        <ele>171.25</ele>
        <time>2017-06-01T08:21:48Z</time>
      </trkpt>
      <trkpt lat="50.11912" lon="4.13209">
        <ele>169.33</ele>
        <time>2017-06-01T08:22:06Z</time>
      </trkpt>
      <trkpt lat="50.11914" lon="4.1324">
        <ele>169.33</ele>
        <time>2017-06-01T08:22:24Z</time>
      </trkpt>
      <trkpt lat="50.11922" lon="4.1325">
        <ele>170.77</ele>
        <time>2017-06-01T08:22:33Z</time>
      </trkpt>
      <trkpt lat="50.1193" lon="4.13259">
        <ele>171.25</ele>
        <time>2017-06-01T08:22:41Z</time>
      </trkpt>
      <trkpt lat="50.11951" lon="4.13278">
        <ele>172.69</ele>
        <time>2017-06-01T08:23:00Z</time>
      </trkpt>
      <trkpt lat="50.11967" lon="4.13289">
        <ele>171.73</ele>
        <time>2017-06-01T08:23:19Z</time>
      </trkpt>
      <trkpt lat="50.11965" lon="4.13287">
        <ele>172.21</ele>
        <time>2017-06-01T08:23:33Z</time>
      </trkpt>
      <trkpt lat="50.11969" lon="4.13278">
        <ele>172.69</ele>
        <time>2017-06-01T08:23:49Z</time>
      </trkpt>
      <trkpt lat="50.1197" lon="4.13274">
        <ele>173.17</ele>
        <time>2017-06-01T08:23:52Z</time>
      </trkpt>
      <trkpt lat="50.11972" lon="4.13247">
        <ele>174.62</ele>
        <time>2017-06-01T08:24:06Z</time>
      </trkpt>
      <trkpt lat="50.11972" lon="4.13212">
        <ele>174.14</ele>
        <time>2017-06-01T08:24:24Z</time>
      </trkpt>
      <trkpt lat="50.11975" lon="4.13173">
        <ele>175.58</ele>
        <time>2017-06-01T08:24:45Z</time>
      </trkpt>
      <trkpt lat="50.11995" lon="4.13144">
        <ele>178.46</ele>
        <time>2017-06-01T08:25:08Z</time>
      </trkpt>
      <trkpt lat="50.12011" lon="4.13129">
        <ele>179.42</ele>
        <time>2017-06-01T08:25:25Z</time>
      </trkpt>
      <trkpt lat="50.12015" lon="4.13124">
        <ele>179.9</ele>
        <time>2017-06-01T08:25:31Z</time>
      </trkpt>
      <trkpt lat="50.12025" lon="4.13091">
        <ele>180.87</ele>
        <time>2017-06-01T08:25:50Z</time>
      </trkpt>
      <trkpt lat="50.12039" lon="4.1307">
        <ele>181.35</ele>
        <time>2017-06-01T08:26:08Z</time>
      </trkpt>
      <trkpt lat="50.12051" lon="4.13056">
        <ele>180.38</ele>
        <time>2017-06-01T08:26:21Z</time>
      </trkpt>
      <trkpt lat="50.12065" lon="4.13042">
        <ele>178.94</ele>
        <time>2017-06-01T08:26:36Z</time>
      </trkpt>
      <trkpt lat="50.12078" lon="4.13018">
        <ele>177.98</ele>
        <time>2017-06-01T08:26:53Z</time>
      </trkpt>
      <trkpt lat="50.12082" lon="4.1301">
        <ele>177.5</ele>
        <time>2017-06-01T08:27:00Z</time>
      </trkpt>
      <trkpt lat="50.12088" lon="4.13">
        <ele>175.58</ele>
        <time>2017-06-01T08:27:14Z</time>
      </trkpt>
      <trkpt lat="50.12087" lon="4.13001">
        <ele>174.14</ele>
        <time>2017-06-01T08:27:32Z</time>
      </trkpt>
      <trkpt lat="50.12087" lon="4.13004">
        <ele>172.21</ele>
        <time>2017-06-01T08:27:53Z</time>
      </trkpt>
      <trkpt lat="50.12082" lon="4.1301">
        <ele>173.66</ele>
        <time>2017-06-01T08:28:06Z</time>
      </trkpt>
      <trkpt lat="50.12082" lon="4.13009">
        <ele>173.66</ele>
        <time>2017-06-01T08:28:22Z</time>
      </trkpt>
      <trkpt lat="50.12082" lon="4.13008">
        <ele>173.66</ele>
        <time>2017-06-01T08:28:36Z</time>
      </trkpt>
      <trkpt lat="50.12082" lon="4.13008">
        <ele>173.17</ele>
        <time>2017-06-01T08:28:54Z</time>
      </trkpt>
      <trkpt lat="50.12085" lon="4.13029">
        <ele>167.41</ele>
        <time>2017-06-01T08:29:13Z</time>
      </trkpt>
      <trkpt lat="50.12085" lon="4.13041">
        <ele>166.45</ele>
        <time>2017-06-01T08:29:31Z</time>
      </trkpt>
      <trkpt lat="50.12085" lon="4.13048">
        <ele>165.48</ele>
        <time>2017-06-01T08:29:51Z</time>
      </trkpt>
      <trkpt lat="50.12084" lon="4.13048">
        <ele>165.48</ele>
        <time>2017-06-01T08:29:53Z</time>
      </trkpt>
      <trkpt lat="50.12084" lon="4.13048">
        <ele>165.96</ele>
        <time>2017-06-01T08:29:54Z</time>
      </trkpt>
      <trkpt lat="50.12083" lon="4.13048">
        <ele>165.96</ele>
        <time>2017-06-01T08:29:55Z</time>
      </trkpt>
      <trkpt lat="50.12085" lon="4.13029">
        <ele>165.48</ele>
        <time>2017-06-01T08:30:09Z</time>
      </trkpt>
      <trkpt lat="50.12086" lon="4.13026">
        <ele>164.52</ele>
        <time>2017-06-01T08:30:12Z</time>
      </trkpt>
      <trkpt lat="50.12086" lon="4.13025">
        <ele>164.52</ele>
        <time>2017-06-01T08:30:13Z</time>
      </trkpt>
      <trkpt lat="50.12099" lon="4.12999">
        <ele>160.68</ele>
        <time>2017-06-01T08:30:29Z</time>
      </trkpt>
      <trkpt lat="50.12114" lon="4.12964">
        <ele>157.79</ele>
        <time>2017-06-01T08:30:46Z</time>
      </trkpt>
      <trkpt lat="50.12126" lon="4.12933">
        <ele>153.47</ele>
        <time>2017-06-01T08:31:02Z</time>
      </trkpt>
      <trkpt lat="50.12136" lon="4.12896">
        <ele>152.51</ele>
        <time>2017-06-01T08:31:22Z</time>
      </trkpt>
      <trkpt lat="50.12141" lon="4.12886">
        <ele>161.64</ele>
        <time>2017-06-01T08:31:27Z</time>
      </trkpt>
      <trkpt lat="50.12142" lon="4.12883">
        <ele>163.56</ele>
        <time>2017-06-01T08:31:28Z</time>
      </trkpt>
      <trkpt lat="50.12143" lon="4.12882">
        <ele>164.04</ele>
        <time>2017-06-01T08:31:29Z</time>
      </trkpt>
      <trkpt lat="50.12144" lon="4.12879">
        <ele>165</ele>
        <time>2017-06-01T08:31:30Z</time>
      </trkpt>
      <trkpt lat="50.12145" lon="4.12877">
        <ele>165.96</ele>
        <time>2017-06-01T08:31:31Z</time>
      </trkpt>
      <trkpt lat="50.12145" lon="4.12875">
        <ele>166.45</ele>
        <time>2017-06-01T08:31:32Z</time>
      </trkpt>
      <trkpt lat="50.12146" lon="4.12873">
        <ele>166.93</ele>
        <time>2017-06-01T08:31:33Z</time>
      </trkpt>
      <trkpt lat="50.12154" lon="4.12848">
        <ele>175.58</ele>
        <time>2017-06-01T08:31:49Z</time>
      </trkpt>
      <trkpt lat="50.12166" lon="4.12822">
        <ele>178.46</ele>
        <time>2017-06-01T08:32:07Z</time>
      </trkpt>
      <trkpt lat="50.12174" lon="4.12796">
        <ele>179.9</ele>
        <time>2017-06-01T08:32:21Z</time>
      </trkpt>
      <trkpt lat="50.12183" lon="4.12768">
        <ele>180.38</ele>
        <time>2017-06-01T08:32:39Z</time>
      </trkpt>
      <trkpt lat="50.12191" lon="4.12745">
        <ele>178.46</ele>
        <time>2017-06-01T08:32:56Z</time>
      </trkpt>
      <trkpt lat="50.12198" lon="4.12715">
        <ele>176.06</ele>
        <time>2017-06-01T08:33:16Z</time>
      </trkpt>
      <trkpt lat="50.12203" lon="4.12686">
        <ele>174.62</ele>
        <time>2017-06-01T08:33:36Z</time>
      </trkpt>
      <trkpt lat="50.12211" lon="4.12653">
        <ele>173.66</ele>
        <time>2017-06-01T08:33:53Z</time>
      </trkpt>
      <trkpt lat="50.12214" lon="4.12619">
        <ele>175.1</ele>
        <time>2017-06-01T08:34:11Z</time>
      </trkpt>
      <trkpt lat="50.12215" lon="4.12577">
        <ele>174.14</ele>
        <time>2017-06-01T08:34:31Z</time>
      </trkpt>
      <trkpt lat="50.12217" lon="4.1254">
        <ele>175.1</ele>
        <time>2017-06-01T08:34:51Z</time>
      </trkpt>
      <trkpt lat="50.12221" lon="4.12508">
        <ele>174.14</ele>
        <time>2017-06-01T08:35:09Z</time>
      </trkpt>
      <trkpt lat="50.12222" lon="4.12493">
        <ele>175.58</ele>
        <time>2017-06-01T08:35:17Z</time>
      </trkpt>
      <trkpt lat="50.12226" lon="4.12464">
        <ele>175.58</ele>
        <time>2017-06-01T08:35:35Z</time>
      </trkpt>
      <trkpt lat="50.12226" lon="4.12462">
        <ele>175.58</ele>
        <time>2017-06-01T08:35:36Z</time>
      </trkpt>
      <trkpt lat="50.12228" lon="4.12437">
        <ele>175.1</ele>
        <time>2017-06-01T08:35:50Z</time>
      </trkpt>
      <trkpt lat="50.12226" lon="4.12428">
        <ele>175.58</ele>
        <time>2017-06-01T08:35:55Z</time>
      </trkpt>
      <trkpt lat="50.12225" lon="4.12426">
        <ele>175.58</ele>
        <time>2017-06-01T08:35:56Z</time>
      </trkpt>
      <trkpt lat="50.12218" lon="4.12418">
        <ele>175.58</ele>
        <time>2017-06-01T08:36:02Z</time>
      </trkpt>
      <trkpt lat="50.12198" lon="4.12404">
        <ele>175.1</ele>
        <time>2017-06-01T08:36:21Z</time>
      </trkpt>
      <trkpt lat="50.12197" lon="4.12403">
        <ele>175.1</ele>
        <time>2017-06-01T08:36:22Z</time>
      </trkpt>
      <trkpt lat="50.12187" lon="4.12377">
        <ele>175.1</ele>
        <time>2017-06-01T08:36:38Z</time>
      </trkpt>
      <trkpt lat="50.12183" lon="4.12367">
        <ele>177.02</ele>
        <time>2017-06-01T08:36:53Z</time>
      </trkpt>
      <trkpt lat="50.12182" lon="4.12333">
        <ele>177.98</ele>
        <time>2017-06-01T08:37:11Z</time>
      </trkpt>
      <trkpt lat="50.12179" lon="4.123">
        <ele>178.46</ele>
        <time>2017-06-01T08:37:30Z</time>
      </trkpt>
      <trkpt lat="50.12178" lon="4.12267">
        <ele>178.94</ele>
        <time>2017-06-01T08:37:47Z</time>
      </trkpt>
      <trkpt lat="50.12177" lon="4.12249">
        <ele>177.98</ele>
        <time>2017-06-01T08:38:02Z</time>
      </trkpt>
      <trkpt lat="50.12178" lon="4.12236">
        <ele>177.98</ele>
        <time>2017-06-01T08:38:23Z</time>
      </trkpt>
      <trkpt lat="50.1218" lon="4.12226">
        <ele>180.87</ele>
        <time>2017-06-01T08:38:40Z</time>
      </trkpt>
      <trkpt lat="50.1218" lon="4.12226">
        <ele>182.79</ele>
        <time>2017-06-01T08:38:56Z</time>
      </trkpt>
      <trkpt lat="50.1218" lon="4.12226">
        <ele>182.79</ele>
        <time>2017-06-01T08:39:19Z</time>
      </trkpt>
      <trkpt lat="50.1218" lon="4.12227">
        <ele>182.31</ele>
        <time>2017-06-01T08:39:47Z</time>
      </trkpt>
      <trkpt lat="50.1218" lon="4.12227">
        <ele>181.83</ele>
        <time>2017-06-01T08:40:15Z</time>
      </trkpt>
      <trkpt lat="50.12183" lon="4.12229">
        <ele>181.35</ele>
        <time>2017-06-01T08:40:39Z</time>
      </trkpt>
      <trkpt lat="50.12182" lon="4.1223">
        <ele>180.87</ele>
        <time>2017-06-01T08:40:59Z</time>
      </trkpt>
      <trkpt lat="50.12181" lon="4.12231">
        <ele>180.87</ele>
        <time>2017-06-01T08:41:21Z</time>
      </trkpt>
      <trkpt lat="50.12178" lon="4.12233">
        <ele>180.38</ele>
        <time>2017-06-01T08:41:26Z</time>
      </trkpt>
      <trkpt lat="50.12172" lon="4.12244">
        <ele>178.46</ele>
        <time>2017-06-01T08:41:39Z</time>
      </trkpt>
      <trkpt lat="50.12172" lon="4.12241">
        <ele>177.5</ele>
        <time>2017-06-01T08:42:01Z</time>
      </trkpt>
      <trkpt lat="50.12172" lon="4.12242">
        <ele>177.98</ele>
        <time>2017-06-01T08:42:25Z</time>
      </trkpt>
      <trkpt lat="50.12169" lon="4.12242">
        <ele>177.02</ele>
        <time>2017-06-01T08:42:48Z</time>
      </trkpt>
      <trkpt lat="50.1217" lon="4.1224">
        <ele>176.54</ele>
        <time>2017-06-01T08:43:13Z</time>
      </trkpt>
      <trkpt lat="50.12169" lon="4.12238">
        <ele>177.02</ele>
        <time>2017-06-01T08:43:37Z</time>
      </trkpt>
      <trkpt lat="50.12172" lon="4.12227">
        <ele>177.5</ele>
        <time>2017-06-01T08:43:51Z</time>
      </trkpt>
      <trkpt lat="50.12175" lon="4.12213">
        <ele>179.9</ele>
        <time>2017-06-01T08:44:01Z</time>
      </trkpt>
      <trkpt lat="50.12174" lon="4.12211">
        <ele>179.9</ele>
        <time>2017-06-01T08:44:02Z</time>
      </trkpt>
      <trkpt lat="50.12173" lon="4.12209">
        <ele>179.9</ele>
        <time>2017-06-01T08:44:03Z</time>
      </trkpt>
      <trkpt lat="50.12166" lon="4.12186">
        <ele>181.35</ele>
        <time>2017-06-01T08:44:16Z</time>
      </trkpt>
      <trkpt lat="50.12162" lon="4.12171">
        <ele>181.35</ele>
        <time>2017-06-01T08:44:23Z</time>
      </trkpt>
      <trkpt lat="50.12163" lon="4.12156">
        <ele>181.35</ele>
        <time>2017-06-01T08:44:30Z</time>
      </trkpt>
      <trkpt lat="50.12163" lon="4.12154">
        <ele>181.35</ele>
        <time>2017-06-01T08:44:31Z</time>
      </trkpt>
      <trkpt lat="50.12164" lon="4.12152">
        <ele>181.35</ele>
        <time>2017-06-01T08:44:32Z</time>
      </trkpt>
      <trkpt lat="50.12164" lon="4.1215">
        <ele>181.35</ele>
        <time>2017-06-01T08:44:33Z</time>
      </trkpt>
      <trkpt lat="50.12169" lon="4.12128">
        <ele>181.83</ele>
        <time>2017-06-01T08:44:45Z</time>
      </trkpt>
      <trkpt lat="50.1218" lon="4.12104">
        <ele>183.27</ele>
        <time>2017-06-01T08:45:00Z</time>
      </trkpt>
      <trkpt lat="50.12191" lon="4.12079">
        <ele>184.23</ele>
        <time>2017-06-01T08:45:17Z</time>
      </trkpt>
      <trkpt lat="50.12201" lon="4.12054">
        <ele>185.19</ele>
        <time>2017-06-01T08:45:32Z</time>
      </trkpt>
      <trkpt lat="50.12206" lon="4.12027">
        <ele>185.19</ele>
        <time>2017-06-01T08:45:48Z</time>
      </trkpt>
      <trkpt lat="50.12207" lon="4.12002">
        <ele>183.75</ele>
        <time>2017-06-01T08:46:02Z</time>
      </trkpt>
      <trkpt lat="50.12206" lon="4.11989">
        <ele>183.75</ele>
        <time>2017-06-01T08:46:09Z</time>
      </trkpt>
      <trkpt lat="50.12203" lon="4.11957">
        <ele>182.79</ele>
        <time>2017-06-01T08:46:24Z</time>
      </trkpt>
      <trkpt lat="50.12202" lon="4.11939">
        <ele>182.31</ele>
        <time>2017-06-01T08:46:34Z</time>
      </trkpt>
      <trkpt lat="50.12199" lon="4.11918">
        <ele>181.83</ele>
        <time>2017-06-01T08:46:47Z</time>
      </trkpt>
      <trkpt lat="50.12196" lon="4.11903">
        <ele>181.35</ele>
        <time>2017-06-01T08:46:55Z</time>
      </trkpt>
      <trkpt lat="50.12189" lon="4.11872">
        <ele>180.87</ele>
        <time>2017-06-01T08:47:12Z</time>
      </trkpt>
      <trkpt lat="50.12185" lon="4.11847">
        <ele>179.9</ele>
        <time>2017-06-01T08:47:26Z</time>
      </trkpt>
      <trkpt lat="50.1218" lon="4.1182">
        <ele>178.94</ele>
        <time>2017-06-01T08:47:40Z</time>
      </trkpt>
      <trkpt lat="50.12174" lon="4.11794">
        <ele>178.46</ele>
        <time>2017-06-01T08:47:54Z</time>
      </trkpt>
      <trkpt lat="50.12167" lon="4.11764">
        <ele>177.98</ele>
        <time>2017-06-01T08:48:11Z</time>
      </trkpt>
      <trkpt lat="50.12162" lon="4.11738">
        <ele>176.54</ele>
        <time>2017-06-01T08:48:26Z</time>
      </trkpt>
      <trkpt lat="50.12159" lon="4.11715">
        <ele>175.1</ele>
        <time>2017-06-01T08:48:41Z</time>
      </trkpt>
      <trkpt lat="50.12164" lon="4.11695">
        <ele>177.5</ele>
        <time>2017-06-01T08:48:54Z</time>
      </trkpt>
      <trkpt lat="50.12165" lon="4.11686">
        <ele>178.46</ele>
        <time>2017-06-01T08:49:00Z</time>
      </trkpt>
      <trkpt lat="50.1218" lon="4.11672">
        <ele>180.38</ele>
        <time>2017-06-01T08:49:14Z</time>
      </trkpt>
      <trkpt lat="50.12198" lon="4.11659">
        <ele>182.79</ele>
        <time>2017-06-01T08:49:30Z</time>
      </trkpt>
      <trkpt lat="50.12207" lon="4.11654">
        <ele>184.23</ele>
        <time>2017-06-01T08:49:38Z</time>
      </trkpt>
      <trkpt lat="50.12215" lon="4.11643">
        <ele>184.23</ele>
        <time>2017-06-01T08:49:47Z</time>
      </trkpt>
      <trkpt lat="50.12219" lon="4.11638">
        <ele>184.71</ele>
        <time>2017-06-01T08:49:51Z</time>
      </trkpt>
      <trkpt lat="50.12224" lon="4.11606">
        <ele>186.15</ele>
        <time>2017-06-01T08:50:09Z</time>
      </trkpt>
      <trkpt lat="50.12225" lon="4.11591">
        <ele>185.67</ele>
        <time>2017-06-01T08:50:18Z</time>
      </trkpt>
      <trkpt lat="50.12222" lon="4.11565">
        <ele>184.71</ele>
        <time>2017-06-01T08:50:36Z</time>
      </trkpt>
      <trkpt lat="50.12221" lon="4.11546">
        <ele>185.19</ele>
        <time>2017-06-01T08:50:49Z</time>
      </trkpt>
      <trkpt lat="50.12217" lon="4.11525">
        <ele>185.19</ele>
        <time>2017-06-01T08:51:01Z</time>
      </trkpt>
      <trkpt lat="50.12216" lon="4.11502">
        <ele>186.15</ele>
        <time>2017-06-01T08:51:15Z</time>
      </trkpt>
      <trkpt lat="50.12214" lon="4.11484">
        <ele>186.63</ele>
        <time>2017-06-01T08:51:27Z</time>
      </trkpt>
      <trkpt lat="50.1221" lon="4.11466">
        <ele>190.96</ele>
        <time>2017-06-01T08:51:42Z</time>
      </trkpt>
      <trkpt lat="50.12211" lon="4.11444">
        <ele>193.84</ele>
        <time>2017-06-01T08:51:57Z</time>
      </trkpt>
      <trkpt lat="50.12209" lon="4.11411">
        <ele>196.25</ele>
        <time>2017-06-01T08:52:15Z</time>
      </trkpt>
      <trkpt lat="50.1221" lon="4.11387">
        <ele>196.73</ele>
        <time>2017-06-01T08:52:33Z</time>
      </trkpt>
      <trkpt lat="50.12216" lon="4.1136">
        <ele>197.69</ele>
        <time>2017-06-01T08:52:50Z</time>
      </trkpt>
      <trkpt lat="50.12225" lon="4.11346">
        <ele>196.25</ele>
        <time>2017-06-01T08:53:04Z</time>
      </trkpt>
      <trkpt lat="50.12241" lon="4.11324">
        <ele>198.65</ele>
        <time>2017-06-01T08:53:23Z</time>
      </trkpt>
      <trkpt lat="50.12247" lon="4.1132">
        <ele>200.09</ele>
        <time>2017-06-01T08:53:38Z</time>
      </trkpt>
      <trkpt lat="50.12255" lon="4.11316">
        <ele>200.09</ele>
        <time>2017-06-01T08:53:55Z</time>
      </trkpt>
      <trkpt lat="50.12274" lon="4.11308">
        <ele>200.09</ele>
        <time>2017-06-01T08:54:14Z</time>
      </trkpt>
      <trkpt lat="50.1229" lon="4.11305">
        <ele>196.25</ele>
        <time>2017-06-01T08:54:32Z</time>
      </trkpt>
      <trkpt lat="50.12291" lon="4.11304">
        <ele>196.25</ele>
        <time>2017-06-01T08:54:33Z</time>
      </trkpt>
      <trkpt lat="50.12319" lon="4.11294">
        <ele>196.25</ele>
        <time>2017-06-01T08:54:54Z</time>
      </trkpt>
      <trkpt lat="50.12337" lon="4.11283">
        <ele>196.25</ele>
        <time>2017-06-01T08:55:11Z</time>
      </trkpt>
      <trkpt lat="50.1235" lon="4.11274">
        <ele>196.25</ele>
        <time>2017-06-01T08:55:22Z</time>
      </trkpt>
      <trkpt lat="50.12361" lon="4.11264">
        <ele>196.25</ele>
        <time>2017-06-01T08:55:33Z</time>
      </trkpt>
      <trkpt lat="50.12381" lon="4.11246">
        <ele>196.25</ele>
        <time>2017-06-01T08:55:52Z</time>
      </trkpt>
      <trkpt lat="50.12397" lon="4.1123">
        <ele>194.8</ele>
        <time>2017-06-01T08:56:09Z</time>
      </trkpt>
      <trkpt lat="50.12398" lon="4.11229">
        <ele>194.8</ele>
        <time>2017-06-01T08:56:10Z</time>
      </trkpt>
      <trkpt lat="50.12418" lon="4.11222">
        <ele>196.25</ele>
        <time>2017-06-01T08:56:27Z</time>
      </trkpt>
      <trkpt lat="50.12435" lon="4.11229">
        <ele>197.69</ele>
        <time>2017-06-01T08:56:44Z</time>
      </trkpt>
      <trkpt lat="50.12437" lon="4.11229">
        <ele>197.69</ele>
        <time>2017-06-01T08:56:46Z</time>
      </trkpt>
      <trkpt lat="50.12444" lon="4.11235">
        <ele>196.73</ele>
        <time>2017-06-01T08:56:54Z</time>
      </trkpt>
      <trkpt lat="50.12462" lon="4.1126">
        <ele>194.32</ele>
        <time>2017-06-01T08:57:15Z</time>
      </trkpt>
      <trkpt lat="50.12473" lon="4.11283">
        <ele>192.88</ele>
        <time>2017-06-01T08:57:33Z</time>
      </trkpt>
      <trkpt lat="50.12488" lon="4.11303">
        <ele>194.8</ele>
        <time>2017-06-01T08:57:50Z</time>
      </trkpt>
      <trkpt lat="50.12503" lon="4.11334">
        <ele>194.32</ele>
        <time>2017-06-01T08:58:12Z</time>
      </trkpt>
      <trkpt lat="50.12515" lon="4.11362">
        <ele>193.36</ele>
        <time>2017-06-01T08:58:31Z</time>
      </trkpt>
      <trkpt lat="50.12527" lon="4.11394">
        <ele>192.4</ele>
        <time>2017-06-01T08:58:51Z</time>
      </trkpt>
      <trkpt lat="50.12535" lon="4.11421">
        <ele>190</ele>
        <time>2017-06-01T08:59:10Z</time>
      </trkpt>
      <trkpt lat="50.12545" lon="4.11429">
        <ele>189.52</ele>
        <time>2017-06-01T08:59:20Z</time>
      </trkpt>
      <trkpt lat="50.12557" lon="4.11437">
        <ele>189.04</ele>
        <time>2017-06-01T08:59:31Z</time>
      </trkpt>
      <trkpt lat="50.12561" lon="4.11441">
        <ele>188.56</ele>
        <time>2017-06-01T08:59:34Z</time>
      </trkpt>
      <trkpt lat="50.12576" lon="4.11445">
        <ele>189.04</ele>
        <time>2017-06-01T08:59:45Z</time>
      </trkpt>
      <trkpt lat="50.126" lon="4.11449">
        <ele>191.44</ele>
        <time>2017-06-01T09:00:03Z</time>
      </trkpt>
      <trkpt lat="50.12624" lon="4.11441">
        <ele>192.88</ele>
        <time>2017-06-01T09:00:22Z</time>
      </trkpt>
      <trkpt lat="50.1264" lon="4.11425">
        <ele>193.84</ele>
        <time>2017-06-01T09:00:39Z</time>
      </trkpt>
      <trkpt lat="50.12644" lon="4.11388">
        <ele>197.69</ele>
        <time>2017-06-01T09:00:57Z</time>
      </trkpt>
      <trkpt lat="50.12644" lon="4.11358">
        <ele>199.13</ele>
        <time>2017-06-01T09:01:14Z</time>
      </trkpt>
      <trkpt lat="50.12645" lon="4.11323">
        <ele>199.13</ele>
        <time>2017-06-01T09:01:31Z</time>
      </trkpt>
      <trkpt lat="50.12656" lon="4.1129">
        <ele>200.09</ele>
        <time>2017-06-01T09:01:52Z</time>
      </trkpt>
      <trkpt lat="50.12672" lon="4.11265">
        <ele>200.09</ele>
        <time>2017-06-01T09:02:11Z</time>
      </trkpt>
      <trkpt lat="50.12683" lon="4.11236">
        <ele>199.61</ele>
        <time>2017-06-01T09:02:31Z</time>
      </trkpt>
      <trkpt lat="50.12691" lon="4.11213">
        <ele>200.09</ele>
        <time>2017-06-01T09:02:47Z</time>
      </trkpt>
      <trkpt lat="50.12696" lon="4.1119">
        <ele>201.53</ele>
        <time>2017-06-01T09:03:01Z</time>
      </trkpt>
      <trkpt lat="50.12703" lon="4.11165">
        <ele>203.46</ele>
        <time>2017-06-01T09:03:16Z</time>
      </trkpt>
      <trkpt lat="50.1271" lon="4.11141">
        <ele>205.86</ele>
        <time>2017-06-01T09:03:31Z</time>
      </trkpt>
      <trkpt lat="50.12714" lon="4.11128">
        <ele>207.78</ele>
        <time>2017-06-01T09:03:39Z</time>
      </trkpt>
      <trkpt lat="50.12724" lon="4.11106">
        <ele>211.15</ele>
        <time>2017-06-01T09:03:54Z</time>
      </trkpt>
      <trkpt lat="50.12737" lon="4.11087">
        <ele>212.11</ele>
        <time>2017-06-01T09:04:09Z</time>
      </trkpt>
      <trkpt lat="50.12748" lon="4.11065">
        <ele>213.07</ele>
        <time>2017-06-01T09:04:24Z</time>
      </trkpt>
      <trkpt lat="50.12761" lon="4.11041">
        <ele>213.07</ele>
        <time>2017-06-01T09:04:42Z</time>
      </trkpt>
      <trkpt lat="50.12761" lon="4.11036">
        <ele>212.59</ele>
        <time>2017-06-01T09:04:48Z</time>
      </trkpt>
      <trkpt lat="50.1276" lon="4.11022">
        <ele>213.07</ele>
        <time>2017-06-01T09:04:57Z</time>
      </trkpt>
      <trkpt lat="50.12758" lon="4.11012">
        <ele>212.11</ele>
        <time>2017-06-01T09:05:11Z</time>
      </trkpt>
      <trkpt lat="50.12759" lon="4.11009">
        <ele>212.59</ele>
        <time>2017-06-01T09:05:29Z</time>
      </trkpt>
      <trkpt lat="50.12759" lon="4.11008">
        <ele>213.07</ele>
        <time>2017-06-01T09:05:49Z</time>
      </trkpt>
      <trkpt lat="50.12759" lon="4.11">
        <ele>213.07</ele>
        <time>2017-06-01T09:06:12Z</time>
      </trkpt>
      <trkpt lat="50.1276" lon="4.10997">
        <ele>213.07</ele>
        <time>2017-06-01T09:06:14Z</time>
      </trkpt>
      <trkpt lat="50.12756" lon="4.10979">
        <ele>212.59</ele>
        <time>2017-06-01T09:06:24Z</time>
      </trkpt>
      <trkpt lat="50.12753" lon="4.10951">
        <ele>212.11</ele>
        <time>2017-06-01T09:06:39Z</time>
      </trkpt>
      <trkpt lat="50.12753" lon="4.1094">
        <ele>211.63</ele>
        <time>2017-06-01T09:06:46Z</time>
      </trkpt>
      <trkpt lat="50.12753" lon="4.10925">
        <ele>212.59</ele>
        <time>2017-06-01T09:07:01Z</time>
      </trkpt>
      <trkpt lat="50.12753" lon="4.10922">
        <ele>213.07</ele>
        <time>2017-06-01T09:07:16Z</time>
      </trkpt>
      <trkpt lat="50.1275" lon="4.10914">
        <ele>214.51</ele>
        <time>2017-06-01T09:07:32Z</time>
      </trkpt>
      <trkpt lat="50.12748" lon="4.10909">
        <ele>214.99</ele>
        <time>2017-06-01T09:07:36Z</time>
      </trkpt>
      <trkpt lat="50.12744" lon="4.10882">
        <ele>214.99</ele>
        <time>2017-06-01T09:07:50Z</time>
      </trkpt>
      <trkpt lat="50.12741" lon="4.10861">
        <ele>214.99</ele>
        <time>2017-06-01T09:08:01Z</time>
      </trkpt>
      <trkpt lat="50.12738" lon="4.1083">
        <ele>215.95</ele>
        <time>2017-06-01T09:08:18Z</time>
      </trkpt>
      <trkpt lat="50.12729" lon="4.10804">
        <ele>215.95</ele>
        <time>2017-06-01T09:08:34Z</time>
      </trkpt>
      <trkpt lat="50.12718" lon="4.1078">
        <ele>218.36</ele>
        <time>2017-06-01T09:08:50Z</time>
      </trkpt>
      <trkpt lat="50.12705" lon="4.10757">
        <ele>219.8</ele>
        <time>2017-06-01T09:09:05Z</time>
      </trkpt>
      <trkpt lat="50.12703" lon="4.10737">
        <ele>219.32</ele>
        <time>2017-06-01T09:09:14Z</time>
      </trkpt>
      <trkpt lat="50.12702" lon="4.10728">
        <ele>218.84</ele>
        <time>2017-06-01T09:09:18Z</time>
      </trkpt>
      <trkpt lat="50.12702" lon="4.10721">
        <ele>218.84</ele>
        <time>2017-06-01T09:09:22Z</time>
      </trkpt>
      <trkpt lat="50.12699" lon="4.10694">
        <ele>216.91</ele>
        <time>2017-06-01T09:09:38Z</time>
      </trkpt>
      <trkpt lat="50.12698" lon="4.10674">
        <ele>214.99</ele>
        <time>2017-06-01T09:09:50Z</time>
      </trkpt>
      <trkpt lat="50.12696" lon="4.10643">
        <ele>214.99</ele>
        <time>2017-06-01T09:10:07Z</time>
      </trkpt>
      <trkpt lat="50.12693" lon="4.10606">
        <ele>214.99</ele>
        <time>2017-06-01T09:10:26Z</time>
      </trkpt>
      <trkpt lat="50.1269" lon="4.10577">
        <ele>213.55</ele>
        <time>2017-06-01T09:10:42Z</time>
      </trkpt>
      <trkpt lat="50.12688" lon="4.10547">
        <ele>211.15</ele>
        <time>2017-06-01T09:11:00Z</time>
      </trkpt>
      <trkpt lat="50.12685" lon="4.10519">
        <ele>211.15</ele>
        <time>2017-06-01T09:11:15Z</time>
      </trkpt>
      <trkpt lat="50.12683" lon="4.10491">
        <ele>211.15</ele>
        <time>2017-06-01T09:11:30Z</time>
      </trkpt>
      <trkpt lat="50.12683" lon="4.10481">
        <ele>211.15</ele>
        <time>2017-06-01T09:11:36Z</time>
      </trkpt>
      <trkpt lat="50.1268" lon="4.10449">
        <ele>212.11</ele>
        <time>2017-06-01T09:11:54Z</time>
      </trkpt>
      <trkpt lat="50.12678" lon="4.10419">
        <ele>214.03</ele>
        <time>2017-06-01T09:12:10Z</time>
      </trkpt>
      <trkpt lat="50.12674" lon="4.10389">
        <ele>214.03</ele>
        <time>2017-06-01T09:12:26Z</time>
      </trkpt>
      <trkpt lat="50.12672" lon="4.10361">
        <ele>214.51</ele>
        <time>2017-06-01T09:12:41Z</time>
      </trkpt>
      <trkpt lat="50.12671" lon="4.10332">
        <ele>214.51</ele>
        <time>2017-06-01T09:12:57Z</time>
      </trkpt>
      <trkpt lat="50.12668" lon="4.10296">
        <ele>214.99</ele>
        <time>2017-06-01T09:13:15Z</time>
      </trkpt>
      <trkpt lat="50.12666" lon="4.10268">
        <ele>213.55</ele>
        <time>2017-06-01T09:13:31Z</time>
      </trkpt>
      <trkpt lat="50.12663" lon="4.10246">
        <ele>213.55</ele>
        <time>2017-06-01T09:13:44Z</time>
      </trkpt>
      <trkpt lat="50.12661" lon="4.10213">
        <ele>212.11</ele>
        <time>2017-06-01T09:14:01Z</time>
      </trkpt>
      <trkpt lat="50.12659" lon="4.10186">
        <ele>212.11</ele>
        <time>2017-06-01T09:14:15Z</time>
      </trkpt>
      <trkpt lat="50.12656" lon="4.10154">
        <ele>209.7</ele>
        <time>2017-06-01T09:14:31Z</time>
      </trkpt>
      <trkpt lat="50.12656" lon="4.10136">
        <ele>208.74</ele>
        <time>2017-06-01T09:14:40Z</time>
      </trkpt>
      <trkpt lat="50.12654" lon="4.10107">
        <ele>207.3</ele>
        <time>2017-06-01T09:14:55Z</time>
      </trkpt>
      <trkpt lat="50.12653" lon="4.1008">
        <ele>207.3</ele>
        <time>2017-06-01T09:15:09Z</time>
      </trkpt>
      <trkpt lat="50.12653" lon="4.10073">
        <ele>207.78</ele>
        <time>2017-06-01T09:15:12Z</time>
      </trkpt>
      <trkpt lat="50.12664" lon="4.10057">
        <ele>207.78</ele>
        <time>2017-06-01T09:15:32Z</time>
      </trkpt>
      <trkpt lat="50.12672" lon="4.10057">
        <ele>206.34</ele>
        <time>2017-06-01T09:15:47Z</time>
      </trkpt>
      <trkpt lat="50.12688" lon="4.10055">
        <ele>204.42</ele>
        <time>2017-06-01T09:16:06Z</time>
      </trkpt>
      <trkpt lat="50.12691" lon="4.10055">
        <ele>204.42</ele>
        <time>2017-06-01T09:16:08Z</time>
      </trkpt>
      <trkpt lat="50.12713" lon="4.1005">
        <ele>208.74</ele>
        <time>2017-06-01T09:16:27Z</time>
      </trkpt>
      <trkpt lat="50.12718" lon="4.10049">
        <ele>206.82</ele>
        <time>2017-06-01T09:16:43Z</time>
      </trkpt>
      <trkpt lat="50.12747" lon="4.10044">
        <ele>204.9</ele>
        <time>2017-06-01T09:17:02Z</time>
      </trkpt>
      <trkpt lat="50.12774" lon="4.10041">
        <ele>209.7</ele>
        <time>2017-06-01T09:17:21Z</time>
      </trkpt>
      <trkpt lat="50.12796" lon="4.10037">
        <ele>214.03</ele>
        <time>2017-06-01T09:17:38Z</time>
      </trkpt>
      <trkpt lat="50.12815" lon="4.10034">
        <ele>214.99</ele>
        <time>2017-06-01T09:17:56Z</time>
      </trkpt>
      <trkpt lat="50.12836" lon="4.10031">
        <ele>215.95</ele>
        <time>2017-06-01T09:18:14Z</time>
      </trkpt>
      <trkpt lat="50.12853" lon="4.10027">
        <ele>217.4</ele>
        <time>2017-06-01T09:18:30Z</time>
      </trkpt>
      <trkpt lat="50.12879" lon="4.1002">
        <ele>217.88</ele>
        <time>2017-06-01T09:18:52Z</time>
      </trkpt>
      <trkpt lat="50.12887" lon="4.10016">
        <ele>216.91</ele>
        <time>2017-06-01T09:18:59Z</time>
      </trkpt>
      <trkpt lat="50.12913" lon="4.10012">
        <ele>217.88</ele>
        <time>2017-06-01T09:19:19Z</time>
      </trkpt>
      <trkpt lat="50.12941" lon="4.10005">
        <ele>217.4</ele>
        <time>2017-06-01T09:19:42Z</time>
      </trkpt>
      <trkpt lat="50.1296" lon="4.09999">
        <ele>216.43</ele>
        <time>2017-06-01T09:19:58Z</time>
      </trkpt>
      <trkpt lat="50.1298" lon="4.1">
        <ele>215.47</ele>
        <time>2017-06-01T09:20:15Z</time>
      </trkpt>
      <trkpt lat="50.12986" lon="4.09994">
        <ele>214.51</ele>
        <time>2017-06-01T09:20:25Z</time>
      </trkpt>
      <trkpt lat="50.13004" lon="4.0998">
        <ele>209.7</ele>
        <time>2017-06-01T09:20:46Z</time>
      </trkpt>
      <trkpt lat="50.13024" lon="4.09967">
        <ele>206.82</ele>
        <time>2017-06-01T09:21:04Z</time>
      </trkpt>
      <trkpt lat="50.13052" lon="4.09954">
        <ele>203.94</ele>
        <time>2017-06-01T09:21:28Z</time>
      </trkpt>
      <trkpt lat="50.13075" lon="4.09941">
        <ele>202.49</ele>
        <time>2017-06-01T09:21:48Z</time>
      </trkpt>
      <trkpt lat="50.13077" lon="4.09939">
        <ele>202.49</ele>
        <time>2017-06-01T09:21:50Z</time>
      </trkpt>
      <trkpt lat="50.13103" lon="4.09922">
        <ele>201.05</ele>
        <time>2017-06-01T09:22:13Z</time>
      </trkpt>
      <trkpt lat="50.13113" lon="4.09917">
        <ele>199.13</ele>
        <time>2017-06-01T09:22:22Z</time>
      </trkpt>
      <trkpt lat="50.13118" lon="4.09914">
        <ele>197.69</ele>
        <time>2017-06-01T09:22:27Z</time>
      </trkpt>
      <trkpt lat="50.13132" lon="4.09907">
        <ele>196.25</ele>
        <time>2017-06-01T09:22:38Z</time>
      </trkpt>
      <trkpt lat="50.13136" lon="4.09903">
        <ele>197.21</ele>
        <time>2017-06-01T09:22:42Z</time>
      </trkpt>
      <trkpt lat="50.13156" lon="4.09889">
        <ele>197.69</ele>
        <time>2017-06-01T09:23:01Z</time>
      </trkpt>
      <trkpt lat="50.13174" lon="4.0988">
        <ele>197.21</ele>
        <time>2017-06-01T09:23:17Z</time>
      </trkpt>
      <trkpt lat="50.1319" lon="4.09869">
        <ele>195.28</ele>
        <time>2017-06-01T09:23:35Z</time>
      </trkpt>
      <trkpt lat="50.13213" lon="4.09855">
        <ele>191.44</ele>
        <time>2017-06-01T09:23:55Z</time>
      </trkpt>
      <trkpt lat="50.13232" lon="4.09845">
        <ele>189.52</ele>
        <time>2017-06-01T09:24:14Z</time>
      </trkpt>
      <trkpt lat="50.13248" lon="4.09825">
        <ele>188.56</ele>
        <time>2017-06-01T09:24:29Z</time>
      </trkpt>
      <trkpt lat="50.13259" lon="4.09803">
        <ele>185.19</ele>
        <time>2017-06-01T09:24:45Z</time>
      </trkpt>
      <trkpt lat="50.1326" lon="4.09798">
        <ele>184.23</ele>
        <time>2017-06-01T09:24:48Z</time>
      </trkpt>
      <trkpt lat="50.13272" lon="4.09774">
        <ele>179.42</ele>
        <time>2017-06-01T09:25:05Z</time>
      </trkpt>
      <trkpt lat="50.13272" lon="4.09761">
        <ele>174.14</ele>
        <time>2017-06-01T09:25:23Z</time>
      </trkpt>
      <trkpt lat="50.13293" lon="4.09719">
        <ele>177.02</ele>
        <time>2017-06-01T09:25:43Z</time>
      </trkpt>
      <trkpt lat="50.13291" lon="4.09692">
        <ele>179.9</ele>
        <time>2017-06-01T09:26:00Z</time>
      </trkpt>
      <trkpt lat="50.13289" lon="4.09674">
        <ele>184.23</ele>
        <time>2017-06-01T09:26:21Z</time>
      </trkpt>
      <trkpt lat="50.13284" lon="4.09662">
        <ele>185.67</ele>
        <time>2017-06-01T09:26:40Z</time>
      </trkpt>
      <trkpt lat="50.13291" lon="4.09668">
        <ele>185.67</ele>
        <time>2017-06-01T09:26:59Z</time>
      </trkpt>
      <trkpt lat="50.13285" lon="4.09655">
        <ele>187.59</ele>
        <time>2017-06-01T09:27:18Z</time>
      </trkpt>
      <trkpt lat="50.13283" lon="4.09633">
        <ele>187.11</ele>
        <time>2017-06-01T09:27:35Z</time>
      </trkpt>
      <trkpt lat="50.13277" lon="4.09591">
        <ele>185.67</ele>
        <time>2017-06-01T09:27:52Z</time>
      </trkpt>
      <trkpt lat="50.1327" lon="4.09551">
        <ele>184.23</ele>
        <time>2017-06-01T09:28:13Z</time>
      </trkpt>
      <trkpt lat="50.13262" lon="4.09513">
        <ele>181.35</ele>
        <time>2017-06-01T09:28:34Z</time>
      </trkpt>
      <trkpt lat="50.13251" lon="4.09487">
        <ele>179.42</ele>
        <time>2017-06-01T09:28:52Z</time>
      </trkpt>
      <trkpt lat="50.1324" lon="4.09471">
        <ele>180.38</ele>
        <time>2017-06-01T09:29:06Z</time>
      </trkpt>
      <trkpt lat="50.13227" lon="4.0945">
        <ele>180.87</ele>
        <time>2017-06-01T09:29:23Z</time>
      </trkpt>
      <trkpt lat="50.1322" lon="4.09435">
        <ele>177.02</ele>
        <time>2017-06-01T09:29:38Z</time>
      </trkpt>
      <trkpt lat="50.13206" lon="4.09407">
        <ele>171.73</ele>
        <time>2017-06-01T09:29:55Z</time>
      </trkpt>
      <trkpt lat="50.13195" lon="4.09387">
        <ele>168.85</ele>
        <time>2017-06-01T09:30:11Z</time>
      </trkpt>
      <trkpt lat="50.13188" lon="4.09369">
        <ele>165.48</ele>
        <time>2017-06-01T09:30:24Z</time>
      </trkpt>
      <trkpt lat="50.13177" lon="4.09341">
        <ele>164.04</ele>
        <time>2017-06-01T09:30:41Z</time>
      </trkpt>
      <trkpt lat="50.13165" lon="4.09312">
        <ele>164.52</ele>
        <time>2017-06-01T09:31:01Z</time>
      </trkpt>
      <trkpt lat="50.13153" lon="4.09283">
        <ele>167.41</ele>
        <time>2017-06-01T09:31:20Z</time>
      </trkpt>
      <trkpt lat="50.13144" lon="4.09263">
        <ele>168.37</ele>
        <time>2017-06-01T09:31:33Z</time>
      </trkpt>
      <trkpt lat="50.13132" lon="4.09233">
        <ele>169.33</ele>
        <time>2017-06-01T09:31:51Z</time>
      </trkpt>
      <trkpt lat="50.1312" lon="4.09209">
        <ele>168.85</ele>
        <time>2017-06-01T09:32:07Z</time>
      </trkpt>
      <trkpt lat="50.1312" lon="4.09205">
        <ele>166.93</ele>
        <time>2017-06-01T09:32:11Z</time>
      </trkpt>
      <trkpt lat="50.1312" lon="4.09184">
        <ele>164.52</ele>
        <time>2017-06-01T09:32:25Z</time>
      </trkpt>
      <trkpt lat="50.13112" lon="4.09153">
        <ele>169.81</ele>
        <time>2017-06-01T09:32:39Z</time>
      </trkpt>
      <trkpt lat="50.13107" lon="4.09121">
        <ele>176.54</ele>
        <time>2017-06-01T09:32:54Z</time>
      </trkpt>
      <trkpt lat="50.13102" lon="4.09104">
        <ele>179.9</ele>
        <time>2017-06-01T09:33:10Z</time>
      </trkpt>
      <trkpt lat="50.13102" lon="4.09102">
        <ele>180.87</ele>
        <time>2017-06-01T09:33:29Z</time>
      </trkpt>
      <trkpt lat="50.13099" lon="4.09101">
        <ele>179.42</ele>
        <time>2017-06-01T09:33:44Z</time>
      </trkpt>
      <trkpt lat="50.13099" lon="4.09101">
        <ele>178.94</ele>
        <time>2017-06-01T09:34:07Z</time>
      </trkpt>
      <trkpt lat="50.131" lon="4.09098">
        <ele>178.94</ele>
        <time>2017-06-01T09:34:26Z</time>
      </trkpt>
      <trkpt lat="50.13097" lon="4.09093">
        <ele>177.98</ele>
        <time>2017-06-01T09:34:43Z</time>
      </trkpt>
      <trkpt lat="50.13092" lon="4.0908">
        <ele>179.42</ele>
        <time>2017-06-01T09:34:59Z</time>
      </trkpt>
      <trkpt lat="50.13087" lon="4.09073">
        <ele>180.38</ele>
        <time>2017-06-01T09:35:18Z</time>
      </trkpt>
      <trkpt lat="50.13076" lon="4.09054">
        <ele>181.35</ele>
        <time>2017-06-01T09:35:35Z</time>
      </trkpt>
      <trkpt lat="50.1307" lon="4.09048">
        <ele>181.83</ele>
        <time>2017-06-01T09:35:52Z</time>
      </trkpt>
      <trkpt lat="50.13075" lon="4.09038">
        <ele>177.98</ele>
        <time>2017-06-01T09:36:08Z</time>
      </trkpt>
      <trkpt lat="50.13078" lon="4.0904">
        <ele>177.98</ele>
        <time>2017-06-01T09:36:29Z</time>
      </trkpt>
      <trkpt lat="50.13078" lon="4.09043">
        <ele>177.98</ele>
        <time>2017-06-01T09:36:52Z</time>
      </trkpt>
      <trkpt lat="50.13077" lon="4.09044">
        <ele>177.5</ele>
        <time>2017-06-01T09:37:13Z</time>
      </trkpt>
      <trkpt lat="50.13077" lon="4.09041">
        <ele>177.98</ele>
        <time>2017-06-01T09:37:33Z</time>
      </trkpt>
      <trkpt lat="50.13076" lon="4.09041">
        <ele>178.46</ele>
        <time>2017-06-01T09:37:53Z</time>
      </trkpt>
      <trkpt lat="50.13074" lon="4.09042">
        <ele>178.94</ele>
        <time>2017-06-01T09:38:17Z</time>
      </trkpt>
      <trkpt lat="50.13075" lon="4.09042">
        <ele>178.46</ele>
        <time>2017-06-01T09:38:39Z</time>
      </trkpt>
      <trkpt lat="50.13074" lon="4.09047">
        <ele>178.94</ele>
        <time>2017-06-01T09:38:56Z</time>
      </trkpt>
      <trkpt lat="50.13074" lon="4.09051">
        <ele>179.42</ele>
        <time>2017-06-01T09:39:22Z</time>
      </trkpt>
      <trkpt lat="50.1307" lon="4.09053">
        <ele>179.42</ele>
        <time>2017-06-01T09:39:42Z</time>
      </trkpt>
      <trkpt lat="50.1307" lon="4.09055">
        <ele>179.9</ele>
        <time>2017-06-01T09:40:04Z</time>
      </trkpt>
      <trkpt lat="50.1307" lon="4.09054">
        <ele>180.38</ele>
        <time>2017-06-01T09:40:22Z</time>
      </trkpt>
      <trkpt lat="50.1306" lon="4.09057">
        <ele>179.9</ele>
        <time>2017-06-01T09:40:36Z</time>
      </trkpt>
      <trkpt lat="50.13044" lon="4.09063">
        <ele>176.06</ele>
        <time>2017-06-01T09:40:52Z</time>
      </trkpt>
      <trkpt lat="50.13031" lon="4.09068">
        <ele>173.17</ele>
        <time>2017-06-01T09:41:06Z</time>
      </trkpt>
      <trkpt lat="50.1302" lon="4.09062">
        <ele>171.73</ele>
        <time>2017-06-01T09:41:16Z</time>
      </trkpt>
      <trkpt lat="50.13013" lon="4.09062">
        <ele>171.25</ele>
        <time>2017-06-01T09:41:21Z</time>
      </trkpt>
      <trkpt lat="50.12991" lon="4.09057">
        <ele>168.85</ele>
        <time>2017-06-01T09:41:40Z</time>
      </trkpt>
      <trkpt lat="50.12973" lon="4.09047">
        <ele>167.41</ele>
        <time>2017-06-01T09:41:57Z</time>
      </trkpt>
      <trkpt lat="50.12955" lon="4.09034">
        <ele>167.89</ele>
        <time>2017-06-01T09:42:17Z</time>
      </trkpt>
      <trkpt lat="50.12928" lon="4.0902">
        <ele>169.81</ele>
        <time>2017-06-01T09:42:37Z</time>
      </trkpt>
      <trkpt lat="50.12904" lon="4.09">
        <ele>170.77</ele>
        <time>2017-06-01T09:43:00Z</time>
      </trkpt>
      <trkpt lat="50.12883" lon="4.08979">
        <ele>173.17</ele>
        <time>2017-06-01T09:43:20Z</time>
      </trkpt>
      <trkpt lat="50.12862" lon="4.0897">
        <ele>171.73</ele>
        <time>2017-06-01T09:43:36Z</time>
      </trkpt>
      <trkpt lat="50.12841" lon="4.08957">
        <ele>174.62</ele>
        <time>2017-06-01T09:43:53Z</time>
      </trkpt>
      <trkpt lat="50.12818" lon="4.08935">
        <ele>177.98</ele>
        <time>2017-06-01T09:44:13Z</time>
      </trkpt>
      <trkpt lat="50.12801" lon="4.08915">
        <ele>178.94</ele>
        <time>2017-06-01T09:44:30Z</time>
      </trkpt>
      <trkpt lat="50.12788" lon="4.08893">
        <ele>178.94</ele>
        <time>2017-06-01T09:44:48Z</time>
      </trkpt>
      <trkpt lat="50.12773" lon="4.0887">
        <ele>177.5</ele>
        <time>2017-06-01T09:45:06Z</time>
      </trkpt>
      <trkpt lat="50.12764" lon="4.08856">
        <ele>180.38</ele>
        <time>2017-06-01T09:45:21Z</time>
      </trkpt>
      <trkpt lat="50.12759" lon="4.08838">
        <ele>181.83</ele>
        <time>2017-06-01T09:45:36Z</time>
      </trkpt>
      <trkpt lat="50.12755" lon="4.08823">
        <ele>179.9</ele>
        <time>2017-06-01T09:45:49Z</time>
      </trkpt>
      <trkpt lat="50.12755" lon="4.08799">
        <ele>175.58</ele>
        <time>2017-06-01T09:46:04Z</time>
      </trkpt>
      <trkpt lat="50.12757" lon="4.08781">
        <ele>172.69</ele>
        <time>2017-06-01T09:46:14Z</time>
      </trkpt>
      <trkpt lat="50.12762" lon="4.08744">
        <ele>172.21</ele>
        <time>2017-06-01T09:46:31Z</time>
      </trkpt>
      <trkpt lat="50.12759" lon="4.08717">
        <ele>174.62</ele>
        <time>2017-06-01T09:46:44Z</time>
      </trkpt>
      <trkpt lat="50.12756" lon="4.08687">
        <ele>175.1</ele>
        <time>2017-06-01T09:46:58Z</time>
      </trkpt>
      <trkpt lat="50.1276" lon="4.08653">
        <ele>175.1</ele>
        <time>2017-06-01T09:47:16Z</time>
      </trkpt>
      <trkpt lat="50.1276" lon="4.0862">
        <ele>173.17</ele>
        <time>2017-06-01T09:47:33Z</time>
      </trkpt>
      <trkpt lat="50.1276" lon="4.08618">
        <ele>172.69</ele>
        <time>2017-06-01T09:47:34Z</time>
      </trkpt>
      <trkpt lat="50.12745" lon="4.08593">
        <ele>168.37</ele>
        <time>2017-06-01T09:47:52Z</time>
      </trkpt>
      <trkpt lat="50.12728" lon="4.0858">
        <ele>165.96</ele>
        <time>2017-06-01T09:48:09Z</time>
      </trkpt>
      <trkpt lat="50.12708" lon="4.0856">
        <ele>168.37</ele>
        <time>2017-06-01T09:48:27Z</time>
      </trkpt>
      <trkpt lat="50.12696" lon="4.08533">
        <ele>165.48</ele>
        <time>2017-06-01T09:48:46Z</time>
      </trkpt>
      <trkpt lat="50.1268" lon="4.08501">
        <ele>165.96</ele>
        <time>2017-06-01T09:49:06Z</time>
      </trkpt>
      <trkpt lat="50.12665" lon="4.08476">
        <ele>162.12</ele>
        <time>2017-06-01T09:49:23Z</time>
      </trkpt>
      <trkpt lat="50.12656" lon="4.08465">
        <ele>161.16</ele>
        <time>2017-06-01T09:49:30Z</time>
      </trkpt>
      <trkpt lat="50.12652" lon="4.08458">
        <ele>160.68</ele>
        <time>2017-06-01T09:49:34Z</time>
      </trkpt>
      <trkpt lat="50.12638" lon="4.08426">
        <ele>166.45</ele>
        <time>2017-06-01T09:49:51Z</time>
      </trkpt>
      <trkpt lat="50.12621" lon="4.08405">
        <ele>169.33</ele>
        <time>2017-06-01T09:50:08Z</time>
      </trkpt>
      <trkpt lat="50.12608" lon="4.08387">
        <ele>165</ele>
        <time>2017-06-01T09:50:24Z</time>
      </trkpt>
      <trkpt lat="50.12593" lon="4.08364">
        <ele>161.64</ele>
        <time>2017-06-01T09:50:41Z</time>
      </trkpt>
      <trkpt lat="50.12576" lon="4.08342">
        <ele>167.41</ele>
        <time>2017-06-01T09:50:57Z</time>
      </trkpt>
      <trkpt lat="50.12557" lon="4.08319">
        <ele>169.81</ele>
        <time>2017-06-01T09:51:14Z</time>
      </trkpt>
      <trkpt lat="50.12556" lon="4.08318">
        <ele>169.33</ele>
        <time>2017-06-01T09:51:16Z</time>
      </trkpt>
      <trkpt lat="50.12544" lon="4.08291">
        <ele>169.81</ele>
        <time>2017-06-01T09:51:33Z</time>
      </trkpt>
      <trkpt lat="50.12544" lon="4.08289">
        <ele>170.77</ele>
        <time>2017-06-01T09:51:47Z</time>
      </trkpt>
      <trkpt lat="50.12541" lon="4.08288">
        <ele>170.77</ele>
        <time>2017-06-01T09:52:01Z</time>
      </trkpt>
      <trkpt lat="50.12542" lon="4.08285">
        <ele>171.25</ele>
        <time>2017-06-01T09:52:18Z</time>
      </trkpt>
      <trkpt lat="50.12537" lon="4.08283">
        <ele>171.73</ele>
        <time>2017-06-01T09:52:33Z</time>
      </trkpt>
      <trkpt lat="50.12523" lon="4.08265">
        <ele>171.73</ele>
        <time>2017-06-01T09:52:53Z</time>
      </trkpt>
      <trkpt lat="50.12505" lon="4.08259">
        <ele>171.25</ele>
        <time>2017-06-01T09:53:11Z</time>
      </trkpt>
      <trkpt lat="50.12491" lon="4.08252">
        <ele>172.21</ele>
        <time>2017-06-01T09:53:30Z</time>
      </trkpt>
      <trkpt lat="50.1248" lon="4.08252">
        <ele>171.25</ele>
        <time>2017-06-01T09:53:49Z</time>
      </trkpt>
      <trkpt lat="50.12464" lon="4.08248">
        <ele>176.06</ele>
        <time>2017-06-01T09:54:06Z</time>
      </trkpt>
      <trkpt lat="50.12456" lon="4.08249">
        <ele>178.46</ele>
        <time>2017-06-01T09:54:12Z</time>
      </trkpt>
      <trkpt lat="50.12438" lon="4.08254">
        <ele>178.94</ele>
        <time>2017-06-01T09:54:28Z</time>
      </trkpt>
      <trkpt lat="50.12422" lon="4.08263">
        <ele>179.42</ele>
        <time>2017-06-01T09:54:44Z</time>
      </trkpt>
      <trkpt lat="50.1242" lon="4.08265">
        <ele>179.42</ele>
        <time>2017-06-01T09:54:46Z</time>
      </trkpt>
      <trkpt lat="50.12413" lon="4.08275">
        <ele>179.9</ele>
        <time>2017-06-01T09:54:55Z</time>
      </trkpt>
      <trkpt lat="50.12404" lon="4.08278">
        <ele>178.94</ele>
        <time>2017-06-01T09:55:04Z</time>
      </trkpt>
      <trkpt lat="50.12389" lon="4.08259">
        <ele>178.46</ele>
        <time>2017-06-01T09:55:21Z</time>
      </trkpt>
      <trkpt lat="50.12375" lon="4.08243">
        <ele>179.9</ele>
        <time>2017-06-01T09:55:36Z</time>
      </trkpt>
      <trkpt lat="50.12365" lon="4.08224">
        <ele>177.5</ele>
        <time>2017-06-01T09:55:50Z</time>
      </trkpt>
      <trkpt lat="50.12351" lon="4.082">
        <ele>174.62</ele>
        <time>2017-06-01T09:56:08Z</time>
      </trkpt>
      <trkpt lat="50.12339" lon="4.08178">
        <ele>170.77</ele>
        <time>2017-06-01T09:56:25Z</time>
      </trkpt>
      <trkpt lat="50.12334" lon="4.08173">
        <ele>172.21</ele>
        <time>2017-06-01T09:56:37Z</time>
      </trkpt>
      <trkpt lat="50.12323" lon="4.08158">
        <ele>173.17</ele>
        <time>2017-06-01T09:56:51Z</time>
      </trkpt>
      <trkpt lat="50.12315" lon="4.08142">
        <ele>172.21</ele>
        <time>2017-06-01T09:57:05Z</time>
      </trkpt>
      <trkpt lat="50.12294" lon="4.08118">
        <ele>170.77</ele>
        <time>2017-06-01T09:57:25Z</time>
      </trkpt>
      <trkpt lat="50.1228" lon="4.08095">
        <ele>170.77</ele>
        <time>2017-06-01T09:57:42Z</time>
      </trkpt>
      <trkpt lat="50.12264" lon="4.08079">
        <ele>168.37</ele>
        <time>2017-06-01T09:58:00Z</time>
      </trkpt>
      <trkpt lat="50.12242" lon="4.08065">
        <ele>168.85</ele>
        <time>2017-06-01T09:58:18Z</time>
      </trkpt>
      <trkpt lat="50.12229" lon="4.08052">
        <ele>167.89</ele>
        <time>2017-06-01T09:58:33Z</time>
      </trkpt>
      <trkpt lat="50.12224" lon="4.08053">
        <ele>168.37</ele>
        <time>2017-06-01T09:58:38Z</time>
      </trkpt>
      <trkpt lat="50.12213" lon="4.08057">
        <ele>167.41</ele>
        <time>2017-06-01T09:58:52Z</time>
      </trkpt>
      <trkpt lat="50.12193" lon="4.08071">
        <ele>162.12</ele>
        <time>2017-06-01T09:59:14Z</time>
      </trkpt>
      <trkpt lat="50.12167" lon="4.08084">
        <ele>164.52</ele>
        <time>2017-06-01T09:59:34Z</time>
      </trkpt>
      <trkpt lat="50.1215" lon="4.08091">
        <ele>161.64</ele>
        <time>2017-06-01T09:59:52Z</time>
      </trkpt>
      <trkpt lat="50.12132" lon="4.08105">
        <ele>162.6</ele>
        <time>2017-06-01T10:00:07Z</time>
      </trkpt>
      <trkpt lat="50.12131" lon="4.08105">
        <ele>162.6</ele>
        <time>2017-06-01T10:00:08Z</time>
      </trkpt>
      <trkpt lat="50.12112" lon="4.08095">
        <ele>162.6</ele>
        <time>2017-06-01T10:00:25Z</time>
      </trkpt>
      <trkpt lat="50.12107" lon="4.08092">
        <ele>162.6</ele>
        <time>2017-06-01T10:00:29Z</time>
      </trkpt>
      <trkpt lat="50.12104" lon="4.08081">
        <ele>163.56</ele>
        <time>2017-06-01T10:00:35Z</time>
      </trkpt>
      <trkpt lat="50.12105" lon="4.08046">
        <ele>161.64</ele>
        <time>2017-06-01T10:00:54Z</time>
      </trkpt>
      <trkpt lat="50.12098" lon="4.08024">
        <ele>162.6</ele>
        <time>2017-06-01T10:01:10Z</time>
      </trkpt>
      <trkpt lat="50.12096" lon="4.08018">
        <ele>162.12</ele>
        <time>2017-06-01T10:01:22Z</time>
      </trkpt>
      <trkpt lat="50.12084" lon="4.07996">
        <ele>160.68</ele>
        <time>2017-06-01T10:01:38Z</time>
      </trkpt>
      <trkpt lat="50.12074" lon="4.07974">
        <ele>156.35</ele>
        <time>2017-06-01T10:01:55Z</time>
      </trkpt>
      <trkpt lat="50.12058" lon="4.07952">
        <ele>158.27</ele>
        <time>2017-06-01T10:02:12Z</time>
      </trkpt>
      <trkpt lat="50.12047" lon="4.07931">
        <ele>156.83</ele>
        <time>2017-06-01T10:02:28Z</time>
      </trkpt>
      <trkpt lat="50.12043" lon="4.07922">
        <ele>156.35</ele>
        <time>2017-06-01T10:02:34Z</time>
      </trkpt>
      <trkpt lat="50.12042" lon="4.07919">
        <ele>155.87</ele>
        <time>2017-06-01T10:02:36Z</time>
      </trkpt>
      <trkpt lat="50.12034" lon="4.07901">
        <ele>155.39</ele>
        <time>2017-06-01T10:02:47Z</time>
      </trkpt>
      <trkpt lat="50.12019" lon="4.07868">
        <ele>156.35</ele>
        <time>2017-06-01T10:03:06Z</time>
      </trkpt>
      <trkpt lat="50.12009" lon="4.07847">
        <ele>155.39</ele>
        <time>2017-06-01T10:03:22Z</time>
      </trkpt>
      <trkpt lat="50.11993" lon="4.07825">
        <ele>154.43</ele>
        <time>2017-06-01T10:03:37Z</time>
      </trkpt>
      <trkpt lat="50.11985" lon="4.078">
        <ele>156.83</ele>
        <time>2017-06-01T10:03:53Z</time>
      </trkpt>
      <trkpt lat="50.11976" lon="4.07799">
        <ele>157.79</ele>
        <time>2017-06-01T10:04:06Z</time>
      </trkpt>
      <trkpt lat="50.11972" lon="4.07804">
        <ele>158.27</ele>
        <time>2017-06-01T10:04:10Z</time>
      </trkpt>
      <trkpt lat="50.11957" lon="4.07826">
        <ele>158.75</ele>
        <time>2017-06-01T10:04:29Z</time>
      </trkpt>
      <trkpt lat="50.11941" lon="4.07852">
        <ele>159.24</ele>
        <time>2017-06-01T10:04:46Z</time>
      </trkpt>
      <trkpt lat="50.11931" lon="4.07859">
        <ele>159.72</ele>
        <time>2017-06-01T10:04:55Z</time>
      </trkpt>
      <trkpt lat="50.11913" lon="4.07878">
        <ele>159.24</ele>
        <time>2017-06-01T10:05:16Z</time>
      </trkpt>
      <trkpt lat="50.11902" lon="4.07902">
        <ele>159.24</ele>
        <time>2017-06-01T10:05:32Z</time>
      </trkpt>
      <trkpt lat="50.11884" lon="4.0793">
        <ele>160.68</ele>
        <time>2017-06-01T10:05:53Z</time>
      </trkpt>
      <trkpt lat="50.11869" lon="4.07958">
        <ele>159.72</ele>
        <time>2017-06-01T10:06:13Z</time>
      </trkpt>
      <trkpt lat="50.11858" lon="4.07982">
        <ele>159.24</ele>
        <time>2017-06-01T10:06:33Z</time>
      </trkpt>
      <trkpt lat="50.11844" lon="4.08012">
        <ele>159.72</ele>
        <time>2017-06-01T10:06:51Z</time>
      </trkpt>
      <trkpt lat="50.11843" lon="4.08015">
        <ele>160.2</ele>
        <time>2017-06-01T10:06:53Z</time>
      </trkpt>
      <trkpt lat="50.11841" lon="4.08025">
        <ele>160.2</ele>
        <time>2017-06-01T10:06:59Z</time>
      </trkpt>
      <trkpt lat="50.11838" lon="4.08029">
        <ele>160.2</ele>
        <time>2017-06-01T10:07:02Z</time>
      </trkpt>
      <trkpt lat="50.1183" lon="4.08059">
        <ele>160.68</ele>
        <time>2017-06-01T10:07:21Z</time>
      </trkpt>
      <trkpt lat="50.11822" lon="4.08092">
        <ele>160.2</ele>
        <time>2017-06-01T10:07:40Z</time>
      </trkpt>
      <trkpt lat="50.11819" lon="4.08129">
        <ele>162.12</ele>
        <time>2017-06-01T10:08:00Z</time>
      </trkpt>
      <trkpt lat="50.11818" lon="4.08163">
        <ele>164.52</ele>
        <time>2017-06-01T10:08:20Z</time>
      </trkpt>
      <trkpt lat="50.11812" lon="4.08194">
        <ele>159.24</ele>
        <time>2017-06-01T10:08:40Z</time>
      </trkpt>
      <trkpt lat="50.11805" lon="4.08206">
        <ele>160.68</ele>
        <time>2017-06-01T10:08:49Z</time>
      </trkpt>
      <trkpt lat="50.11797" lon="4.08235">
        <ele>163.56</ele>
        <time>2017-06-01T10:09:07Z</time>
      </trkpt>
      <trkpt lat="50.11797" lon="4.08235">
        <ele>164.04</ele>
        <time>2017-06-01T10:09:23Z</time>
      </trkpt>
      <trkpt lat="50.11798" lon="4.08234">
        <ele>163.56</ele>
        <time>2017-06-01T10:09:42Z</time>
      </trkpt>
      <trkpt lat="50.11795" lon="4.08231">
        <ele>162.6</ele>
        <time>2017-06-01T10:09:56Z</time>
      </trkpt>
      <trkpt lat="50.11796" lon="4.0823">
        <ele>162.12</ele>
        <time>2017-06-01T10:10:15Z</time>
      </trkpt>
      <trkpt lat="50.11795" lon="4.08227">
        <ele>161.16</ele>
        <time>2017-06-01T10:10:36Z</time>
      </trkpt>
      <trkpt lat="50.11795" lon="4.08227">
        <ele>161.64</ele>
        <time>2017-06-01T10:10:55Z</time>
      </trkpt>
      <trkpt lat="50.11795" lon="4.08226">
        <ele>163.56</ele>
        <time>2017-06-01T10:11:14Z</time>
      </trkpt>
      <trkpt lat="50.11798" lon="4.08226">
        <ele>167.89</ele>
        <time>2017-06-01T10:11:39Z</time>
      </trkpt>
      <trkpt lat="50.11798" lon="4.08226">
        <ele>168.37</ele>
        <time>2017-06-01T10:11:41Z</time>
      </trkpt>
      <trkpt lat="50.11796" lon="4.08225">
        <ele>168.85</ele>
        <time>2017-06-01T10:11:52Z</time>
      </trkpt>
      <trkpt lat="50.11796" lon="4.08226">
        <ele>169.81</ele>
        <time>2017-06-01T10:12:07Z</time>
      </trkpt>
      <trkpt lat="50.11788" lon="4.08206">
        <ele>163.08</ele>
        <time>2017-06-01T11:10:04Z</time>
      </trkpt>
      <trkpt lat="50.11791" lon="4.082">
        <ele>148.66</ele>
        <time>2017-06-01T11:10:21Z</time>
      </trkpt>
      <trkpt lat="50.11779" lon="4.08219">
        <ele>159.72</ele>
        <time>2017-06-01T11:11:19Z</time>
      </trkpt>
      <trkpt lat="50.11789" lon="4.08203">
        <ele>144.82</ele>
        <time>2017-06-01T11:11:48Z</time>
      </trkpt>
      <trkpt lat="50.11797" lon="4.08215">
        <ele>160.2</ele>
        <time>2017-06-01T11:12:11Z</time>
      </trkpt>
      <trkpt lat="50.11798" lon="4.0822">
        <ele>162.12</ele>
        <time>2017-06-01T11:12:21Z</time>
      </trkpt>
      <trkpt lat="50.11798" lon="4.08218">
        <ele>159.72</ele>
        <time>2017-06-01T11:12:41Z</time>
      </trkpt>
      <trkpt lat="50.11796" lon="4.08219">
        <ele>159.24</ele>
        <time>2017-06-01T11:13:04Z</time>
      </trkpt>
      <trkpt lat="50.11795" lon="4.08222">
        <ele>152.03</ele>
        <time>2017-06-01T11:13:21Z</time>
      </trkpt>
      <trkpt lat="50.11796" lon="4.08223">
        <ele>150.1</ele>
        <time>2017-06-01T11:13:39Z</time>
      </trkpt>
      <trkpt lat="50.11795" lon="4.08224">
        <ele>150.58</ele>
        <time>2017-06-01T11:13:57Z</time>
      </trkpt>
      <trkpt lat="50.11795" lon="4.08224">
        <ele>148.66</ele>
        <time>2017-06-01T11:14:17Z</time>
      </trkpt>
      <trkpt lat="50.11795" lon="4.08228">
        <ele>148.66</ele>
        <time>2017-06-01T11:14:44Z</time>
      </trkpt>
      <trkpt lat="50.11795" lon="4.08228">
        <ele>148.18</ele>
        <time>2017-06-01T11:15:03Z</time>
      </trkpt>
      <trkpt lat="50.11795" lon="4.08228">
        <ele>151.54</ele>
        <time>2017-06-01T11:15:27Z</time>
      </trkpt>
      <trkpt lat="50.11796" lon="4.08231">
        <ele>150.58</ele>
        <time>2017-06-01T11:15:54Z</time>
      </trkpt>
      <trkpt lat="50.11796" lon="4.08233">
        <ele>150.58</ele>
        <time>2017-06-01T11:16:25Z</time>
      </trkpt>
      <trkpt lat="50.11795" lon="4.08235">
        <ele>151.54</ele>
        <time>2017-06-01T11:16:45Z</time>
      </trkpt>
      <trkpt lat="50.11795" lon="4.08233">
        <ele>152.99</ele>
        <time>2017-06-01T11:17:06Z</time>
      </trkpt>
      <trkpt lat="50.11795" lon="4.08231">
        <ele>152.51</ele>
        <time>2017-06-01T11:17:30Z</time>
      </trkpt>
      <trkpt lat="50.11794" lon="4.08229">
        <ele>152.03</ele>
        <time>2017-06-01T11:18:01Z</time>
      </trkpt>
      <trkpt lat="50.11794" lon="4.08229">
        <ele>152.03</ele>
        <time>2017-06-01T11:18:02Z</time>
      </trkpt>
      <trkpt lat="50.11779" lon="4.08236">
        <ele>154.43</ele>
        <time>2017-06-01T11:18:18Z</time>
      </trkpt>
      <trkpt lat="50.11777" lon="4.08236">
        <ele>154.91</ele>
        <time>2017-06-01T11:18:20Z</time>
      </trkpt>
      <trkpt lat="50.11756" lon="4.08231">
        <ele>159.24</ele>
        <time>2017-06-01T11:18:38Z</time>
      </trkpt>
      <trkpt lat="50.11738" lon="4.08223">
        <ele>161.16</ele>
        <time>2017-06-01T11:18:55Z</time>
      </trkpt>
      <trkpt lat="50.11728" lon="4.08221">
        <ele>163.56</ele>
        <time>2017-06-01T11:19:04Z</time>
      </trkpt>
      <trkpt lat="50.11704" lon="4.08223">
        <ele>166.45</ele>
        <time>2017-06-01T11:19:23Z</time>
      </trkpt>
      <trkpt lat="50.11696" lon="4.08226">
        <ele>167.89</ele>
        <time>2017-06-01T11:19:38Z</time>
      </trkpt>
      <trkpt lat="50.11688" lon="4.08231">
        <ele>164.52</ele>
        <time>2017-06-01T11:19:54Z</time>
      </trkpt>
      <trkpt lat="50.11684" lon="4.08247">
        <ele>164.04</ele>
        <time>2017-06-01T11:20:06Z</time>
      </trkpt>
      <trkpt lat="50.11679" lon="4.0828">
        <ele>166.93</ele>
        <time>2017-06-01T11:20:23Z</time>
      </trkpt>
      <trkpt lat="50.11675" lon="4.08293">
        <ele>168.37</ele>
        <time>2017-06-01T11:20:33Z</time>
      </trkpt>
      <trkpt lat="50.11671" lon="4.08328">
        <ele>165.96</ele>
        <time>2017-06-01T11:20:50Z</time>
      </trkpt>
      <trkpt lat="50.11662" lon="4.08336">
        <ele>165.48</ele>
        <time>2017-06-01T11:21:03Z</time>
      </trkpt>
      <trkpt lat="50.11663" lon="4.08329">
        <ele>164.52</ele>
        <time>2017-06-01T11:21:09Z</time>
      </trkpt>
      <trkpt lat="50.11673" lon="4.083">
        <ele>163.56</ele>
        <time>2017-06-01T11:21:27Z</time>
      </trkpt>
      <trkpt lat="50.11677" lon="4.0827">
        <ele>164.04</ele>
        <time>2017-06-01T11:21:43Z</time>
      </trkpt>
      <trkpt lat="50.11683" lon="4.08241">
        <ele>162.12</ele>
        <time>2017-06-01T11:21:59Z</time>
      </trkpt>
      <trkpt lat="50.11673" lon="4.08226">
        <ele>162.6</ele>
        <time>2017-06-01T11:22:12Z</time>
      </trkpt>
      <trkpt lat="50.11672" lon="4.08226">
        <ele>162.6</ele>
        <time>2017-06-01T11:22:13Z</time>
      </trkpt>
      <trkpt lat="50.1165" lon="4.0823">
        <ele>164.04</ele>
        <time>2017-06-01T11:22:30Z</time>
      </trkpt>
      <trkpt lat="50.11634" lon="4.0824">
        <ele>163.08</ele>
        <time>2017-06-01T11:22:44Z</time>
      </trkpt>
      <trkpt lat="50.11613" lon="4.08244">
        <ele>156.83</ele>
        <time>2017-06-01T11:23:04Z</time>
      </trkpt>
      <trkpt lat="50.11597" lon="4.08258">
        <ele>154.43</ele>
        <time>2017-06-01T11:23:21Z</time>
      </trkpt>
      <trkpt lat="50.11582" lon="4.08271">
        <ele>154.91</ele>
        <time>2017-06-01T11:23:35Z</time>
      </trkpt>
      <trkpt lat="50.1158" lon="4.08282">
        <ele>155.39</ele>
        <time>2017-06-01T11:23:40Z</time>
      </trkpt>
      <trkpt lat="50.11585" lon="4.08319">
        <ele>159.72</ele>
        <time>2017-06-01T11:24:01Z</time>
      </trkpt>
      <trkpt lat="50.11592" lon="4.08354">
        <ele>161.64</ele>
        <time>2017-06-01T11:24:20Z</time>
      </trkpt>
      <trkpt lat="50.11593" lon="4.08357">
        <ele>162.12</ele>
        <time>2017-06-01T11:24:22Z</time>
      </trkpt>
      <trkpt lat="50.11599" lon="4.08383">
        <ele>164.52</ele>
        <time>2017-06-01T11:24:35Z</time>
      </trkpt>
      <trkpt lat="50.116" lon="4.08397">
        <ele>164.52</ele>
        <time>2017-06-01T11:24:48Z</time>
      </trkpt>
      <trkpt lat="50.11601" lon="4.084">
        <ele>164.04</ele>
        <time>2017-06-01T11:25:11Z</time>
      </trkpt>
      <trkpt lat="50.11599" lon="4.08409">
        <ele>163.56</ele>
        <time>2017-06-01T11:25:40Z</time>
      </trkpt>
      <trkpt lat="50.11599" lon="4.08435">
        <ele>163.08</ele>
        <time>2017-06-01T11:25:57Z</time>
      </trkpt>
      <trkpt lat="50.11599" lon="4.08482">
        <ele>165.48</ele>
        <time>2017-06-01T11:26:19Z</time>
      </trkpt>
      <trkpt lat="50.11599" lon="4.08521">
        <ele>168.37</ele>
        <time>2017-06-01T11:26:41Z</time>
      </trkpt>
      <trkpt lat="50.11591" lon="4.08554">
        <ele>168.85</ele>
        <time>2017-06-01T11:26:58Z</time>
      </trkpt>
      <trkpt lat="50.11586" lon="4.08568">
        <ele>169.33</ele>
        <time>2017-06-01T11:27:06Z</time>
      </trkpt>
      <trkpt lat="50.11568" lon="4.08601">
        <ele>171.25</ele>
        <time>2017-06-01T11:27:27Z</time>
      </trkpt>
      <trkpt lat="50.11554" lon="4.0862">
        <ele>170.29</ele>
        <time>2017-06-01T11:27:41Z</time>
      </trkpt>
      <trkpt lat="50.11534" lon="4.08639">
        <ele>168.85</ele>
        <time>2017-06-01T11:28:00Z</time>
      </trkpt>
      <trkpt lat="50.11516" lon="4.08659">
        <ele>166.93</ele>
        <time>2017-06-01T11:28:21Z</time>
      </trkpt>
      <trkpt lat="50.11493" lon="4.08673">
        <ele>169.81</ele>
        <time>2017-06-01T11:28:42Z</time>
      </trkpt>
      <trkpt lat="50.11474" lon="4.08689">
        <ele>173.66</ele>
        <time>2017-06-01T11:29:00Z</time>
      </trkpt>
      <trkpt lat="50.11453" lon="4.087">
        <ele>176.06</ele>
        <time>2017-06-01T11:29:19Z</time>
      </trkpt>
      <trkpt lat="50.11433" lon="4.08711">
        <ele>178.94</ele>
        <time>2017-06-01T11:29:38Z</time>
      </trkpt>
      <trkpt lat="50.1141" lon="4.08724">
        <ele>178.94</ele>
        <time>2017-06-01T11:29:57Z</time>
      </trkpt>
      <trkpt lat="50.11393" lon="4.0874">
        <ele>178.94</ele>
        <time>2017-06-01T11:30:16Z</time>
      </trkpt>
      <trkpt lat="50.11369" lon="4.08754">
        <ele>177.02</ele>
        <time>2017-06-01T11:30:37Z</time>
      </trkpt>
      <trkpt lat="50.11356" lon="4.0877">
        <ele>177.98</ele>
        <time>2017-06-01T11:30:50Z</time>
      </trkpt>
      <trkpt lat="50.11334" lon="4.08786">
        <ele>179.42</ele>
        <time>2017-06-01T11:31:10Z</time>
      </trkpt>
      <trkpt lat="50.11313" lon="4.08804">
        <ele>182.31</ele>
        <time>2017-06-01T11:31:29Z</time>
      </trkpt>
      <trkpt lat="50.11295" lon="4.08821">
        <ele>186.15</ele>
        <time>2017-06-01T11:31:46Z</time>
      </trkpt>
      <trkpt lat="50.1129" lon="4.08824">
        <ele>186.63</ele>
        <time>2017-06-01T11:32:05Z</time>
      </trkpt>
      <trkpt lat="50.11291" lon="4.08824">
        <ele>186.63</ele>
        <time>2017-06-01T11:32:25Z</time>
      </trkpt>
      <trkpt lat="50.1129" lon="4.08824">
        <ele>186.63</ele>
        <time>2017-06-01T11:32:51Z</time>
      </trkpt>
      <trkpt lat="50.1129" lon="4.08823">
        <ele>186.15</ele>
        <time>2017-06-01T11:33:19Z</time>
      </trkpt>
      <trkpt lat="50.11288" lon="4.08826">
        <ele>185.67</ele>
        <time>2017-06-01T11:33:42Z</time>
      </trkpt>
      <trkpt lat="50.11283" lon="4.08841">
        <ele>186.15</ele>
        <time>2017-06-01T11:33:49Z</time>
      </trkpt>
      <trkpt lat="50.11275" lon="4.08874">
        <ele>187.11</ele>
        <time>2017-06-01T11:34:09Z</time>
      </trkpt>
      <trkpt lat="50.11272" lon="4.08907">
        <ele>186.63</ele>
        <time>2017-06-01T11:34:29Z</time>
      </trkpt>
      <trkpt lat="50.11265" lon="4.08943">
        <ele>188.08</ele>
        <time>2017-06-01T11:34:51Z</time>
      </trkpt>
      <trkpt lat="50.11252" lon="4.08964">
        <ele>186.15</ele>
        <time>2017-06-01T11:35:08Z</time>
      </trkpt>
      <trkpt lat="50.11251" lon="4.08967">
        <ele>185.67</ele>
        <time>2017-06-01T11:35:10Z</time>
      </trkpt>
      <trkpt lat="50.11241" lon="4.08988">
        <ele>184.71</ele>
        <time>2017-06-01T11:35:29Z</time>
      </trkpt>
      <trkpt lat="50.11239" lon="4.09013">
        <ele>180.87</ele>
        <time>2017-06-01T11:35:48Z</time>
      </trkpt>
      <trkpt lat="50.11242" lon="4.09051">
        <ele>175.58</ele>
        <time>2017-06-01T11:36:10Z</time>
      </trkpt>
      <trkpt lat="50.11248" lon="4.0909">
        <ele>172.69</ele>
        <time>2017-06-01T11:36:32Z</time>
      </trkpt>
      <trkpt lat="50.11255" lon="4.09125">
        <ele>171.25</ele>
        <time>2017-06-01T11:36:52Z</time>
      </trkpt>
      <trkpt lat="50.11262" lon="4.09157">
        <ele>165.96</ele>
        <time>2017-06-01T11:37:13Z</time>
      </trkpt>
      <trkpt lat="50.11272" lon="4.09195">
        <ele>162.12</ele>
        <time>2017-06-01T11:37:35Z</time>
      </trkpt>
      <trkpt lat="50.11276" lon="4.09231">
        <ele>164.04</ele>
        <time>2017-06-01T11:37:55Z</time>
      </trkpt>
      <trkpt lat="50.11281" lon="4.09267">
        <ele>164.52</ele>
        <time>2017-06-01T11:38:15Z</time>
      </trkpt>
      <trkpt lat="50.11271" lon="4.09297">
        <ele>164.04</ele>
        <time>2017-06-01T11:38:35Z</time>
      </trkpt>
      <trkpt lat="50.11265" lon="4.09322">
        <ele>163.56</ele>
        <time>2017-06-01T11:38:52Z</time>
      </trkpt>
      <trkpt lat="50.11256" lon="4.09351">
        <ele>164.52</ele>
        <time>2017-06-01T11:39:10Z</time>
      </trkpt>
      <trkpt lat="50.11243" lon="4.09381">
        <ele>166.45</ele>
        <time>2017-06-01T11:39:30Z</time>
      </trkpt>
      <trkpt lat="50.11237" lon="4.09407">
        <ele>172.21</ele>
        <time>2017-06-01T11:39:49Z</time>
      </trkpt>
      <trkpt lat="50.1123" lon="4.09424">
        <ele>175.1</ele>
        <time>2017-06-01T11:40:06Z</time>
      </trkpt>
      <trkpt lat="50.11222" lon="4.09446">
        <ele>178.46</ele>
        <time>2017-06-01T11:40:25Z</time>
      </trkpt>
      <trkpt lat="50.11215" lon="4.0947">
        <ele>180.38</ele>
        <time>2017-06-01T11:40:43Z</time>
      </trkpt>
      <trkpt lat="50.1121" lon="4.09497">
        <ele>184.23</ele>
        <time>2017-06-01T11:41:02Z</time>
      </trkpt>
      <trkpt lat="50.11206" lon="4.0952">
        <ele>186.63</ele>
        <time>2017-06-01T11:41:20Z</time>
      </trkpt>
      <trkpt lat="50.11198" lon="4.09547">
        <ele>187.11</ele>
        <time>2017-06-01T11:41:40Z</time>
      </trkpt>
      <trkpt lat="50.11195" lon="4.09567">
        <ele>188.08</ele>
        <time>2017-06-01T11:41:56Z</time>
      </trkpt>
      <trkpt lat="50.11188" lon="4.09589">
        <ele>187.11</ele>
        <time>2017-06-01T11:42:12Z</time>
      </trkpt>
      <trkpt lat="50.11183" lon="4.09608">
        <ele>184.71</ele>
        <time>2017-06-01T11:42:28Z</time>
      </trkpt>
      <trkpt lat="50.11184" lon="4.09634">
        <ele>182.79</ele>
        <time>2017-06-01T11:42:44Z</time>
      </trkpt>
      <trkpt lat="50.11182" lon="4.09659">
        <ele>185.19</ele>
        <time>2017-06-01T11:43:01Z</time>
      </trkpt>
      <trkpt lat="50.11177" lon="4.09696">
        <ele>190</ele>
        <time>2017-06-01T11:43:21Z</time>
      </trkpt>
      <trkpt lat="50.1117" lon="4.0972">
        <ele>194.8</ele>
        <time>2017-06-01T11:43:40Z</time>
      </trkpt>
      <trkpt lat="50.11161" lon="4.09742">
        <ele>196.73</ele>
        <time>2017-06-01T11:44:00Z</time>
      </trkpt>
      <trkpt lat="50.11158" lon="4.09744">
        <ele>196.25</ele>
        <time>2017-06-01T11:44:25Z</time>
      </trkpt>
      <trkpt lat="50.11158" lon="4.09744">
        <ele>195.77</ele>
        <time>2017-06-01T11:44:51Z</time>
      </trkpt>
      <trkpt lat="50.11158" lon="4.09744">
        <ele>196.25</ele>
        <time>2017-06-01T11:45:16Z</time>
      </trkpt>
      <trkpt lat="50.11157" lon="4.09743">
        <ele>196.25</ele>
        <time>2017-06-01T11:45:42Z</time>
      </trkpt>
      <trkpt lat="50.11156" lon="4.09742">
        <ele>196.73</ele>
        <time>2017-06-01T11:46:06Z</time>
      </trkpt>
      <trkpt lat="50.11157" lon="4.09742">
        <ele>197.69</ele>
        <time>2017-06-01T11:46:31Z</time>
      </trkpt>
      <trkpt lat="50.11154" lon="4.09748">
        <ele>195.77</ele>
        <time>2017-06-01T11:46:55Z</time>
      </trkpt>
      <trkpt lat="50.11144" lon="4.09786">
        <ele>197.69</ele>
        <time>2017-06-01T11:47:13Z</time>
      </trkpt>
      <trkpt lat="50.11132" lon="4.09807">
        <ele>197.69</ele>
        <time>2017-06-01T11:47:34Z</time>
      </trkpt>
      <trkpt lat="50.11122" lon="4.0984">
        <ele>200.09</ele>
        <time>2017-06-01T11:47:54Z</time>
      </trkpt>
      <trkpt lat="50.11114" lon="4.09861">
        <ele>200.57</ele>
        <time>2017-06-01T11:48:12Z</time>
      </trkpt>
      <trkpt lat="50.11101" lon="4.09898">
        <ele>198.65</ele>
        <time>2017-06-01T11:48:32Z</time>
      </trkpt>
      <trkpt lat="50.11084" lon="4.09928">
        <ele>196.73</ele>
        <time>2017-06-01T11:48:52Z</time>
      </trkpt>
      <trkpt lat="50.11065" lon="4.09952">
        <ele>194.32</ele>
        <time>2017-06-01T11:49:13Z</time>
      </trkpt>
      <trkpt lat="50.11048" lon="4.09974">
        <ele>191.92</ele>
        <time>2017-06-01T11:49:31Z</time>
      </trkpt>
      <trkpt lat="50.1103" lon="4.09985">
        <ele>187.11</ele>
        <time>2017-06-01T11:49:52Z</time>
      </trkpt>
      <trkpt lat="50.11021" lon="4.09993">
        <ele>182.31</ele>
        <time>2017-06-01T11:50:09Z</time>
      </trkpt>
      <trkpt lat="50.11012" lon="4.10005">
        <ele>177.02</ele>
        <time>2017-06-01T11:50:26Z</time>
      </trkpt>
      <trkpt lat="50.10996" lon="4.10015">
        <ele>170.29</ele>
        <time>2017-06-01T11:50:44Z</time>
      </trkpt>
      <trkpt lat="50.1098" lon="4.10036">
        <ele>174.62</ele>
        <time>2017-06-01T11:50:59Z</time>
      </trkpt>
      <trkpt lat="50.10975" lon="4.10039">
        <ele>174.62</ele>
        <time>2017-06-01T11:51:19Z</time>
      </trkpt>
      <trkpt lat="50.10975" lon="4.10037">
        <ele>173.66</ele>
        <time>2017-06-01T11:51:38Z</time>
      </trkpt>
      <trkpt lat="50.10969" lon="4.10038">
        <ele>173.17</ele>
        <time>2017-06-01T11:52:04Z</time>
      </trkpt>
      <trkpt lat="50.1097" lon="4.10041">
        <ele>174.14</ele>
        <time>2017-06-01T11:52:21Z</time>
      </trkpt>
      <trkpt lat="50.10972" lon="4.10049">
        <ele>174.14</ele>
        <time>2017-06-01T11:52:42Z</time>
      </trkpt>
      <trkpt lat="50.10966" lon="4.10084">
        <ele>173.66</ele>
        <time>2017-06-01T11:53:02Z</time>
      </trkpt>
      <trkpt lat="50.10942" lon="4.10093">
        <ele>175.58</ele>
        <time>2017-06-01T11:53:20Z</time>
      </trkpt>
      <trkpt lat="50.10934" lon="4.10097">
        <ele>172.69</ele>
        <time>2017-06-01T11:53:38Z</time>
      </trkpt>
      <trkpt lat="50.10923" lon="4.1012">
        <ele>171.73</ele>
        <time>2017-06-01T11:53:58Z</time>
      </trkpt>
      <trkpt lat="50.1093" lon="4.1014">
        <ele>171.73</ele>
        <time>2017-06-01T11:54:16Z</time>
      </trkpt>
      <trkpt lat="50.10927" lon="4.10161">
        <ele>169.33</ele>
        <time>2017-06-01T11:54:37Z</time>
      </trkpt>
      <trkpt lat="50.10924" lon="4.10188">
        <ele>171.73</ele>
        <time>2017-06-01T11:54:55Z</time>
      </trkpt>
      <trkpt lat="50.10911" lon="4.10205">
        <ele>176.06</ele>
        <time>2017-06-01T11:55:10Z</time>
      </trkpt>
      <trkpt lat="50.109" lon="4.10234">
        <ele>182.31</ele>
        <time>2017-06-01T11:55:31Z</time>
      </trkpt>
      <trkpt lat="50.10901" lon="4.10257">
        <ele>184.23</ele>
        <time>2017-06-01T11:55:51Z</time>
      </trkpt>
      <trkpt lat="50.10901" lon="4.1029">
        <ele>182.31</ele>
        <time>2017-06-01T11:56:13Z</time>
      </trkpt>
      <trkpt lat="50.10911" lon="4.1032">
        <ele>184.71</ele>
        <time>2017-06-01T11:56:35Z</time>
      </trkpt>
      <trkpt lat="50.10919" lon="4.10354">
        <ele>183.27</ele>
        <time>2017-06-01T11:56:58Z</time>
      </trkpt>
      <trkpt lat="50.10932" lon="4.10386">
        <ele>179.42</ele>
        <time>2017-06-01T11:57:17Z</time>
      </trkpt>
      <trkpt lat="50.10938" lon="4.10396">
        <ele>180.38</ele>
        <time>2017-06-01T11:57:23Z</time>
      </trkpt>
      <trkpt lat="50.10947" lon="4.10404">
        <ele>179.42</ele>
        <time>2017-06-01T11:57:44Z</time>
      </trkpt>
      <trkpt lat="50.10947" lon="4.10409">
        <ele>179.9</ele>
        <time>2017-06-01T11:58:05Z</time>
      </trkpt>
      <trkpt lat="50.10955" lon="4.10412">
        <ele>177.5</ele>
        <time>2017-06-01T11:58:26Z</time>
      </trkpt>
      <trkpt lat="50.10953" lon="4.1042">
        <ele>177.98</ele>
        <time>2017-06-01T11:58:51Z</time>
      </trkpt>
      <trkpt lat="50.1095" lon="4.10425">
        <ele>177.5</ele>
        <time>2017-06-01T11:59:14Z</time>
      </trkpt>
      <trkpt lat="50.10945" lon="4.10424">
        <ele>177.98</ele>
        <time>2017-06-01T11:59:38Z</time>
      </trkpt>
      <trkpt lat="50.10943" lon="4.10425">
        <ele>177.98</ele>
        <time>2017-06-01T12:00:02Z</time>
      </trkpt>
      <trkpt lat="50.10944" lon="4.10423">
        <ele>179.42</ele>
        <time>2017-06-01T12:00:20Z</time>
      </trkpt>
      <trkpt lat="50.10943" lon="4.10429">
        <ele>180.38</ele>
        <time>2017-06-01T12:00:43Z</time>
      </trkpt>
      <trkpt lat="50.10942" lon="4.10429">
        <ele>180.38</ele>
        <time>2017-06-01T12:01:03Z</time>
      </trkpt>
      <trkpt lat="50.10938" lon="4.1043">
        <ele>181.83</ele>
        <time>2017-06-01T12:01:27Z</time>
      </trkpt>
      <trkpt lat="50.10939" lon="4.10431">
        <ele>182.79</ele>
        <time>2017-06-01T12:01:50Z</time>
      </trkpt>
      <trkpt lat="50.10939" lon="4.10431">
        <ele>182.31</ele>
        <time>2017-06-01T12:02:12Z</time>
      </trkpt>
      <trkpt lat="50.10941" lon="4.10427">
        <ele>180.87</ele>
        <time>2017-06-01T12:02:34Z</time>
      </trkpt>
      <trkpt lat="50.10938" lon="4.10432">
        <ele>181.35</ele>
        <time>2017-06-01T12:02:56Z</time>
      </trkpt>
      <trkpt lat="50.1094" lon="4.10431">
        <ele>182.31</ele>
        <time>2017-06-01T12:03:18Z</time>
      </trkpt>
      <trkpt lat="50.10941" lon="4.10436">
        <ele>183.27</ele>
        <time>2017-06-01T12:03:41Z</time>
      </trkpt>
      <trkpt lat="50.10942" lon="4.10436">
        <ele>186.15</ele>
        <time>2017-06-01T12:04:05Z</time>
      </trkpt>
      <trkpt lat="50.10932" lon="4.10436">
        <ele>185.19</ele>
        <time>2017-06-01T12:04:27Z</time>
      </trkpt>
      <trkpt lat="50.1093" lon="4.10445">
        <ele>187.11</ele>
        <time>2017-06-01T12:04:46Z</time>
      </trkpt>
      <trkpt lat="50.1093" lon="4.10469">
        <ele>193.36</ele>
        <time>2017-06-01T12:05:05Z</time>
      </trkpt>
      <trkpt lat="50.10936" lon="4.10493">
        <ele>193.36</ele>
        <time>2017-06-01T12:05:23Z</time>
      </trkpt>
      <trkpt lat="50.1094" lon="4.10526">
        <ele>193.84</ele>
        <time>2017-06-01T12:05:45Z</time>
      </trkpt>
      <trkpt lat="50.10948" lon="4.10555">
        <ele>189.52</ele>
        <time>2017-06-01T12:06:05Z</time>
      </trkpt>
      <trkpt lat="50.10944" lon="4.10586">
        <ele>186.15</ele>
        <time>2017-06-01T12:06:24Z</time>
      </trkpt>
      <trkpt lat="50.10944" lon="4.10618">
        <ele>190.96</ele>
        <time>2017-06-01T12:06:41Z</time>
      </trkpt>
      <trkpt lat="50.10938" lon="4.10635">
        <ele>189.52</ele>
        <time>2017-06-01T12:06:54Z</time>
      </trkpt>
      <trkpt lat="50.10933" lon="4.10661">
        <ele>190</ele>
        <time>2017-06-01T12:07:09Z</time>
      </trkpt>
      <trkpt lat="50.10936" lon="4.10683">
        <ele>190.96</ele>
        <time>2017-06-01T12:07:25Z</time>
      </trkpt>
      <trkpt lat="50.10938" lon="4.1071">
        <ele>195.77</ele>
        <time>2017-06-01T12:07:42Z</time>
      </trkpt>
      <trkpt lat="50.10933" lon="4.10732">
        <ele>194.32</ele>
        <time>2017-06-01T12:08:00Z</time>
      </trkpt>
      <trkpt lat="50.10926" lon="4.10762">
        <ele>195.77</ele>
        <time>2017-06-01T12:08:18Z</time>
      </trkpt>
      <trkpt lat="50.10921" lon="4.10786">
        <ele>198.65</ele>
        <time>2017-06-01T12:08:32Z</time>
      </trkpt>
      <trkpt lat="50.1092" lon="4.10788">
        <ele>198.17</ele>
        <time>2017-06-01T12:08:34Z</time>
      </trkpt>
      <trkpt lat="50.1092" lon="4.10794">
        <ele>197.69</ele>
        <time>2017-06-01T12:08:38Z</time>
      </trkpt>
      <trkpt lat="50.10918" lon="4.108">
        <ele>197.21</ele>
        <time>2017-06-01T12:08:42Z</time>
      </trkpt>
      <trkpt lat="50.10914" lon="4.10822">
        <ele>196.25</ele>
        <time>2017-06-01T12:08:58Z</time>
      </trkpt>
      <trkpt lat="50.10916" lon="4.10833">
        <ele>198.17</ele>
        <time>2017-06-01T12:09:15Z</time>
      </trkpt>
      <trkpt lat="50.10921" lon="4.10861">
        <ele>200.09</ele>
        <time>2017-06-01T12:09:34Z</time>
      </trkpt>
      <trkpt lat="50.10921" lon="4.10872">
        <ele>203.94</ele>
        <time>2017-06-01T12:09:53Z</time>
      </trkpt>
      <trkpt lat="50.10916" lon="4.10874">
        <ele>202.98</ele>
        <time>2017-06-01T12:10:26Z</time>
      </trkpt>
      <trkpt lat="50.10912" lon="4.10882">
        <ele>202.01</ele>
        <time>2017-06-01T12:10:48Z</time>
      </trkpt>
      <trkpt lat="50.10919" lon="4.10924">
        <ele>206.82</ele>
        <time>2017-06-01T12:11:09Z</time>
      </trkpt>
      <trkpt lat="50.10919" lon="4.1095">
        <ele>207.78</ele>
        <time>2017-06-01T12:11:28Z</time>
      </trkpt>
      <trkpt lat="50.10918" lon="4.10989">
        <ele>209.7</ele>
        <time>2017-06-01T12:11:46Z</time>
      </trkpt>
      <trkpt lat="50.10915" lon="4.11006">
        <ele>210.67</ele>
        <time>2017-06-01T12:12:03Z</time>
      </trkpt>
      <trkpt lat="50.10908" lon="4.11048">
        <ele>205.38</ele>
        <time>2017-06-01T12:12:24Z</time>
      </trkpt>
      <trkpt lat="50.10907" lon="4.11089">
        <ele>207.78</ele>
        <time>2017-06-01T12:12:46Z</time>
      </trkpt>
      <trkpt lat="50.10899" lon="4.11116">
        <ele>205.86</ele>
        <time>2017-06-01T12:13:03Z</time>
      </trkpt>
      <trkpt lat="50.1089" lon="4.11155">
        <ele>204.42</ele>
        <time>2017-06-01T12:13:23Z</time>
      </trkpt>
      <trkpt lat="50.10884" lon="4.11189">
        <ele>203.46</ele>
        <time>2017-06-01T12:13:41Z</time>
      </trkpt>
      <trkpt lat="50.10875" lon="4.11222">
        <ele>202.49</ele>
        <time>2017-06-01T12:13:59Z</time>
      </trkpt>
      <trkpt lat="50.10864" lon="4.11243">
        <ele>198.17</ele>
        <time>2017-06-01T12:14:14Z</time>
      </trkpt>
      <trkpt lat="50.1086" lon="4.11251">
        <ele>196.25</ele>
        <time>2017-06-01T12:14:20Z</time>
      </trkpt>
      <trkpt lat="50.10849" lon="4.1128">
        <ele>195.28</ele>
        <time>2017-06-01T12:14:39Z</time>
      </trkpt>
      <trkpt lat="50.10844" lon="4.11306">
        <ele>198.65</ele>
        <time>2017-06-01T12:14:56Z</time>
      </trkpt>
      <trkpt lat="50.10837" lon="4.11328">
        <ele>202.49</ele>
        <time>2017-06-01T12:15:16Z</time>
      </trkpt>
      <trkpt lat="50.10842" lon="4.11334">
        <ele>212.11</ele>
        <time>2017-06-01T12:15:36Z</time>
      </trkpt>
      <trkpt lat="50.10841" lon="4.11333">
        <ele>212.59</ele>
        <time>2017-06-01T12:15:56Z</time>
      </trkpt>
      <trkpt lat="50.10843" lon="4.11328">
        <ele>212.11</ele>
        <time>2017-06-01T12:16:18Z</time>
      </trkpt>
      <trkpt lat="50.10854" lon="4.11329">
        <ele>211.15</ele>
        <time>2017-06-01T12:16:39Z</time>
      </trkpt>
      <trkpt lat="50.10855" lon="4.11329">
        <ele>211.15</ele>
        <time>2017-06-01T12:16:40Z</time>
      </trkpt>
      <trkpt lat="50.10878" lon="4.1132">
        <ele>218.36</ele>
        <time>2017-06-01T12:17:02Z</time>
      </trkpt>
      <trkpt lat="50.10896" lon="4.11326">
        <ele>220.28</ele>
        <time>2017-06-01T12:17:20Z</time>
      </trkpt>
      <trkpt lat="50.10917" lon="4.11334">
        <ele>221.72</ele>
        <time>2017-06-01T12:17:38Z</time>
      </trkpt>
      <trkpt lat="50.10937" lon="4.11342">
        <ele>221.24</ele>
        <time>2017-06-01T12:17:56Z</time>
      </trkpt>
      <trkpt lat="50.10951" lon="4.11337">
        <ele>220.76</ele>
        <time>2017-06-01T12:18:08Z</time>
      </trkpt>
      <trkpt lat="50.10974" lon="4.11329">
        <ele>219.32</ele>
        <time>2017-06-01T12:18:26Z</time>
      </trkpt>
      <trkpt lat="50.10983" lon="4.11329">
        <ele>218.84</ele>
        <time>2017-06-01T12:18:42Z</time>
      </trkpt>
      <trkpt lat="50.11" lon="4.1132">
        <ele>218.84</ele>
        <time>2017-06-01T12:18:57Z</time>
      </trkpt>
      <trkpt lat="50.1102" lon="4.11311">
        <ele>218.84</ele>
        <time>2017-06-01T12:19:14Z</time>
      </trkpt>
      <trkpt lat="50.11042" lon="4.11307">
        <ele>217.4</ele>
        <time>2017-06-01T12:19:33Z</time>
      </trkpt>
      <trkpt lat="50.11064" lon="4.11296">
        <ele>217.4</ele>
        <time>2017-06-01T12:19:50Z</time>
      </trkpt>
      <trkpt lat="50.11086" lon="4.11285">
        <ele>218.36</ele>
        <time>2017-06-01T12:20:08Z</time>
      </trkpt>
      <trkpt lat="50.11108" lon="4.11273">
        <ele>219.32</ele>
        <time>2017-06-01T12:20:27Z</time>
      </trkpt>
      <trkpt lat="50.11127" lon="4.11261">
        <ele>218.84</ele>
        <time>2017-06-01T12:20:42Z</time>
      </trkpt>
      <trkpt lat="50.11145" lon="4.11239">
        <ele>221.24</ele>
        <time>2017-06-01T12:21:00Z</time>
      </trkpt>
      <trkpt lat="50.11161" lon="4.11223">
        <ele>218.84</ele>
        <time>2017-06-01T12:21:16Z</time>
      </trkpt>
      <trkpt lat="50.11168" lon="4.11214">
        <ele>218.36</ele>
        <time>2017-06-01T12:21:24Z</time>
      </trkpt>
      <trkpt lat="50.11173" lon="4.11208">
        <ele>219.8</ele>
        <time>2017-06-01T12:21:37Z</time>
      </trkpt>
      <trkpt lat="50.11183" lon="4.11188">
        <ele>219.32</ele>
        <time>2017-06-01T12:21:52Z</time>
      </trkpt>
      <trkpt lat="50.11206" lon="4.11168">
        <ele>215.47</ele>
        <time>2017-06-01T12:22:12Z</time>
      </trkpt>
      <trkpt lat="50.11226" lon="4.11148">
        <ele>214.51</ele>
        <time>2017-06-01T12:22:30Z</time>
      </trkpt>
      <trkpt lat="50.11241" lon="4.11134">
        <ele>210.67</ele>
        <time>2017-06-01T12:22:47Z</time>
      </trkpt>
      <trkpt lat="50.11253" lon="4.11123">
        <ele>208.74</ele>
        <time>2017-06-01T12:23:00Z</time>
      </trkpt>
      <trkpt lat="50.11259" lon="4.1112">
        <ele>208.74</ele>
        <time>2017-06-01T12:23:06Z</time>
      </trkpt>
      <trkpt lat="50.11273" lon="4.11126">
        <ele>209.22</ele>
        <time>2017-06-01T12:23:21Z</time>
      </trkpt>
      <trkpt lat="50.11279" lon="4.1113">
        <ele>211.15</ele>
        <time>2017-06-01T12:23:40Z</time>
      </trkpt>
      <trkpt lat="50.11277" lon="4.11128">
        <ele>211.15</ele>
        <time>2017-06-01T12:23:57Z</time>
      </trkpt>
      <trkpt lat="50.1127" lon="4.11127">
        <ele>212.11</ele>
        <time>2017-06-01T12:24:16Z</time>
      </trkpt>
      <trkpt lat="50.1126" lon="4.11124">
        <ele>213.55</ele>
        <time>2017-06-01T12:24:34Z</time>
      </trkpt>
      <trkpt lat="50.1126" lon="4.11122">
        <ele>211.15</ele>
        <time>2017-06-01T12:24:56Z</time>
      </trkpt>
      <trkpt lat="50.11266" lon="4.11122">
        <ele>211.15</ele>
        <time>2017-06-01T12:25:17Z</time>
      </trkpt>
      <trkpt lat="50.11292" lon="4.11143">
        <ele>211.63</ele>
        <time>2017-06-01T12:25:38Z</time>
      </trkpt>
      <trkpt lat="50.11309" lon="4.11164">
        <ele>213.55</ele>
        <time>2017-06-01T12:25:58Z</time>
      </trkpt>
      <trkpt lat="50.11322" lon="4.11184">
        <ele>212.59</ele>
        <time>2017-06-01T12:26:19Z</time>
      </trkpt>
      <trkpt lat="50.11356" lon="4.11195">
        <ele>220.28</ele>
        <time>2017-06-01T12:26:39Z</time>
      </trkpt>
      <trkpt lat="50.11371" lon="4.11199">
        <ele>221.24</ele>
        <time>2017-06-01T12:26:54Z</time>
      </trkpt>
      <trkpt lat="50.11398" lon="4.11211">
        <ele>219.8</ele>
        <time>2017-06-01T12:27:17Z</time>
      </trkpt>
      <trkpt lat="50.11419" lon="4.1121">
        <ele>218.84</ele>
        <time>2017-06-01T12:27:39Z</time>
      </trkpt>
      <trkpt lat="50.11445" lon="4.11223">
        <ele>215.47</ele>
        <time>2017-06-01T12:27:59Z</time>
      </trkpt>
      <trkpt lat="50.11467" lon="4.11231">
        <ele>214.51</ele>
        <time>2017-06-01T12:28:19Z</time>
      </trkpt>
      <trkpt lat="50.11493" lon="4.11236">
        <ele>214.99</ele>
        <time>2017-06-01T12:28:37Z</time>
      </trkpt>
      <trkpt lat="50.11511" lon="4.11252">
        <ele>213.55</ele>
        <time>2017-06-01T12:28:56Z</time>
      </trkpt>
      <trkpt lat="50.11523" lon="4.11284">
        <ele>208.74</ele>
        <time>2017-06-01T12:29:13Z</time>
      </trkpt>
      <trkpt lat="50.11526" lon="4.11328">
        <ele>207.78</ele>
        <time>2017-06-01T12:29:34Z</time>
      </trkpt>
      <trkpt lat="50.11526" lon="4.11369">
        <ele>207.3</ele>
        <time>2017-06-01T12:29:56Z</time>
      </trkpt>
      <trkpt lat="50.11525" lon="4.11415">
        <ele>205.38</ele>
        <time>2017-06-01T12:30:19Z</time>
      </trkpt>
      <trkpt lat="50.11529" lon="4.11446">
        <ele>201.05</ele>
        <time>2017-06-01T12:30:37Z</time>
      </trkpt>
      <trkpt lat="50.11531" lon="4.11468">
        <ele>200.09</ele>
        <time>2017-06-01T12:30:52Z</time>
      </trkpt>
      <trkpt lat="50.11536" lon="4.11491">
        <ele>199.61</ele>
        <time>2017-06-01T12:31:05Z</time>
      </trkpt>
      <trkpt lat="50.11544" lon="4.11524">
        <ele>197.21</ele>
        <time>2017-06-01T12:31:23Z</time>
      </trkpt>
      <trkpt lat="50.11558" lon="4.11556">
        <ele>195.77</ele>
        <time>2017-06-01T12:31:43Z</time>
      </trkpt>
      <trkpt lat="50.11559" lon="4.1156">
        <ele>195.28</ele>
        <time>2017-06-01T12:31:46Z</time>
      </trkpt>
      <trkpt lat="50.11574" lon="4.11587">
        <ele>191.44</ele>
        <time>2017-06-01T12:32:07Z</time>
      </trkpt>
      <trkpt lat="50.11586" lon="4.11595">
        <ele>188.56</ele>
        <time>2017-06-01T12:32:17Z</time>
      </trkpt>
      <trkpt lat="50.11609" lon="4.11616">
        <ele>185.19</ele>
        <time>2017-06-01T12:32:38Z</time>
      </trkpt>
      <trkpt lat="50.11627" lon="4.11646">
        <ele>183.75</ele>
        <time>2017-06-01T12:32:55Z</time>
      </trkpt>
      <trkpt lat="50.11628" lon="4.11654">
        <ele>187.59</ele>
        <time>2017-06-01T12:33:09Z</time>
      </trkpt>
      <trkpt lat="50.11626" lon="4.11659">
        <ele>189.04</ele>
        <time>2017-06-01T12:33:29Z</time>
      </trkpt>
      <trkpt lat="50.11625" lon="4.11657">
        <ele>189.04</ele>
        <time>2017-06-01T12:33:54Z</time>
      </trkpt>
      <trkpt lat="50.1162" lon="4.11667">
        <ele>187.59</ele>
        <time>2017-06-01T12:34:18Z</time>
      </trkpt>
      <trkpt lat="50.11606" lon="4.11698">
        <ele>185.19</ele>
        <time>2017-06-01T12:34:39Z</time>
      </trkpt>
      <trkpt lat="50.1159" lon="4.11716">
        <ele>186.15</ele>
        <time>2017-06-01T12:34:58Z</time>
      </trkpt>
      <trkpt lat="50.1157" lon="4.11738">
        <ele>183.75</ele>
        <time>2017-06-01T12:35:16Z</time>
      </trkpt>
      <trkpt lat="50.11548" lon="4.11768">
        <ele>180.38</ele>
        <time>2017-06-01T12:35:38Z</time>
      </trkpt>
      <trkpt lat="50.11529" lon="4.11796">
        <ele>178.46</ele>
        <time>2017-06-01T12:35:59Z</time>
      </trkpt>
      <trkpt lat="50.11507" lon="4.11819">
        <ele>176.06</ele>
        <time>2017-06-01T12:36:18Z</time>
      </trkpt>
      <trkpt lat="50.11486" lon="4.11838">
        <ele>175.58</ele>
        <time>2017-06-01T12:36:35Z</time>
      </trkpt>
      <trkpt lat="50.11462" lon="4.11835">
        <ele>172.69</ele>
        <time>2017-06-01T12:36:53Z</time>
      </trkpt>
      <trkpt lat="50.11447" lon="4.11837">
        <ele>167.41</ele>
        <time>2017-06-01T12:37:13Z</time>
      </trkpt>
      <trkpt lat="50.11431" lon="4.11844">
        <ele>161.16</ele>
        <time>2017-06-01T12:37:31Z</time>
      </trkpt>
      <trkpt lat="50.11423" lon="4.11883">
        <ele>165.48</ele>
        <time>2017-06-01T12:37:47Z</time>
      </trkpt>
      <trkpt lat="50.11428" lon="4.119">
        <ele>169.33</ele>
        <time>2017-06-01T12:38:04Z</time>
      </trkpt>
      <trkpt lat="50.11447" lon="4.11903">
        <ele>175.58</ele>
        <time>2017-06-01T12:38:21Z</time>
      </trkpt>
      <trkpt lat="50.1147" lon="4.11893">
        <ele>177.98</ele>
        <time>2017-06-01T12:38:41Z</time>
      </trkpt>
      <trkpt lat="50.11494" lon="4.11899">
        <ele>182.31</ele>
        <time>2017-06-01T12:38:59Z</time>
      </trkpt>
      <trkpt lat="50.11508" lon="4.11905">
        <ele>179.9</ele>
        <time>2017-06-01T12:39:16Z</time>
      </trkpt>
      <trkpt lat="50.11528" lon="4.11914">
        <ele>179.9</ele>
        <time>2017-06-01T12:39:34Z</time>
      </trkpt>
      <trkpt lat="50.11556" lon="4.11912">
        <ele>179.42</ele>
        <time>2017-06-01T12:39:56Z</time>
      </trkpt>
      <trkpt lat="50.11565" lon="4.11911">
        <ele>177.5</ele>
        <time>2017-06-01T12:40:15Z</time>
      </trkpt>
      <trkpt lat="50.11585" lon="4.11903">
        <ele>179.42</ele>
        <time>2017-06-01T12:40:32Z</time>
      </trkpt>
      <trkpt lat="50.1159" lon="4.11909">
        <ele>179.9</ele>
        <time>2017-06-01T12:40:57Z</time>
      </trkpt>
      <trkpt lat="50.11593" lon="4.11903">
        <ele>180.87</ele>
        <time>2017-06-01T12:41:16Z</time>
      </trkpt>
      <trkpt lat="50.11609" lon="4.11881">
        <ele>184.71</ele>
        <time>2017-06-01T12:41:36Z</time>
      </trkpt>
      <trkpt lat="50.11611" lon="4.1188">
        <ele>185.19</ele>
        <time>2017-06-01T12:41:38Z</time>
      </trkpt>
      <trkpt lat="50.11628" lon="4.11871">
        <ele>185.19</ele>
        <time>2017-06-01T12:41:55Z</time>
      </trkpt>
      <trkpt lat="50.11644" lon="4.11865">
        <ele>184.23</ele>
        <time>2017-06-01T12:42:12Z</time>
      </trkpt>
      <trkpt lat="50.11661" lon="4.1185">
        <ele>184.23</ele>
        <time>2017-06-01T12:42:28Z</time>
      </trkpt>
      <trkpt lat="50.1168" lon="4.1184">
        <ele>182.79</ele>
        <time>2017-06-01T12:42:48Z</time>
      </trkpt>
      <trkpt lat="50.11703" lon="4.11819">
        <ele>181.83</ele>
        <time>2017-06-01T12:43:09Z</time>
      </trkpt>
      <trkpt lat="50.11713" lon="4.11816">
        <ele>180.87</ele>
        <time>2017-06-01T12:43:18Z</time>
      </trkpt>
      <trkpt lat="50.11738" lon="4.11808">
        <ele>177.5</ele>
        <time>2017-06-01T12:43:39Z</time>
      </trkpt>
      <trkpt lat="50.1174" lon="4.11823">
        <ele>173.17</ele>
        <time>2017-06-01T12:43:52Z</time>
      </trkpt>
      <trkpt lat="50.11727" lon="4.11855">
        <ele>171.25</ele>
        <time>2017-06-01T12:44:14Z</time>
      </trkpt>
      <trkpt lat="50.11727" lon="4.11878">
        <ele>173.17</ele>
        <time>2017-06-01T12:44:32Z</time>
      </trkpt>
      <trkpt lat="50.11722" lon="4.11898">
        <ele>174.62</ele>
        <time>2017-06-01T12:44:51Z</time>
      </trkpt>
      <trkpt lat="50.11714" lon="4.11925">
        <ele>173.17</ele>
        <time>2017-06-01T12:45:08Z</time>
      </trkpt>
      <trkpt lat="50.11709" lon="4.11951">
        <ele>173.17</ele>
        <time>2017-06-01T12:45:26Z</time>
      </trkpt>
      <trkpt lat="50.11712" lon="4.11977">
        <ele>175.58</ele>
        <time>2017-06-01T12:45:44Z</time>
      </trkpt>
      <trkpt lat="50.11715" lon="4.1201">
        <ele>180.38</ele>
        <time>2017-06-01T12:46:04Z</time>
      </trkpt>
      <trkpt lat="50.11713" lon="4.1204">
        <ele>183.75</ele>
        <time>2017-06-01T12:46:21Z</time>
      </trkpt>
      <trkpt lat="50.11722" lon="4.12063">
        <ele>185.67</ele>
        <time>2017-06-01T12:46:38Z</time>
      </trkpt>
      <trkpt lat="50.11727" lon="4.12091">
        <ele>188.08</ele>
        <time>2017-06-01T12:46:56Z</time>
      </trkpt>
      <trkpt lat="50.11729" lon="4.1213">
        <ele>190.48</ele>
        <time>2017-06-01T12:47:17Z</time>
      </trkpt>
      <trkpt lat="50.11726" lon="4.12154">
        <ele>192.4</ele>
        <time>2017-06-01T12:47:36Z</time>
      </trkpt>
      <trkpt lat="50.11728" lon="4.1216">
        <ele>194.32</ele>
        <time>2017-06-01T12:47:58Z</time>
      </trkpt>
      <trkpt lat="50.11728" lon="4.1216">
        <ele>194.8</ele>
        <time>2017-06-01T12:48:23Z</time>
      </trkpt>
      <trkpt lat="50.11729" lon="4.12164">
        <ele>194.32</ele>
        <time>2017-06-01T12:48:47Z</time>
      </trkpt>
      <trkpt lat="50.11737" lon="4.12194">
        <ele>195.28</ele>
        <time>2017-06-01T12:49:09Z</time>
      </trkpt>
      <trkpt lat="50.1174" lon="4.12217">
        <ele>191.92</ele>
        <time>2017-06-01T12:49:27Z</time>
      </trkpt>
      <trkpt lat="50.11743" lon="4.12248">
        <ele>185.67</ele>
        <time>2017-06-01T12:49:45Z</time>
      </trkpt>
      <trkpt lat="50.1175" lon="4.12271">
        <ele>181.83</ele>
        <time>2017-06-01T12:50:03Z</time>
      </trkpt>
      <trkpt lat="50.11754" lon="4.12306">
        <ele>177.5</ele>
        <time>2017-06-01T12:50:24Z</time>
      </trkpt>
      <trkpt lat="50.11766" lon="4.12337">
        <ele>173.17</ele>
        <time>2017-06-01T12:50:44Z</time>
      </trkpt>
      <trkpt lat="50.11768" lon="4.12344">
        <ele>172.69</ele>
        <time>2017-06-01T12:50:48Z</time>
      </trkpt>
      <trkpt lat="50.11786" lon="4.12376">
        <ele>179.9</ele>
        <time>2017-06-01T12:51:12Z</time>
      </trkpt>
      <trkpt lat="50.11797" lon="4.12395">
        <ele>180.38</ele>
        <time>2017-06-01T12:51:31Z</time>
      </trkpt>
      <trkpt lat="50.11816" lon="4.12429">
        <ele>181.83</ele>
        <time>2017-06-01T12:51:51Z</time>
      </trkpt>
      <trkpt lat="50.11829" lon="4.12461">
        <ele>182.31</ele>
        <time>2017-06-01T12:52:12Z</time>
      </trkpt>
      <trkpt lat="50.11815" lon="4.1249">
        <ele>177.5</ele>
        <time>2017-06-01T12:52:30Z</time>
      </trkpt>
      <trkpt lat="50.1181" lon="4.12499">
        <ele>177.02</ele>
        <time>2017-06-01T12:52:36Z</time>
      </trkpt>
      <trkpt lat="50.11808" lon="4.12532">
        <ele>175.58</ele>
        <time>2017-06-01T12:52:55Z</time>
      </trkpt>
      <trkpt lat="50.11801" lon="4.12563">
        <ele>169.33</ele>
        <time>2017-06-01T12:53:15Z</time>
      </trkpt>
      <trkpt lat="50.11792" lon="4.12604">
        <ele>166.93</ele>
        <time>2017-06-01T12:53:36Z</time>
      </trkpt>
      <trkpt lat="50.11792" lon="4.12612">
        <ele>168.85</ele>
        <time>2017-06-01T12:53:40Z</time>
      </trkpt>
      <trkpt lat="50.11785" lon="4.12644">
        <ele>169.81</ele>
        <time>2017-06-01T12:53:59Z</time>
      </trkpt>
      <trkpt lat="50.11779" lon="4.12669">
        <ele>166.45</ele>
        <time>2017-06-01T12:54:18Z</time>
      </trkpt>
      <trkpt lat="50.11774" lon="4.12692">
        <ele>161.16</ele>
        <time>2017-06-01T12:54:38Z</time>
      </trkpt>
      <trkpt lat="50.11764" lon="4.12717">
        <ele>157.31</ele>
        <time>2017-06-01T12:54:55Z</time>
      </trkpt>
      <trkpt lat="50.11758" lon="4.12722">
        <ele>156.35</ele>
        <time>2017-06-01T12:55:01Z</time>
      </trkpt>
      <trkpt lat="50.11742" lon="4.12735">
        <ele>153.47</ele>
        <time>2017-06-01T12:55:19Z</time>
      </trkpt>
      <trkpt lat="50.11736" lon="4.12741">
        <ele>153.47</ele>
        <time>2017-06-01T12:55:27Z</time>
      </trkpt>
      <trkpt lat="50.11721" lon="4.12741">
        <ele>154.43</ele>
        <time>2017-06-01T12:55:44Z</time>
      </trkpt>
      <trkpt lat="50.11699" lon="4.12747">
        <ele>159.72</ele>
        <time>2017-06-01T12:55:59Z</time>
      </trkpt>
      <trkpt lat="50.11678" lon="4.12752">
        <ele>166.93</ele>
        <time>2017-06-01T12:56:17Z</time>
      </trkpt>
      <trkpt lat="50.11675" lon="4.12757">
        <ele>168.37</ele>
        <time>2017-06-01T12:56:37Z</time>
      </trkpt>
      <trkpt lat="50.11667" lon="4.12768">
        <ele>169.33</ele>
        <time>2017-06-01T12:56:54Z</time>
      </trkpt>
      <trkpt lat="50.11664" lon="4.1277">
        <ele>170.77</ele>
        <time>2017-06-01T12:57:09Z</time>
      </trkpt>
      <trkpt lat="50.11677" lon="4.12791">
        <ele>177.98</ele>
        <time>2017-06-01T12:57:26Z</time>
      </trkpt>
      <trkpt lat="50.11662" lon="4.12818">
        <ele>178.94</ele>
        <time>2017-06-01T12:57:42Z</time>
      </trkpt>
      <trkpt lat="50.11659" lon="4.1282">
        <ele>178.94</ele>
        <time>2017-06-01T12:57:44Z</time>
      </trkpt>
      <trkpt lat="50.11648" lon="4.12825">
        <ele>180.87</ele>
        <time>2017-06-01T12:57:58Z</time>
      </trkpt>
      <trkpt lat="50.11626" lon="4.12831">
        <ele>182.79</ele>
        <time>2017-06-01T12:58:13Z</time>
      </trkpt>
      <trkpt lat="50.11607" lon="4.1284">
        <ele>187.11</ele>
        <time>2017-06-01T12:58:31Z</time>
      </trkpt>
      <trkpt lat="50.11595" lon="4.12837">
        <ele>189.04</ele>
        <time>2017-06-01T12:58:44Z</time>
      </trkpt>
      <trkpt lat="50.11584" lon="4.12842">
        <ele>190.96</ele>
        <time>2017-06-01T12:58:57Z</time>
      </trkpt>
      <trkpt lat="50.11565" lon="4.12848">
        <ele>193.84</ele>
        <time>2017-06-01T12:59:13Z</time>
      </trkpt>
      <trkpt lat="50.11554" lon="4.12851">
        <ele>193.84</ele>
        <time>2017-06-01T12:59:27Z</time>
      </trkpt>
      <trkpt lat="50.11548" lon="4.12852">
        <ele>193.36</ele>
        <time>2017-06-01T12:59:40Z</time>
      </trkpt>
      <trkpt lat="50.11548" lon="4.12848">
        <ele>192.88</ele>
        <time>2017-06-01T13:00:00Z</time>
      </trkpt>
      <trkpt lat="50.11549" lon="4.12848">
        <ele>193.36</ele>
        <time>2017-06-01T13:00:25Z</time>
      </trkpt>
      <trkpt lat="50.11548" lon="4.12849">
        <ele>193.36</ele>
        <time>2017-06-01T13:00:44Z</time>
      </trkpt>
      <trkpt lat="50.11547" lon="4.12851">
        <ele>192.88</ele>
        <time>2017-06-01T13:01:06Z</time>
      </trkpt>
      <trkpt lat="50.11542" lon="4.1285">
        <ele>192.4</ele>
        <time>2017-06-01T13:01:25Z</time>
      </trkpt>
      <trkpt lat="50.11531" lon="4.12873">
        <ele>192.4</ele>
        <time>2017-06-01T13:01:43Z</time>
      </trkpt>
      <trkpt lat="50.11523" lon="4.12896">
        <ele>192.4</ele>
        <time>2017-06-01T13:01:58Z</time>
      </trkpt>
      <trkpt lat="50.11513" lon="4.1291">
        <ele>190.48</ele>
        <time>2017-06-01T13:02:16Z</time>
      </trkpt>
      <trkpt lat="50.1151" lon="4.12927">
        <ele>189.04</ele>
        <time>2017-06-01T13:02:32Z</time>
      </trkpt>
      <trkpt lat="50.11506" lon="4.12951">
        <ele>184.71</ele>
        <time>2017-06-01T13:02:47Z</time>
      </trkpt>
      <trkpt lat="50.11493" lon="4.12977">
        <ele>179.9</ele>
        <time>2017-06-01T13:03:07Z</time>
      </trkpt>
      <trkpt lat="50.11484" lon="4.12998">
        <ele>179.42</ele>
        <time>2017-06-01T13:03:24Z</time>
      </trkpt>
      <trkpt lat="50.11476" lon="4.13021">
        <ele>179.42</ele>
        <time>2017-06-01T13:03:42Z</time>
      </trkpt>
      <trkpt lat="50.11469" lon="4.13039">
        <ele>179.42</ele>
        <time>2017-06-01T13:03:55Z</time>
      </trkpt>
      <trkpt lat="50.11465" lon="4.13045">
        <ele>178.94</ele>
        <time>2017-06-01T13:04:00Z</time>
      </trkpt>
      <trkpt lat="50.11449" lon="4.13075">
        <ele>178.46</ele>
        <time>2017-06-01T13:04:21Z</time>
      </trkpt>
      <trkpt lat="50.11435" lon="4.13089">
        <ele>177.5</ele>
        <time>2017-06-01T13:04:37Z</time>
      </trkpt>
      <trkpt lat="50.11423" lon="4.13115">
        <ele>176.06</ele>
        <time>2017-06-01T13:04:53Z</time>
      </trkpt>
      <trkpt lat="50.11405" lon="4.13136">
        <ele>176.54</ele>
        <time>2017-06-01T13:05:11Z</time>
      </trkpt>
      <trkpt lat="50.11387" lon="4.13157">
        <ele>172.21</ele>
        <time>2017-06-01T13:05:28Z</time>
      </trkpt>
      <trkpt lat="50.11368" lon="4.13174">
        <ele>169.81</ele>
        <time>2017-06-01T13:05:45Z</time>
      </trkpt>
      <trkpt lat="50.11349" lon="4.13193">
        <ele>170.77</ele>
        <time>2017-06-01T13:06:02Z</time>
      </trkpt>
      <trkpt lat="50.11334" lon="4.13203">
        <ele>170.29</ele>
        <time>2017-06-01T13:06:17Z</time>
      </trkpt>
      <trkpt lat="50.11329" lon="4.13204">
        <ele>170.77</ele>
        <time>2017-06-01T13:06:22Z</time>
      </trkpt>
      <trkpt lat="50.11321" lon="4.13188">
        <ele>167.89</ele>
        <time>2017-06-01T13:06:41Z</time>
      </trkpt>
      <trkpt lat="50.11313" lon="4.1317">
        <ele>162.12</ele>
        <time>2017-06-01T13:07:01Z</time>
      </trkpt>
      <trkpt lat="50.11278" lon="4.1312">
        <ele>167.41</ele>
        <time>2017-06-01T13:07:22Z</time>
      </trkpt>
      <trkpt lat="50.11263" lon="4.13091">
        <ele>170.77</ele>
        <time>2017-06-01T13:07:39Z</time>
      </trkpt>
      <trkpt lat="50.11261" lon="4.13077">
        <ele>171.25</ele>
        <time>2017-06-01T13:07:57Z</time>
      </trkpt>
      <trkpt lat="50.11263" lon="4.13075">
        <ele>173.66</ele>
        <time>2017-06-01T13:08:15Z</time>
      </trkpt>
      <trkpt lat="50.11281" lon="4.13114">
        <ele>177.02</ele>
        <time>2017-06-01T13:08:34Z</time>
      </trkpt>
      <trkpt lat="50.11285" lon="4.13126">
        <ele>178.46</ele>
        <time>2017-06-01T13:08:40Z</time>
      </trkpt>
      <trkpt lat="50.11295" lon="4.13154">
        <ele>181.35</ele>
        <time>2017-06-01T13:08:57Z</time>
      </trkpt>
      <trkpt lat="50.11297" lon="4.1318">
        <ele>180.87</ele>
        <time>2017-06-01T13:09:15Z</time>
      </trkpt>
      <trkpt lat="50.11289" lon="4.13198">
        <ele>180.38</ele>
        <time>2017-06-01T13:09:34Z</time>
      </trkpt>
      <trkpt lat="50.11284" lon="4.13211">
        <ele>181.83</ele>
        <time>2017-06-01T13:09:53Z</time>
      </trkpt>
      <trkpt lat="50.11283" lon="4.13218">
        <ele>182.79</ele>
        <time>2017-06-01T13:10:09Z</time>
      </trkpt>
      <trkpt lat="50.11284" lon="4.13239">
        <ele>182.31</ele>
        <time>2017-06-01T13:10:26Z</time>
      </trkpt>
      <trkpt lat="50.11276" lon="4.13282">
        <ele>178.46</ele>
        <time>2017-06-01T13:10:49Z</time>
      </trkpt>
      <trkpt lat="50.11265" lon="4.13296">
        <ele>176.54</ele>
        <time>2017-06-01T13:11:09Z</time>
      </trkpt>
      <trkpt lat="50.11252" lon="4.13315">
        <ele>177.5</ele>
        <time>2017-06-01T13:11:29Z</time>
      </trkpt>
      <trkpt lat="50.11248" lon="4.13317">
        <ele>177.5</ele>
        <time>2017-06-01T13:11:31Z</time>
      </trkpt>
      <trkpt lat="50.11239" lon="4.13327">
        <ele>176.54</ele>
        <time>2017-06-01T13:11:51Z</time>
      </trkpt>
      <trkpt lat="50.11245" lon="4.13346">
        <ele>172.69</ele>
        <time>2017-06-01T13:12:09Z</time>
      </trkpt>
      <trkpt lat="50.11247" lon="4.13355">
        <ele>170.77</ele>
        <time>2017-06-01T13:12:16Z</time>
      </trkpt>
      <trkpt lat="50.1125" lon="4.1337">
        <ele>170.29</ele>
        <time>2017-06-01T13:12:24Z</time>
      </trkpt>
      <trkpt lat="50.11254" lon="4.13387">
        <ele>169.81</ele>
        <time>2017-06-01T13:12:39Z</time>
      </trkpt>
      <trkpt lat="50.11255" lon="4.13388">
        <ele>169.33</ele>
        <time>2017-06-01T13:13:00Z</time>
      </trkpt>
      <trkpt lat="50.11255" lon="4.13392">
        <ele>169.33</ele>
        <time>2017-06-01T13:13:20Z</time>
      </trkpt>
      <trkpt lat="50.11256" lon="4.13396">
        <ele>167.89</ele>
        <time>2017-06-01T13:13:38Z</time>
      </trkpt>
      <trkpt lat="50.11255" lon="4.13387">
        <ele>166.93</ele>
        <time>2017-06-01T13:13:59Z</time>
      </trkpt>
      <trkpt lat="50.11256" lon="4.13386">
        <ele>166.93</ele>
        <time>2017-06-01T13:14:20Z</time>
      </trkpt>
      <trkpt lat="50.11257" lon="4.1339">
        <ele>166.93</ele>
        <time>2017-06-01T13:14:41Z</time>
      </trkpt>
      <trkpt lat="50.11257" lon="4.13388">
        <ele>167.41</ele>
        <time>2017-06-01T13:15:04Z</time>
      </trkpt>
      <trkpt lat="50.11257" lon="4.13386">
        <ele>166.93</ele>
        <time>2017-06-01T13:15:28Z</time>
      </trkpt>
      <trkpt lat="50.11254" lon="4.13366">
        <ele>167.89</ele>
        <time>2017-06-01T13:15:51Z</time>
      </trkpt>
      <trkpt lat="50.11252" lon="4.1336">
        <ele>167.89</ele>
        <time>2017-06-01T13:16:14Z</time>
      </trkpt>
      <trkpt lat="50.11251" lon="4.13357">
        <ele>168.37</ele>
        <time>2017-06-01T13:16:44Z</time>
      </trkpt>
      <trkpt lat="50.11247" lon="4.13356">
        <ele>168.85</ele>
        <time>2017-06-01T13:17:07Z</time>
      </trkpt>
      <trkpt lat="50.11245" lon="4.13354">
        <ele>169.33</ele>
        <time>2017-06-01T13:17:36Z</time>
      </trkpt>
      <trkpt lat="50.11242" lon="4.13353">
        <ele>169.33</ele>
        <time>2017-06-01T13:18:05Z</time>
      </trkpt>
      <trkpt lat="50.11242" lon="4.13352">
        <ele>169.81</ele>
        <time>2017-06-01T13:18:21Z</time>
      </trkpt>
      <trkpt lat="50.11245" lon="4.13359">
        <ele>170.77</ele>
        <time>2017-06-01T13:18:39Z</time>
      </trkpt>
      <trkpt lat="50.11245" lon="4.13357">
        <ele>171.25</ele>
        <time>2017-06-01T13:19:09Z</time>
      </trkpt>
      <trkpt lat="50.11246" lon="4.13357">
        <ele>170.77</ele>
        <time>2017-06-01T13:19:33Z</time>
      </trkpt>
      <trkpt lat="50.11246" lon="4.13356">
        <ele>170.77</ele>
        <time>2017-06-01T13:19:59Z</time>
      </trkpt>
      <trkpt lat="50.11246" lon="4.13356">
        <ele>170.29</ele>
        <time>2017-06-01T13:20:24Z</time>
      </trkpt>
      <trkpt lat="50.11246" lon="4.13355">
        <ele>170.29</ele>
        <time>2017-06-01T13:20:47Z</time>
      </trkpt>
      <trkpt lat="50.11246" lon="4.13356">
        <ele>170.29</ele>
        <time>2017-06-01T13:21:12Z</time>
      </trkpt>
      <trkpt lat="50.11246" lon="4.13356">
        <ele>170.77</ele>
        <time>2017-06-01T13:21:36Z</time>
      </trkpt>
      <trkpt lat="50.11247" lon="4.13364">
        <ele>170.77</ele>
        <time>2017-06-01T13:21:53Z</time>
      </trkpt>
      <trkpt lat="50.11248" lon="4.13367">
        <ele>173.17</ele>
        <time>2017-06-01T13:22:07Z</time>
      </trkpt>
      <trkpt lat="50.11251" lon="4.13373">
        <ele>173.66</ele>
        <time>2017-06-01T13:22:28Z</time>
      </trkpt>
      <trkpt lat="50.11258" lon="4.13388">
        <ele>176.06</ele>
        <time>2017-06-01T13:22:43Z</time>
      </trkpt>
      <trkpt lat="50.1126" lon="4.13396">
        <ele>177.98</ele>
        <time>2017-06-01T13:23:00Z</time>
      </trkpt>
      <trkpt lat="50.1126" lon="4.13399">
        <ele>177.98</ele>
        <time>2017-06-01T13:23:19Z</time>
      </trkpt>
      <trkpt lat="50.11259" lon="4.13401">
        <ele>178.46</ele>
        <time>2017-06-01T13:23:44Z</time>
      </trkpt>
      <trkpt lat="50.11258" lon="4.134">
        <ele>177.02</ele>
        <time>2017-06-01T13:24:09Z</time>
      </trkpt>
      <trkpt lat="50.11258" lon="4.134">
        <ele>177.02</ele>
        <time>2017-06-01T13:24:38Z</time>
      </trkpt>
      <trkpt lat="50.11258" lon="4.13396">
        <ele>177.02</ele>
        <time>2017-06-01T13:25:04Z</time>
      </trkpt>
      <trkpt lat="50.11258" lon="4.13396">
        <ele>177.5</ele>
        <time>2017-06-01T13:25:28Z</time>
      </trkpt>
      <trkpt lat="50.11258" lon="4.13396">
        <ele>177.5</ele>
        <time>2017-06-01T13:25:57Z</time>
      </trkpt>
      <trkpt lat="50.11258" lon="4.13396">
        <ele>177.5</ele>
        <time>2017-06-01T13:26:13Z</time>
      </trkpt>
      <trkpt lat="50.11258" lon="4.13396">
        <ele>177.5</ele>
        <time>2017-06-01T13:26:33Z</time>
      </trkpt>
      <trkpt lat="50.1126" lon="4.13399">
        <ele>177.5</ele>
        <time>2017-06-01T13:26:54Z</time>
      </trkpt>
      <trkpt lat="50.1126" lon="4.13401">
        <ele>177.5</ele>
        <time>2017-06-01T13:26:55Z</time>
      </trkpt>
      <trkpt lat="50.11275" lon="4.13438">
        <ele>178.94</ele>
        <time>2017-06-01T13:27:18Z</time>
      </trkpt>
      <trkpt lat="50.1128" lon="4.13456">
        <ele>179.42</ele>
        <time>2017-06-01T13:27:34Z</time>
      </trkpt>
      <trkpt lat="50.11285" lon="4.13484">
        <ele>181.35</ele>
        <time>2017-06-01T13:27:53Z</time>
      </trkpt>
      <trkpt lat="50.1129" lon="4.13512">
        <ele>180.38</ele>
        <time>2017-06-01T13:28:13Z</time>
      </trkpt>
      <trkpt lat="50.11286" lon="4.13526">
        <ele>179.9</ele>
        <time>2017-06-01T13:28:23Z</time>
      </trkpt>
      <trkpt lat="50.11285" lon="4.13556">
        <ele>178.46</ele>
        <time>2017-06-01T13:28:42Z</time>
      </trkpt>
      <trkpt lat="50.11288" lon="4.13581">
        <ele>179.42</ele>
        <time>2017-06-01T13:28:55Z</time>
      </trkpt>
      <trkpt lat="50.11287" lon="4.1362">
        <ele>178.94</ele>
        <time>2017-06-01T13:29:13Z</time>
      </trkpt>
      <trkpt lat="50.11281" lon="4.13649">
        <ele>180.38</ele>
        <time>2017-06-01T13:29:29Z</time>
      </trkpt>
      <trkpt lat="50.11279" lon="4.13688">
        <ele>185.19</ele>
        <time>2017-06-01T13:29:49Z</time>
      </trkpt>
      <trkpt lat="50.11278" lon="4.13723">
        <ele>188.08</ele>
        <time>2017-06-01T13:30:10Z</time>
      </trkpt>
      <trkpt lat="50.11268" lon="4.13761">
        <ele>190</ele>
        <time>2017-06-01T13:30:33Z</time>
      </trkpt>
      <trkpt lat="50.11267" lon="4.13789">
        <ele>188.56</ele>
        <time>2017-06-01T13:30:53Z</time>
      </trkpt>
      <trkpt lat="50.11259" lon="4.13809">
        <ele>186.15</ele>
        <time>2017-06-01T13:31:08Z</time>
      </trkpt>
      <trkpt lat="50.11249" lon="4.13843">
        <ele>188.08</ele>
        <time>2017-06-01T13:31:27Z</time>
      </trkpt>
      <trkpt lat="50.11248" lon="4.13878">
        <ele>188.56</ele>
        <time>2017-06-01T13:31:48Z</time>
      </trkpt>
      <trkpt lat="50.1124" lon="4.13902">
        <ele>188.56</ele>
        <time>2017-06-01T13:32:09Z</time>
      </trkpt>
      <trkpt lat="50.11239" lon="4.13904">
        <ele>186.63</ele>
        <time>2017-06-01T13:32:32Z</time>
      </trkpt>
      <trkpt lat="50.11246" lon="4.13938">
        <ele>187.11</ele>
        <time>2017-06-01T13:32:48Z</time>
      </trkpt>
      <trkpt lat="50.1124" lon="4.1397">
        <ele>189.52</ele>
        <time>2017-06-01T13:33:06Z</time>
      </trkpt>
      <trkpt lat="50.11237" lon="4.14013">
        <ele>192.4</ele>
        <time>2017-06-01T13:33:26Z</time>
      </trkpt>
      <trkpt lat="50.11252" lon="4.14036">
        <ele>189.52</ele>
        <time>2017-06-01T13:33:43Z</time>
      </trkpt>
      <trkpt lat="50.11262" lon="4.14059">
        <ele>185.67</ele>
        <time>2017-06-01T13:33:59Z</time>
      </trkpt>
      <trkpt lat="50.11268" lon="4.14073">
        <ele>182.31</ele>
        <time>2017-06-01T13:34:09Z</time>
      </trkpt>
      <trkpt lat="50.11288" lon="4.14103">
        <ele>179.42</ele>
        <time>2017-06-01T13:34:29Z</time>
      </trkpt>
      <trkpt lat="50.11289" lon="4.14122">
        <ele>179.9</ele>
        <time>2017-06-01T13:34:36Z</time>
      </trkpt>
      <trkpt lat="50.11294" lon="4.14161">
        <ele>180.87</ele>
        <time>2017-06-01T13:34:51Z</time>
      </trkpt>
      <trkpt lat="50.11294" lon="4.14194">
        <ele>180.38</ele>
        <time>2017-06-01T13:35:09Z</time>
      </trkpt>
      <trkpt lat="50.11295" lon="4.14218">
        <ele>179.42</ele>
        <time>2017-06-01T13:35:27Z</time>
      </trkpt>
      <trkpt lat="50.11292" lon="4.14236">
        <ele>177.98</ele>
        <time>2017-06-01T13:35:47Z</time>
      </trkpt>
      <trkpt lat="50.11294" lon="4.14264">
        <ele>176.54</ele>
        <time>2017-06-01T13:36:02Z</time>
      </trkpt>
      <trkpt lat="50.1129" lon="4.14299">
        <ele>176.54</ele>
        <time>2017-06-01T13:36:24Z</time>
      </trkpt>
      <trkpt lat="50.1129" lon="4.14332">
        <ele>177.98</ele>
        <time>2017-06-01T13:36:42Z</time>
      </trkpt>
      <trkpt lat="50.11295" lon="4.14363">
        <ele>179.42</ele>
        <time>2017-06-01T13:37:00Z</time>
      </trkpt>
      <trkpt lat="50.11303" lon="4.14391">
        <ele>177.98</ele>
        <time>2017-06-01T13:37:18Z</time>
      </trkpt>
      <trkpt lat="50.11306" lon="4.1442">
        <ele>176.54</ele>
        <time>2017-06-01T13:37:36Z</time>
      </trkpt>
      <trkpt lat="50.11308" lon="4.14447">
        <ele>174.62</ele>
        <time>2017-06-01T13:37:54Z</time>
      </trkpt>
      <trkpt lat="50.11323" lon="4.1448">
        <ele>176.54</ele>
        <time>2017-06-01T13:38:14Z</time>
      </trkpt>
      <trkpt lat="50.11331" lon="4.14509">
        <ele>181.35</ele>
        <time>2017-06-01T13:38:38Z</time>
      </trkpt>
      <trkpt lat="50.1134" lon="4.14555">
        <ele>179.42</ele>
        <time>2017-06-01T13:39:00Z</time>
      </trkpt>
      <trkpt lat="50.11343" lon="4.14585">
        <ele>177.98</ele>
        <time>2017-06-01T13:39:19Z</time>
      </trkpt>
      <trkpt lat="50.11346" lon="4.14612">
        <ele>177.02</ele>
        <time>2017-06-01T13:39:42Z</time>
      </trkpt>
      <trkpt lat="50.1135" lon="4.14625">
        <ele>176.54</ele>
        <time>2017-06-01T13:40:06Z</time>
      </trkpt>
      <trkpt lat="50.11358" lon="4.14666">
        <ele>174.62</ele>
        <time>2017-06-01T13:40:25Z</time>
      </trkpt>
      <trkpt lat="50.1136" lon="4.14708">
        <ele>171.73</ele>
        <time>2017-06-01T13:40:46Z</time>
      </trkpt>
      <trkpt lat="50.11346" lon="4.14726">
        <ele>170.77</ele>
        <time>2017-06-01T13:41:07Z</time>
      </trkpt>
      <trkpt lat="50.1133" lon="4.14734">
        <ele>171.25</ele>
        <time>2017-06-01T13:41:28Z</time>
      </trkpt>
      <trkpt lat="50.11315" lon="4.14753">
        <ele>170.29</ele>
        <time>2017-06-01T13:41:51Z</time>
      </trkpt>
      <trkpt lat="50.11309" lon="4.14772">
        <ele>175.1</ele>
        <time>2017-06-01T13:42:13Z</time>
      </trkpt>
      <trkpt lat="50.11309" lon="4.14784">
        <ele>179.42</ele>
        <time>2017-06-01T13:42:34Z</time>
      </trkpt>
      <trkpt lat="50.11309" lon="4.14794">
        <ele>182.31</ele>
        <time>2017-06-01T13:42:53Z</time>
      </trkpt>
      <trkpt lat="50.11319" lon="4.14821">
        <ele>183.27</ele>
        <time>2017-06-01T13:43:09Z</time>
      </trkpt>
      <trkpt lat="50.11327" lon="4.14848">
        <ele>189.04</ele>
        <time>2017-06-01T13:43:28Z</time>
      </trkpt>
      <trkpt lat="50.11329" lon="4.14879">
        <ele>191.92</ele>
        <time>2017-06-01T13:43:49Z</time>
      </trkpt>
      <trkpt lat="50.11329" lon="4.14887">
        <ele>192.4</ele>
        <time>2017-06-01T13:43:55Z</time>
      </trkpt>
      <trkpt lat="50.11329" lon="4.14917">
        <ele>192.4</ele>
        <time>2017-06-01T13:44:12Z</time>
      </trkpt>
      <trkpt lat="50.1133" lon="4.14946">
        <ele>197.21</ele>
        <time>2017-06-01T13:44:30Z</time>
      </trkpt>
      <trkpt lat="50.1133" lon="4.14969">
        <ele>198.65</ele>
        <time>2017-06-01T13:44:48Z</time>
      </trkpt>
      <trkpt lat="50.11333" lon="4.14997">
        <ele>203.46</ele>
        <time>2017-06-01T13:45:05Z</time>
      </trkpt>
      <trkpt lat="50.11334" lon="4.15025">
        <ele>207.3</ele>
        <time>2017-06-01T13:45:23Z</time>
      </trkpt>
      <trkpt lat="50.11334" lon="4.15026">
        <ele>207.78</ele>
        <time>2017-06-01T13:45:24Z</time>
      </trkpt>
      <trkpt lat="50.11334" lon="4.15057">
        <ele>209.7</ele>
        <time>2017-06-01T13:45:44Z</time>
      </trkpt>
      <trkpt lat="50.11333" lon="4.15096">
        <ele>209.22</ele>
        <time>2017-06-01T13:46:05Z</time>
      </trkpt>
      <trkpt lat="50.1133" lon="4.15127">
        <ele>208.74</ele>
        <time>2017-06-01T13:46:24Z</time>
      </trkpt>
      <trkpt lat="50.11325" lon="4.15164">
        <ele>209.22</ele>
        <time>2017-06-01T13:46:47Z</time>
      </trkpt>
      <trkpt lat="50.1132" lon="4.15193">
        <ele>207.78</ele>
        <time>2017-06-01T13:47:06Z</time>
      </trkpt>
      <trkpt lat="50.11317" lon="4.15227">
        <ele>208.74</ele>
        <time>2017-06-01T13:47:25Z</time>
      </trkpt>
      <trkpt lat="50.11314" lon="4.1525">
        <ele>210.19</ele>
        <time>2017-06-01T13:47:42Z</time>
      </trkpt>
      <trkpt lat="50.11312" lon="4.15285">
        <ele>211.15</ele>
        <time>2017-06-01T13:48:05Z</time>
      </trkpt>
      <trkpt lat="50.11316" lon="4.15318">
        <ele>213.55</ele>
        <time>2017-06-01T13:48:26Z</time>
      </trkpt>
      <trkpt lat="50.11321" lon="4.15326">
        <ele>215.47</ele>
        <time>2017-06-01T13:48:49Z</time>
      </trkpt>
      <trkpt lat="50.1132" lon="4.15326">
        <ele>219.8</ele>
        <time>2017-06-01T13:49:17Z</time>
      </trkpt>
      <trkpt lat="50.1132" lon="4.15326">
        <ele>220.28</ele>
        <time>2017-06-01T13:49:38Z</time>
      </trkpt>
      <trkpt lat="50.1132" lon="4.15328">
        <ele>220.76</ele>
        <time>2017-06-01T13:49:57Z</time>
      </trkpt>
      <trkpt lat="50.1132" lon="4.15329">
        <ele>221.24</ele>
        <time>2017-06-01T13:50:11Z</time>
      </trkpt>
      <trkpt lat="50.1132" lon="4.1533">
        <ele>221.24</ele>
        <time>2017-06-01T13:50:30Z</time>
      </trkpt>
      <trkpt lat="50.11319" lon="4.1533">
        <ele>220.76</ele>
        <time>2017-06-01T13:50:53Z</time>
      </trkpt>
      <trkpt lat="50.11318" lon="4.15331">
        <ele>220.76</ele>
        <time>2017-06-01T13:51:16Z</time>
      </trkpt>
      <trkpt lat="50.11317" lon="4.15331">
        <ele>221.72</ele>
        <time>2017-06-01T13:51:40Z</time>
      </trkpt>
      <trkpt lat="50.11315" lon="4.15336">
        <ele>222.2</ele>
        <time>2017-06-01T13:51:57Z</time>
      </trkpt>
      <trkpt lat="50.11313" lon="4.1534">
        <ele>222.2</ele>
        <time>2017-06-01T13:52:01Z</time>
      </trkpt>
      <trkpt lat="50.11301" lon="4.15356">
        <ele>223.16</ele>
        <time>2017-06-01T13:52:13Z</time>
      </trkpt>
      <trkpt lat="50.11281" lon="4.15378">
        <ele>223.64</ele>
        <time>2017-06-01T13:52:32Z</time>
      </trkpt>
      <trkpt lat="50.11267" lon="4.15396">
        <ele>223.64</ele>
        <time>2017-06-01T13:52:47Z</time>
      </trkpt>
      <trkpt lat="50.11252" lon="4.15414">
        <ele>223.16</ele>
        <time>2017-06-01T13:53:04Z</time>
      </trkpt>
      <trkpt lat="50.11238" lon="4.15443">
        <ele>219.8</ele>
        <time>2017-06-01T13:53:23Z</time>
      </trkpt>
      <trkpt lat="50.11227" lon="4.15468">
        <ele>220.76</ele>
        <time>2017-06-01T13:53:39Z</time>
      </trkpt>
      <trkpt lat="50.11216" lon="4.155">
        <ele>215.95</ele>
        <time>2017-06-01T13:54:00Z</time>
      </trkpt>
      <trkpt lat="50.11202" lon="4.15535">
        <ele>218.84</ele>
        <time>2017-06-01T13:54:20Z</time>
      </trkpt>
      <trkpt lat="50.11187" lon="4.15562">
        <ele>222.68</ele>
        <time>2017-06-01T13:54:39Z</time>
      </trkpt>
      <trkpt lat="50.11173" lon="4.15598">
        <ele>224.61</ele>
        <time>2017-06-01T13:54:56Z</time>
      </trkpt>
      <trkpt lat="50.1116" lon="4.15627">
        <ele>220.28</ele>
        <time>2017-06-01T13:55:16Z</time>
      </trkpt>
      <trkpt lat="50.11149" lon="4.15652">
        <ele>217.88</ele>
        <time>2017-06-01T13:55:33Z</time>
      </trkpt>
      <trkpt lat="50.11136" lon="4.15668">
        <ele>215.95</ele>
        <time>2017-06-01T13:55:47Z</time>
      </trkpt>
      <trkpt lat="50.11135" lon="4.15668">
        <ele>215.95</ele>
        <time>2017-06-01T13:55:48Z</time>
      </trkpt>
      <trkpt lat="50.11126" lon="4.15688">
        <ele>215.47</ele>
        <time>2017-06-01T13:56:01Z</time>
      </trkpt>
      <trkpt lat="50.11122" lon="4.15711">
        <ele>218.36</ele>
        <time>2017-06-01T13:56:10Z</time>
      </trkpt>
      <trkpt lat="50.1112" lon="4.15718">
        <ele>217.4</ele>
        <time>2017-06-01T13:56:14Z</time>
      </trkpt>
      <trkpt lat="50.11113" lon="4.1573">
        <ele>216.91</ele>
        <time>2017-06-01T13:56:23Z</time>
      </trkpt>
      <trkpt lat="50.11109" lon="4.1574">
        <ele>216.91</ele>
        <time>2017-06-01T13:56:28Z</time>
      </trkpt>
      <trkpt lat="50.11102" lon="4.15753">
        <ele>218.36</ele>
        <time>2017-06-01T13:56:36Z</time>
      </trkpt>
      <trkpt lat="50.11091" lon="4.15772">
        <ele>217.88</ele>
        <time>2017-06-01T13:56:50Z</time>
      </trkpt>
      <trkpt lat="50.1108" lon="4.15807">
        <ele>222.2</ele>
        <time>2017-06-01T13:57:07Z</time>
      </trkpt>
      <trkpt lat="50.11071" lon="4.15831">
        <ele>223.64</ele>
        <time>2017-06-01T13:57:21Z</time>
      </trkpt>
      <trkpt lat="50.1107" lon="4.15832">
        <ele>223.64</ele>
        <time>2017-06-01T13:57:22Z</time>
      </trkpt>
      <trkpt lat="50.1106" lon="4.15851">
        <ele>223.16</ele>
        <time>2017-06-01T13:57:35Z</time>
      </trkpt>
      <trkpt lat="50.1105" lon="4.15871">
        <ele>223.16</ele>
        <time>2017-06-01T13:57:47Z</time>
      </trkpt>
      <trkpt lat="50.11037" lon="4.15906">
        <ele>224.12</ele>
        <time>2017-06-01T13:58:07Z</time>
      </trkpt>
      <trkpt lat="50.11027" lon="4.15931">
        <ele>224.12</ele>
        <time>2017-06-01T13:58:23Z</time>
      </trkpt>
      <trkpt lat="50.11014" lon="4.15957">
        <ele>225.57</ele>
        <time>2017-06-01T13:58:38Z</time>
      </trkpt>
      <trkpt lat="50.11009" lon="4.15981">
        <ele>227.49</ele>
        <time>2017-06-01T13:58:50Z</time>
      </trkpt>
      <trkpt lat="50.10997" lon="4.16018">
        <ele>228.45</ele>
        <time>2017-06-01T13:59:09Z</time>
      </trkpt>
      <trkpt lat="50.10985" lon="4.16051">
        <ele>230.85</ele>
        <time>2017-06-01T13:59:27Z</time>
      </trkpt>
      <trkpt lat="50.10969" lon="4.16083">
        <ele>231.33</ele>
        <time>2017-06-01T13:59:49Z</time>
      </trkpt>
      <trkpt lat="50.10967" lon="4.16093">
        <ele>231.81</ele>
        <time>2017-06-01T13:59:53Z</time>
      </trkpt>
      <trkpt lat="50.10955" lon="4.16115">
        <ele>233.26</ele>
        <time>2017-06-01T14:00:09Z</time>
      </trkpt>
      <trkpt lat="50.10943" lon="4.16146">
        <ele>232.3</ele>
        <time>2017-06-01T14:00:27Z</time>
      </trkpt>
      <trkpt lat="50.10942" lon="4.16172">
        <ele>232.3</ele>
        <time>2017-06-01T14:00:42Z</time>
      </trkpt>
      <trkpt lat="50.10939" lon="4.16171">
        <ele>230.85</ele>
        <time>2017-06-01T14:01:04Z</time>
      </trkpt>
      <trkpt lat="50.10939" lon="4.16172">
        <ele>231.33</ele>
        <time>2017-06-01T14:01:26Z</time>
      </trkpt>
      <trkpt lat="50.10947" lon="4.16182">
        <ele>232.78</ele>
        <time>2017-06-01T14:01:46Z</time>
      </trkpt>
      <trkpt lat="50.10952" lon="4.16187">
        <ele>233.26</ele>
        <time>2017-06-01T14:01:50Z</time>
      </trkpt>
      <trkpt lat="50.10966" lon="4.16213">
        <ele>231.81</ele>
        <time>2017-06-01T14:02:09Z</time>
      </trkpt>
      <trkpt lat="50.10983" lon="4.1626">
        <ele>229.89</ele>
        <time>2017-06-01T14:02:32Z</time>
      </trkpt>
      <trkpt lat="50.1099" lon="4.16274">
        <ele>230.37</ele>
        <time>2017-06-01T14:02:40Z</time>
      </trkpt>
      <trkpt lat="50.10998" lon="4.16302">
        <ele>230.37</ele>
        <time>2017-06-01T14:02:57Z</time>
      </trkpt>
      <trkpt lat="50.11003" lon="4.1634">
        <ele>230.85</ele>
        <time>2017-06-01T14:03:17Z</time>
      </trkpt>
      <trkpt lat="50.11019" lon="4.1638">
        <ele>229.89</ele>
        <time>2017-06-01T14:03:38Z</time>
      </trkpt>
      <trkpt lat="50.11027" lon="4.16409">
        <ele>226.05</ele>
        <time>2017-06-01T14:03:57Z</time>
      </trkpt>
      <trkpt lat="50.11032" lon="4.16445">
        <ele>227.01</ele>
        <time>2017-06-01T14:04:15Z</time>
      </trkpt>
      <trkpt lat="50.11046" lon="4.16474">
        <ele>230.85</ele>
        <time>2017-06-01T14:04:33Z</time>
      </trkpt>
      <trkpt lat="50.11063" lon="4.16495">
        <ele>231.81</ele>
        <time>2017-06-01T14:04:52Z</time>
      </trkpt>
      <trkpt lat="50.11087" lon="4.16516">
        <ele>234.7</ele>
        <time>2017-06-01T14:05:10Z</time>
      </trkpt>
      <trkpt lat="50.1111" lon="4.16534">
        <ele>234.7</ele>
        <time>2017-06-01T14:05:29Z</time>
      </trkpt>
      <trkpt lat="50.11114" lon="4.16538">
        <ele>234.22</ele>
        <time>2017-06-01T14:05:33Z</time>
      </trkpt>
      <trkpt lat="50.11127" lon="4.16547">
        <ele>233.26</ele>
        <time>2017-06-01T14:05:44Z</time>
      </trkpt>
      <trkpt lat="50.1114" lon="4.16559">
        <ele>232.78</ele>
        <time>2017-06-01T14:05:56Z</time>
      </trkpt>
      <trkpt lat="50.11161" lon="4.16576">
        <ele>231.81</ele>
        <time>2017-06-01T14:06:14Z</time>
      </trkpt>
      <trkpt lat="50.11177" lon="4.16588">
        <ele>229.89</ele>
        <time>2017-06-01T14:06:29Z</time>
      </trkpt>
      <trkpt lat="50.11188" lon="4.16592">
        <ele>230.85</ele>
        <time>2017-06-01T14:06:37Z</time>
      </trkpt>
      <trkpt lat="50.11213" lon="4.16611">
        <ele>230.37</ele>
        <time>2017-06-01T14:06:56Z</time>
      </trkpt>
      <trkpt lat="50.11234" lon="4.16629">
        <ele>229.41</ele>
        <time>2017-06-01T14:07:14Z</time>
      </trkpt>
      <trkpt lat="50.11256" lon="4.16645">
        <ele>226.53</ele>
        <time>2017-06-01T14:07:34Z</time>
      </trkpt>
      <trkpt lat="50.1128" lon="4.16656">
        <ele>225.09</ele>
        <time>2017-06-01T14:07:54Z</time>
      </trkpt>
      <trkpt lat="50.11308" lon="4.16661">
        <ele>226.05</ele>
        <time>2017-06-01T14:08:14Z</time>
      </trkpt>
      <trkpt lat="50.11336" lon="4.16673">
        <ele>225.09</ele>
        <time>2017-06-01T14:08:35Z</time>
      </trkpt>
      <trkpt lat="50.11354" lon="4.1668">
        <ele>221.72</ele>
        <time>2017-06-01T14:08:54Z</time>
      </trkpt>
      <trkpt lat="50.11364" lon="4.16684">
        <ele>222.2</ele>
        <time>2017-06-01T14:09:00Z</time>
      </trkpt>
      <trkpt lat="50.1139" lon="4.16699">
        <ele>222.68</ele>
        <time>2017-06-01T14:09:18Z</time>
      </trkpt>
      <trkpt lat="50.1141" lon="4.1672">
        <ele>222.68</ele>
        <time>2017-06-01T14:09:37Z</time>
      </trkpt>
      <trkpt lat="50.11429" lon="4.16739">
        <ele>222.68</ele>
        <time>2017-06-01T14:09:55Z</time>
      </trkpt>
      <trkpt lat="50.11444" lon="4.16774">
        <ele>224.12</ele>
        <time>2017-06-01T14:10:16Z</time>
      </trkpt>
      <trkpt lat="50.11449" lon="4.16799">
        <ele>224.61</ele>
        <time>2017-06-01T14:10:28Z</time>
      </trkpt>
      <trkpt lat="50.11457" lon="4.16829">
        <ele>225.57</ele>
        <time>2017-06-01T14:10:43Z</time>
      </trkpt>
      <trkpt lat="50.11467" lon="4.16868">
        <ele>227.97</ele>
        <time>2017-06-01T14:11:01Z</time>
      </trkpt>
      <trkpt lat="50.11473" lon="4.16905">
        <ele>225.57</ele>
        <time>2017-06-01T14:11:19Z</time>
      </trkpt>
      <trkpt lat="50.11478" lon="4.16944">
        <ele>223.16</ele>
        <time>2017-06-01T14:11:38Z</time>
      </trkpt>
      <trkpt lat="50.11484" lon="4.16974">
        <ele>222.68</ele>
        <time>2017-06-01T14:11:53Z</time>
      </trkpt>
      <trkpt lat="50.11492" lon="4.17008">
        <ele>222.68</ele>
        <time>2017-06-01T14:12:09Z</time>
      </trkpt>
      <trkpt lat="50.11496" lon="4.17042">
        <ele>219.8</ele>
        <time>2017-06-01T14:12:27Z</time>
      </trkpt>
      <trkpt lat="50.11504" lon="4.17079">
        <ele>217.88</ele>
        <time>2017-06-01T14:12:45Z</time>
      </trkpt>
      <trkpt lat="50.11507" lon="4.17098">
        <ele>216.91</ele>
        <time>2017-06-01T14:12:55Z</time>
      </trkpt>
      <trkpt lat="50.11509" lon="4.17117">
        <ele>215.95</ele>
        <time>2017-06-01T14:13:04Z</time>
      </trkpt>
      <trkpt lat="50.11509" lon="4.17122">
        <ele>215.95</ele>
        <time>2017-06-01T14:13:07Z</time>
      </trkpt>
      <trkpt lat="50.11511" lon="4.17158">
        <ele>214.03</ele>
        <time>2017-06-01T14:13:25Z</time>
      </trkpt>
      <trkpt lat="50.11523" lon="4.17188">
        <ele>214.03</ele>
        <time>2017-06-01T14:13:40Z</time>
      </trkpt>
      <trkpt lat="50.11533" lon="4.17214">
        <ele>213.07</ele>
        <time>2017-06-01T14:13:55Z</time>
      </trkpt>
      <trkpt lat="50.1154" lon="4.17247">
        <ele>211.15</ele>
        <time>2017-06-01T14:14:13Z</time>
      </trkpt>
      <trkpt lat="50.11547" lon="4.17274">
        <ele>208.74</ele>
        <time>2017-06-01T14:14:27Z</time>
      </trkpt>
      <trkpt lat="50.11554" lon="4.17303">
        <ele>206.34</ele>
        <time>2017-06-01T14:14:43Z</time>
      </trkpt>
      <trkpt lat="50.11567" lon="4.17341">
        <ele>202.98</ele>
        <time>2017-06-01T14:15:04Z</time>
      </trkpt>
      <trkpt lat="50.1158" lon="4.17369">
        <ele>198.17</ele>
        <time>2017-06-01T14:15:22Z</time>
      </trkpt>
      <trkpt lat="50.11594" lon="4.17396">
        <ele>190.48</ele>
        <time>2017-06-01T14:15:40Z</time>
      </trkpt>
      <trkpt lat="50.11599" lon="4.17408">
        <ele>187.59</ele>
        <time>2017-06-01T14:15:49Z</time>
      </trkpt>
      <trkpt lat="50.11609" lon="4.17437">
        <ele>181.83</ele>
        <time>2017-06-01T14:16:07Z</time>
      </trkpt>
      <trkpt lat="50.11621" lon="4.17466">
        <ele>177.98</ele>
        <time>2017-06-01T14:16:24Z</time>
      </trkpt>
      <trkpt lat="50.11644" lon="4.17491">
        <ele>179.42</ele>
        <time>2017-06-01T14:16:39Z</time>
      </trkpt>
      <trkpt lat="50.11658" lon="4.17519">
        <ele>177.5</ele>
        <time>2017-06-01T14:16:56Z</time>
      </trkpt>
      <trkpt lat="50.11661" lon="4.17529">
        <ele>175.58</ele>
        <time>2017-06-01T14:17:04Z</time>
      </trkpt>
      <trkpt lat="50.11674" lon="4.17564">
        <ele>179.42</ele>
        <time>2017-06-01T14:17:23Z</time>
      </trkpt>
      <trkpt lat="50.11679" lon="4.17575">
        <ele>177.02</ele>
        <time>2017-06-01T14:17:38Z</time>
      </trkpt>
      <trkpt lat="50.11683" lon="4.17574">
        <ele>177.5</ele>
        <time>2017-06-01T14:17:59Z</time>
      </trkpt>
      <trkpt lat="50.11695" lon="4.17564">
        <ele>177.98</ele>
        <time>2017-06-01T14:18:11Z</time>
      </trkpt>
      <trkpt lat="50.11715" lon="4.1755">
        <ele>176.54</ele>
        <time>2017-06-01T14:18:29Z</time>
      </trkpt>
      <trkpt lat="50.11736" lon="4.17537">
        <ele>174.62</ele>
        <time>2017-06-01T14:18:47Z</time>
      </trkpt>
      <trkpt lat="50.11757" lon="4.17527">
        <ele>173.66</ele>
        <time>2017-06-01T14:19:05Z</time>
      </trkpt>
      <trkpt lat="50.11776" lon="4.17513">
        <ele>172.69</ele>
        <time>2017-06-01T14:19:21Z</time>
      </trkpt>
      <trkpt lat="50.118" lon="4.17496">
        <ele>175.1</ele>
        <time>2017-06-01T14:19:40Z</time>
      </trkpt>
      <trkpt lat="50.11805" lon="4.17495">
        <ele>174.62</ele>
        <time>2017-06-01T14:19:55Z</time>
      </trkpt>
      <trkpt lat="50.11797" lon="4.17501">
        <ele>172.21</ele>
        <time>2017-06-01T14:20:13Z</time>
      </trkpt>
      <trkpt lat="50.11776" lon="4.17517">
        <ele>172.21</ele>
        <time>2017-06-01T14:20:29Z</time>
      </trkpt>
      <trkpt lat="50.11756" lon="4.17538">
        <ele>171.25</ele>
        <time>2017-06-01T14:20:49Z</time>
      </trkpt>
      <trkpt lat="50.11736" lon="4.1755">
        <ele>169.81</ele>
        <time>2017-06-01T14:21:08Z</time>
      </trkpt>
      <trkpt lat="50.11716" lon="4.17558">
        <ele>170.29</ele>
        <time>2017-06-01T14:21:27Z</time>
      </trkpt>
      <trkpt lat="50.11693" lon="4.17576">
        <ele>173.66</ele>
        <time>2017-06-01T14:21:44Z</time>
      </trkpt>
      <trkpt lat="50.1169" lon="4.1759">
        <ele>175.58</ele>
        <time>2017-06-01T14:21:58Z</time>
      </trkpt>
      <trkpt lat="50.11704" lon="4.17624">
        <ele>176.06</ele>
        <time>2017-06-01T14:22:19Z</time>
      </trkpt>
      <trkpt lat="50.1171" lon="4.17638">
        <ele>175.1</ele>
        <time>2017-06-01T14:22:29Z</time>
      </trkpt>
      <trkpt lat="50.11721" lon="4.17673">
        <ele>172.21</ele>
        <time>2017-06-01T14:22:49Z</time>
      </trkpt>
      <trkpt lat="50.1174" lon="4.17709">
        <ele>175.58</ele>
        <time>2017-06-01T14:23:09Z</time>
      </trkpt>
      <trkpt lat="50.11755" lon="4.17743">
        <ele>176.06</ele>
        <time>2017-06-01T14:23:30Z</time>
      </trkpt>
      <trkpt lat="50.11768" lon="4.17772">
        <ele>176.54</ele>
        <time>2017-06-01T14:23:47Z</time>
      </trkpt>
      <trkpt lat="50.11783" lon="4.17806">
        <ele>176.06</ele>
        <time>2017-06-01T14:24:07Z</time>
      </trkpt>
      <trkpt lat="50.11796" lon="4.17826">
        <ele>174.62</ele>
        <time>2017-06-01T14:24:25Z</time>
      </trkpt>
      <trkpt lat="50.11815" lon="4.17807">
        <ele>174.14</ele>
        <time>2017-06-01T14:24:44Z</time>
      </trkpt>
      <trkpt lat="50.11818" lon="4.17804">
        <ele>174.14</ele>
        <time>2017-06-01T14:24:47Z</time>
      </trkpt>
      <trkpt lat="50.11838" lon="4.17782">
        <ele>172.69</ele>
        <time>2017-06-01T14:25:06Z</time>
      </trkpt>
      <trkpt lat="50.11859" lon="4.1778">
        <ele>171.25</ele>
        <time>2017-06-01T14:25:26Z</time>
      </trkpt>
      <trkpt lat="50.11884" lon="4.17777">
        <ele>169.81</ele>
        <time>2017-06-01T14:25:45Z</time>
      </trkpt>
      <trkpt lat="50.11907" lon="4.17781">
        <ele>171.25</ele>
        <time>2017-06-01T14:26:03Z</time>
      </trkpt>
      <trkpt lat="50.11926" lon="4.17782">
        <ele>173.66</ele>
        <time>2017-06-01T14:26:20Z</time>
      </trkpt>
      <trkpt lat="50.11941" lon="4.17783">
        <ele>179.9</ele>
        <time>2017-06-01T14:26:37Z</time>
      </trkpt>
      <trkpt lat="50.11958" lon="4.17796">
        <ele>178.46</ele>
        <time>2017-06-01T14:26:51Z</time>
      </trkpt>
      <trkpt lat="50.11959" lon="4.17803">
        <ele>178.46</ele>
        <time>2017-06-01T14:26:54Z</time>
      </trkpt>
      <trkpt lat="50.1196" lon="4.17811">
        <ele>177.02</ele>
        <time>2017-06-01T14:26:57Z</time>
      </trkpt>
      <trkpt lat="50.11966" lon="4.17843">
        <ele>177.02</ele>
        <time>2017-06-01T14:27:14Z</time>
      </trkpt>
      <trkpt lat="50.11977" lon="4.17858">
        <ele>178.46</ele>
        <time>2017-06-01T14:27:30Z</time>
      </trkpt>
      <trkpt lat="50.11978" lon="4.17871">
        <ele>180.38</ele>
        <time>2017-06-01T14:27:41Z</time>
      </trkpt>
      <trkpt lat="50.11985" lon="4.17891">
        <ele>182.31</ele>
        <time>2017-06-01T14:28:00Z</time>
      </trkpt>
      <trkpt lat="50.11984" lon="4.17892">
        <ele>183.27</ele>
        <time>2017-06-01T14:28:20Z</time>
      </trkpt>
      <trkpt lat="50.11987" lon="4.17907">
        <ele>185.19</ele>
        <time>2017-06-01T14:28:35Z</time>
      </trkpt>
      <trkpt lat="50.11987" lon="4.17908">
        <ele>186.63</ele>
        <time>2017-06-01T14:28:45Z</time>
      </trkpt>
    </trkseg>
  </trk>
</gpx>